<?xml version='1.0' encoding='UTF-8'?><gpx version="1.1" creator="JPX - https://github.com/jenetics/jpx" xmlns="http://www.topografix.com/GPX/1/1"><trk><trkseg><trkpt lat="41.067031564877325" lon="14.85314472347371"><ele>388.0</ele><time>2026-04-14T10:09:37.993Z</time></trkpt><trkpt lat="41.06701935216386" lon="14.853061696960355"><ele>388.0</ele><time>2026-04-14T10:09:39.994Z</time></trkpt><trkpt lat="41.067005758668515" lon="14.852963494819702"><ele>388.0</ele><time>2026-04-14T10:09:41.995Z</time></trkpt><trkpt lat="41.06698116363141" lon="14.852882654916407"><ele>388.0</ele><time>2026-04-14T10:09:43.996Z</time></trkpt><trkpt lat="41.06695317296849" lon="14.85279503550832"><ele>388.0</ele><time>2026-04-14T10:09:45.996Z</time></trkpt><trkpt lat="41.06690963939687" lon="14.852714344139732"><ele>388.0</ele><time>2026-04-14T10:09:47.997Z</time></trkpt><trkpt lat="41.066881517960134" lon="14.85262419735988"><ele>388.0</ele><time>2026-04-14T10:09:49.997Z</time></trkpt><trkpt lat="41.06688702459259" lon="14.852518721738797"><ele>387.83333333333337</ele><time>2026-04-14T10:09:53.998Z</time></trkpt><trkpt lat="41.06682610194131" lon="14.852442388224883"><ele>387.6666666666667</ele><time>2026-04-14T10:09:55.998Z</time></trkpt><trkpt lat="41.066787786638194" lon="14.852342396207288"><ele>387.5</ele><time>2026-04-14T10:09:59.999Z</time></trkpt><trkpt lat="41.06676668935611" lon="14.852225544242929"><ele>387.33333333333337</ele><time>2026-04-14T10:10:02.999Z</time></trkpt><trkpt lat="41.06675588968807" lon="14.852136104121332"><ele>387.1666666666667</ele><time>2026-04-14T10:10:04.999Z</time></trkpt><trkpt lat="41.06670928668935" lon="14.852023960848584"><ele>387.0</ele><time>2026-04-14T10:10:07.999Z</time></trkpt><trkpt lat="41.06668537885763" lon="14.851927047877192"><ele>387.0</ele><time>2026-04-14T10:10:09.999Z</time></trkpt><trkpt lat="41.06665805843945" lon="14.85179387748218"><ele>387.0</ele><time>2026-04-14T10:10:12Z</time></trkpt><trkpt lat="41.0666181371025" lon="14.85167846447394"><ele>387.0</ele><time>2026-04-14T10:10:14Z</time></trkpt><trkpt lat="41.066594545981765" lon="14.85156373121347"><ele>387.0</ele><time>2026-04-14T10:10:16Z</time></trkpt><trkpt lat="41.066559679395645" lon="14.851488425382016"><ele>387.0</ele><time>2026-04-14T10:10:27Z</time></trkpt><trkpt lat="41.06650308961549" lon="14.851440253984615"><ele>387.0</ele><time>2026-04-14T10:10:30Z</time></trkpt><trkpt lat="41.06644291912311" lon="14.85147029245339"><ele>386.5</ele><time>2026-04-14T10:10:32Z</time></trkpt><trkpt lat="41.06637994437545" lon="14.851496171398054"><ele>386.0</ele><time>2026-04-14T10:10:34Z</time></trkpt><trkpt lat="41.06630584338018" lon="14.851527165102446"><ele>385.5</ele><time>2026-04-14T10:10:36Z</time></trkpt><trkpt lat="41.06622754166342" lon="14.851554043228889"><ele>385.0</ele><time>2026-04-14T10:10:38Z</time></trkpt><trkpt lat="41.066154933097486" lon="14.851592612687893"><ele>384.5</ele><time>2026-04-14T10:10:40Z</time></trkpt><trkpt lat="41.066084911759" lon="14.851623796691754"><ele>384.0</ele><time>2026-04-14T10:10:42Z</time></trkpt><trkpt lat="41.06600728063656" lon="14.851664193736088"><ele>384.0</ele><time>2026-04-14T10:10:44Z</time></trkpt><trkpt lat="41.065942638129094" lon="14.851704144570144"><ele>384.0</ele><time>2026-04-14T10:10:46Z</time></trkpt><trkpt lat="41.065872389456686" lon="14.851735786887092"><ele>384.0</ele><time>2026-04-14T10:10:48Z</time></trkpt><trkpt lat="41.065799525960884" lon="14.851764969252343"><ele>384.0</ele><time>2026-04-14T10:10:50Z</time></trkpt><trkpt lat="41.06573106558087" lon="14.851798456314475"><ele>384.0</ele><time>2026-04-14T10:10:52Z</time></trkpt><trkpt lat="41.06565178638247" lon="14.851844409720892"><ele>384.0</ele><time>2026-04-14T10:10:55Z</time></trkpt><trkpt lat="41.06559012317803" lon="14.851893116822009"><ele>384.71428571428567</ele><time>2026-04-14T10:10:58Z</time></trkpt><trkpt lat="41.06552705226445" lon="14.851924418692711"><ele>385.42857142857144</ele><time>2026-04-14T10:11:00Z</time></trkpt><trkpt lat="41.06546723864119" lon="14.851954004466544"><ele>386.1428571428571</ele><time>2026-04-14T10:11:02Z</time></trkpt><trkpt lat="41.06540889163118" lon="14.851992431566762"><ele>386.85714285714283</ele><time>2026-04-14T10:11:04Z</time></trkpt><trkpt lat="41.0653454702864" lon="14.852027326999465"><ele>387.57142857142856</ele><time>2026-04-14T10:11:06Z</time></trkpt><trkpt lat="41.06527548444476" lon="14.852062425712022"><ele>388.2857142857143</ele><time>2026-04-14T10:11:08Z</time></trkpt><trkpt lat="41.06521179061857" lon="14.852098058701744"><ele>389.0</ele><time>2026-04-14T10:11:10Z</time></trkpt><trkpt lat="41.06513903139661" lon="14.85212706839149"><ele>388.99999999999994</ele><time>2026-04-14T10:11:12Z</time></trkpt><trkpt lat="41.0650716728645" lon="14.852154374726288"><ele>389.0</ele><time>2026-04-14T10:11:14Z</time></trkpt><trkpt lat="41.065005562501334" lon="14.852188448094838"><ele>389.0</ele><time>2026-04-14T10:11:16Z</time></trkpt><trkpt lat="41.06491859311082" lon="14.852235698142884"><ele>389.0</ele><time>2026-04-14T10:11:19Z</time></trkpt><trkpt lat="41.06485556417804" lon="14.852257102343998"><ele>388.99999999999994</ele><time>2026-04-14T10:11:21Z</time></trkpt><trkpt lat="41.06477684018951" lon="14.852300699546849"><ele>389.0</ele><time>2026-04-14T10:11:24Z</time></trkpt><trkpt lat="41.064689549537256" lon="14.852343334653728"><ele>389.14285714285717</ele><time>2026-04-14T10:11:27Z</time></trkpt><trkpt lat="41.064613499746336" lon="14.85238794475798"><ele>389.2857142857143</ele><time>2026-04-14T10:11:30.001Z</time></trkpt><trkpt lat="41.06455981312596" lon="14.852437767214719"><ele>389.42857142857144</ele><time>2026-04-14T10:11:33.001Z</time></trkpt><trkpt lat="41.06449395591235" lon="14.8524781046994"><ele>389.57142857142856</ele><time>2026-04-14T10:11:36.001Z</time></trkpt><trkpt lat="41.06442656703681" lon="14.852525550672427"><ele>389.71428571428567</ele><time>2026-04-14T10:11:39.001Z</time></trkpt><trkpt lat="41.064364992632854" lon="14.852552240223746"><ele>389.85714285714283</ele><time>2026-04-14T10:11:41.001Z</time></trkpt><trkpt lat="41.064300591612685" lon="14.852516146252439"><ele>390.0</ele><time>2026-04-14T10:11:44Z</time></trkpt><trkpt lat="41.06423140904748" lon="14.85244173724793"><ele>390.0</ele><time>2026-04-14T10:11:47Z</time></trkpt><trkpt lat="41.06416972638591" lon="14.852384155238308"><ele>390.0</ele><time>2026-04-14T10:11:49Z</time></trkpt><trkpt lat="41.06412772066775" lon="14.8522829353196"><ele>390.0</ele><time>2026-04-14T10:11:52Z</time></trkpt><trkpt lat="41.06408720876719" lon="14.85218717923671"><ele>390.0</ele><time>2026-04-14T10:11:55Z</time></trkpt><trkpt lat="41.064041921626945" lon="14.852098185383749"><ele>390.0</ele><time>2026-04-14T10:11:58Z</time></trkpt><trkpt lat="41.06401345511887" lon="14.852006238405831"><ele>390.0</ele><time>2026-04-14T10:12:01Z</time></trkpt><trkpt lat="41.06399401049785" lon="14.851902776339585"><ele>390.5</ele><time>2026-04-14T10:12:04Z</time></trkpt><trkpt lat="41.06394411034414" lon="14.85180912463845"><ele>391.0</ele><time>2026-04-14T10:12:10Z</time></trkpt><trkpt lat="41.063894517362876" lon="14.851731498895356"><ele>391.5</ele><time>2026-04-14T10:12:12Z</time></trkpt><trkpt lat="41.06386989467567" lon="14.85164195382193"><ele>392.0</ele><time>2026-04-14T10:12:15Z</time></trkpt><trkpt lat="41.06378765347967" lon="14.85165690776186"><ele>392.5</ele><time>2026-04-14T10:12:22Z</time></trkpt><trkpt lat="41.06369552491497" lon="14.851569645581101"><ele>393.0</ele><time>2026-04-14T10:13:33.5Z</time></trkpt><trkpt lat="41.06371975186186" lon="14.85147421349493"><ele>393.25</ele><time>2026-04-14T10:13:35.999Z</time></trkpt><trkpt lat="41.06382617096543" lon="14.851560288327068"><ele>393.5</ele><time>2026-04-14T10:14:13Z</time></trkpt><trkpt lat="41.06369711084007" lon="14.851683186400475"><ele>393.75</ele><time>2026-04-14T10:14:52Z</time></trkpt><trkpt lat="41.063614959265784" lon="14.851759013978047"><ele>394.0</ele><time>2026-04-14T10:14:55Z</time></trkpt><trkpt lat="41.063544291467544" lon="14.851701874077682"><ele>394.0</ele><time>2026-04-14T10:15:08.999Z</time></trkpt><trkpt lat="41.063627676506115" lon="14.85161098777788"><ele>394.0</ele><time>2026-04-14T10:15:10.999Z</time></trkpt><trkpt lat="41.06371107559938" lon="14.851515403259056"><ele>394.0</ele><time>2026-04-14T10:15:12.999Z</time></trkpt><trkpt lat="41.063753366624255" lon="14.851415522316529"><ele>394.0</ele><time>2026-04-14T10:15:15.999Z</time></trkpt><trkpt lat="41.06371887477353" lon="14.851345638261805"><ele>394.0</ele><time>2026-04-14T10:15:18.999Z</time></trkpt><trkpt lat="41.063700794748456" lon="14.851238894027016"><ele>394.00000000000006</ele><time>2026-04-14T10:15:21.999Z</time></trkpt><trkpt lat="41.063678159102324" lon="14.851129189984201"><ele>394.0</ele><time>2026-04-14T10:15:24.999Z</time></trkpt><trkpt lat="41.06365319020404" lon="14.851043159625126"><ele>394.0</ele><time>2026-04-14T10:15:26.999Z</time></trkpt><trkpt lat="41.063636770731485" lon="14.850962080869055"><ele>394.0</ele><time>2026-04-14T10:15:28.999Z</time></trkpt><trkpt lat="41.06360735899449" lon="14.850845941034846"><ele>394.00000000000006</ele><time>2026-04-14T10:15:31.999Z</time></trkpt><trkpt lat="41.06358338009284" lon="14.850731116596082"><ele>394.0</ele><time>2026-04-14T10:15:34.999Z</time></trkpt><trkpt lat="41.063553642984516" lon="14.850628240386426"><ele>394.1666666666667</ele><time>2026-04-14T10:15:37.999Z</time></trkpt><trkpt lat="41.06352132136025" lon="14.850513096884395"><ele>394.33333333333337</ele><time>2026-04-14T10:15:40.999Z</time></trkpt><trkpt lat="41.063494702229896" lon="14.85041302119122"><ele>394.5</ele><time>2026-04-14T10:15:43.999Z</time></trkpt><trkpt lat="41.06346123956754" lon="14.850306681613246"><ele>394.66666666666663</ele><time>2026-04-14T10:15:46.999Z</time></trkpt><trkpt lat="41.06342277889809" lon="14.850197745893281"><ele>394.8333333333333</ele><time>2026-04-14T10:15:50Z</time></trkpt><trkpt lat="41.063402287269305" lon="14.850108072347705"><ele>395.0</ele><time>2026-04-14T10:15:52Z</time></trkpt><trkpt lat="41.06337587816884" lon="14.85002387930727"><ele>394.99999999999994</ele><time>2026-04-14T10:15:54Z</time></trkpt><trkpt lat="41.06333349692154" lon="14.849950470845055"><ele>395.0</ele><time>2026-04-14T10:15:57Z</time></trkpt><trkpt lat="41.06329980511518" lon="14.849867817633761"><ele>395.0</ele><time>2026-04-14T10:15:59Z</time></trkpt><trkpt lat="41.06326660921393" lon="14.849773234227387"><ele>395.0</ele><time>2026-04-14T10:16:01Z</time></trkpt><trkpt lat="41.06321725029719" lon="14.849683447929294"><ele>394.99999999999994</ele><time>2026-04-14T10:16:03Z</time></trkpt><trkpt lat="41.06317448775323" lon="14.849605974372508"><ele>395.0</ele><time>2026-04-14T10:16:05Z</time></trkpt><trkpt lat="41.06310208336613" lon="14.849531152684355"><ele>395.3333333333333</ele><time>2026-04-14T10:16:07Z</time></trkpt><trkpt lat="41.06303732454631" lon="14.849454430130582"><ele>395.66666666666663</ele><time>2026-04-14T10:16:09Z</time></trkpt><trkpt lat="41.062973880348096" lon="14.849378873947954"><ele>396.0</ele><time>2026-04-14T10:16:11Z</time></trkpt><trkpt lat="41.06289028284178" lon="14.849316989860915"><ele>396.33333333333337</ele><time>2026-04-14T10:16:13Z</time></trkpt><trkpt lat="41.062813081744004" lon="14.849266579832086"><ele>396.6666666666667</ele><time>2026-04-14T10:16:15Z</time></trkpt><trkpt lat="41.0627406941955" lon="14.849228543114869"><ele>397.0</ele><time>2026-04-14T10:16:17Z</time></trkpt><trkpt lat="41.06265857657474" lon="14.849175817364564"><ele>397.00000000000006</ele><time>2026-04-14T10:16:19Z</time></trkpt><trkpt lat="41.0625944687203" lon="14.849125469640395"><ele>397.0</ele><time>2026-04-14T10:16:21Z</time></trkpt><trkpt lat="41.0625231486345" lon="14.849078210461796"><ele>397.0</ele><time>2026-04-14T10:16:23Z</time></trkpt><trkpt lat="41.06246628107077" lon="14.849009584818985"><ele>397.0</ele><time>2026-04-14T10:16:25Z</time></trkpt><trkpt lat="41.062404791973194" lon="14.848935222327036"><ele>397.00000000000006</ele><time>2026-04-14T10:16:27Z</time></trkpt><trkpt lat="41.06236191606086" lon="14.848848946521265"><ele>397.0</ele><time>2026-04-14T10:16:29Z</time></trkpt><trkpt lat="41.06233306057564" lon="14.848771157826372"><ele>397.1666666666667</ele><time>2026-04-14T10:16:31Z</time></trkpt><trkpt lat="41.06232145050444" lon="14.848656632120571"><ele>397.33333333333337</ele><time>2026-04-14T10:16:33Z</time></trkpt><trkpt lat="41.0623248394115" lon="14.848545101347572"><ele>397.5</ele><time>2026-04-14T10:16:35Z</time></trkpt><trkpt lat="41.06229865607467" lon="14.848445901112944"><ele>397.66666666666663</ele><time>2026-04-14T10:16:37Z</time></trkpt><trkpt lat="41.06222181840561" lon="14.848454396469887"><ele>397.8333333333333</ele><time>2026-04-14T10:16:40Z</time></trkpt><trkpt lat="41.062217248984155" lon="14.848591412231956"><ele>398.0</ele><time>2026-04-14T10:16:43Z</time></trkpt><trkpt lat="41.062247869524555" lon="14.848701589489691"><ele>397.8333333333333</ele><time>2026-04-14T10:16:45Z</time></trkpt><trkpt lat="41.06228345654905" lon="14.848802033407122"><ele>397.66666666666663</ele><time>2026-04-14T10:16:47Z</time></trkpt><trkpt lat="41.062325263600115" lon="14.8488948422981"><ele>397.5</ele><time>2026-04-14T10:16:49Z</time></trkpt><trkpt lat="41.06238381662496" lon="14.8489787802467"><ele>397.33333333333337</ele><time>2026-04-14T10:16:51Z</time></trkpt><trkpt lat="41.06245313408236" lon="14.849061954484428"><ele>397.1666666666667</ele><time>2026-04-14T10:16:53Z</time></trkpt><trkpt lat="41.06253026794317" lon="14.849117811813997"><ele>397.0</ele><time>2026-04-14T10:16:55Z</time></trkpt><trkpt lat="41.06260881655739" lon="14.84915895038641"><ele>397.00000000000006</ele><time>2026-04-14T10:16:57Z</time></trkpt><trkpt lat="41.06270307763215" lon="14.84919575779546"><ele>397.0</ele><time>2026-04-14T10:16:59Z</time></trkpt><trkpt lat="41.0627743059853" lon="14.849254391812083"><ele>397.0</ele><time>2026-04-14T10:17:01Z</time></trkpt><trkpt lat="41.06284609875741" lon="14.849309985614681"><ele>397.0</ele><time>2026-04-14T10:17:03Z</time></trkpt><trkpt lat="41.062915898618506" lon="14.849366088656076"><ele>397.00000000000006</ele><time>2026-04-14T10:17:04.999Z</time></trkpt><trkpt lat="41.06299456089691" lon="14.849417457271004"><ele>397.0</ele><time>2026-04-14T10:17:06.999Z</time></trkpt><trkpt lat="41.06306371459462" lon="14.849457655562128"><ele>396.7142857142857</ele><time>2026-04-14T10:17:08.999Z</time></trkpt><trkpt lat="41.06311983828068" lon="14.849533844401684"><ele>396.42857142857144</ele><time>2026-04-14T10:17:10.999Z</time></trkpt><trkpt lat="41.06317098988282" lon="14.84959813971144"><ele>396.1428571428571</ele><time>2026-04-14T10:17:12.999Z</time></trkpt><trkpt lat="41.06321537046554" lon="14.849680129275253"><ele>395.8571428571429</ele><time>2026-04-14T10:17:14.999Z</time></trkpt><trkpt lat="41.06325315226829" lon="14.849765403022445"><ele>395.5714285714286</ele><time>2026-04-14T10:17:16.999Z</time></trkpt><trkpt lat="41.06328763627086" lon="14.849851878555565"><ele>395.2857142857143</ele><time>2026-04-14T10:17:18.999Z</time></trkpt><trkpt lat="41.06330772546405" lon="14.849940166577461"><ele>395.0</ele><time>2026-04-14T10:17:20.999Z</time></trkpt><trkpt lat="41.06334065485068" lon="14.85003110615829"><ele>394.99999999999994</ele><time>2026-04-14T10:17:22.999Z</time></trkpt><trkpt lat="41.063369427735175" lon="14.850116879278934"><ele>395.0</ele><time>2026-04-14T10:17:24.999Z</time></trkpt><trkpt lat="41.06340763059218" lon="14.850195057187337"><ele>395.0</ele><time>2026-04-14T10:17:26.999Z</time></trkpt><trkpt lat="41.06342387821207" lon="14.85028912455403"><ele>395.0</ele><time>2026-04-14T10:17:28.999Z</time></trkpt><trkpt lat="41.06345259325159" lon="14.85037776666612"><ele>394.99999999999994</ele><time>2026-04-14T10:17:30.999Z</time></trkpt><trkpt lat="41.063487634017655" lon="14.850507723225906"><ele>395.0</ele><time>2026-04-14T10:17:33.999Z</time></trkpt><trkpt lat="41.063529749275475" lon="14.850611936514053"><ele>395.0</ele><time>2026-04-14T10:17:35.999Z</time></trkpt><trkpt lat="41.063565868116555" lon="14.850728850686865"><ele>395.0</ele><time>2026-04-14T10:17:37.999Z</time></trkpt><trkpt lat="41.06359926585473" lon="14.850861329007303"><ele>395.0</ele><time>2026-04-14T10:17:39.999Z</time></trkpt><trkpt lat="41.06363746761327" lon="14.850979625112952"><ele>395.0</ele><time>2026-04-14T10:17:41.999Z</time></trkpt><trkpt lat="41.0636745889892" lon="14.851106544346608"><ele>395.0</ele><time>2026-04-14T10:17:43.999Z</time></trkpt><trkpt lat="41.06370919395063" lon="14.851210788621316"><ele>394.8</ele><time>2026-04-14T10:17:45.999Z</time></trkpt><trkpt lat="41.06374430486404" lon="14.851323051570446"><ele>394.6</ele><time>2026-04-14T10:17:47.999Z</time></trkpt><trkpt lat="41.0637836962763" lon="14.851440924459501"><ele>394.4</ele><time>2026-04-14T10:17:49.999Z</time></trkpt><trkpt lat="41.063819186376854" lon="14.851567589327349"><ele>394.2</ele><time>2026-04-14T10:17:51.999Z</time></trkpt><trkpt lat="41.063857712979726" lon="14.851701641169715"><ele>394.0</ele><time>2026-04-14T10:17:54Z</time></trkpt><trkpt lat="41.06390467048629" lon="14.851831438427908"><ele>393.83333333333337</ele><time>2026-04-14T10:17:56Z</time></trkpt><trkpt lat="41.06389705199991" lon="14.851916668613828"><ele>393.6666666666667</ele><time>2026-04-14T10:17:57Z</time></trkpt><trkpt lat="41.06393254801485" lon="14.852039133392179"><ele>393.5</ele><time>2026-04-14T10:17:59Z</time></trkpt><trkpt lat="41.063964394448675" lon="14.852149938119693"><ele>393.33333333333337</ele><time>2026-04-14T10:18:01Z</time></trkpt><trkpt lat="41.0639909933274" lon="14.852242565339724"><ele>393.1666666666667</ele><time>2026-04-14T10:18:03Z</time></trkpt><trkpt lat="41.0640164604153" lon="14.85233125123503"><ele>393.0</ele><time>2026-04-14T10:18:07Z</time></trkpt><trkpt lat="41.06404800512766" lon="14.852412417223148"><ele>393.0</ele><time>2026-04-14T10:18:10Z</time></trkpt><trkpt lat="41.06407390661903" lon="14.85249541939672"><ele>393.0</ele><time>2026-04-14T10:18:14Z</time></trkpt><trkpt lat="41.064072757425244" lon="14.852589334421419"><ele>393.0</ele><time>2026-04-14T10:18:18Z</time></trkpt><trkpt lat="41.06398902378689" lon="14.852658581444071"><ele>393.0</ele><time>2026-04-14T10:18:20Z</time></trkpt><trkpt lat="41.06390177663319" lon="14.852708158573611"><ele>393.0</ele><time>2026-04-14T10:18:23Z</time></trkpt><trkpt lat="41.06383860804166" lon="14.85274821076635"><ele>393.0</ele><time>2026-04-14T10:18:25Z</time></trkpt><trkpt lat="41.06378168651439" lon="14.852788793562395"><ele>393.00000000000006</ele><time>2026-04-14T10:18:27Z</time></trkpt><trkpt lat="41.06371849414861" lon="14.85282984522538"><ele>393.0</ele><time>2026-04-14T10:18:29Z</time></trkpt><trkpt lat="41.06364901775864" lon="14.852882313689417"><ele>393.0</ele><time>2026-04-14T10:18:32Z</time></trkpt><trkpt lat="41.06359228287603" lon="14.852920982412403"><ele>393.0</ele><time>2026-04-14T10:18:34Z</time></trkpt><trkpt lat="41.06353090441316" lon="14.852948547565704"><ele>393.0</ele><time>2026-04-14T10:18:36Z</time></trkpt><trkpt lat="41.06346721945348" lon="14.85298597766026"><ele>393.00000000000006</ele><time>2026-04-14T10:18:38Z</time></trkpt><trkpt lat="41.06340525433716" lon="14.853015903036074"><ele>393.0</ele><time>2026-04-14T10:18:40Z</time></trkpt><trkpt lat="41.063325681215" lon="14.853062469486861"><ele>393.5</ele><time>2026-04-14T10:18:43Z</time></trkpt><trkpt lat="41.063267074553245" lon="14.853095537196882"><ele>394.0</ele><time>2026-04-14T10:18:45Z</time></trkpt><trkpt lat="41.06318230903957" lon="14.853146501976923"><ele>394.5</ele><time>2026-04-14T10:18:48Z</time></trkpt><trkpt lat="41.06309620795064" lon="14.85319212819021"><ele>395.0</ele><time>2026-04-14T10:18:51Z</time></trkpt><trkpt lat="41.06302967262932" lon="14.853226650810102"><ele>395.5</ele><time>2026-04-14T10:18:53Z</time></trkpt><trkpt lat="41.06296347635673" lon="14.85328659160594"><ele>396.0</ele><time>2026-04-14T10:18:55Z</time></trkpt><trkpt lat="41.062893909175145" lon="14.853342748117193"><ele>396.0</ele><time>2026-04-14T10:18:57Z</time></trkpt><trkpt lat="41.062831161140764" lon="14.853388024766415"><ele>396.0</ele><time>2026-04-14T10:18:59Z</time></trkpt><trkpt lat="41.06277318036815" lon="14.853442081454942"><ele>396.0</ele><time>2026-04-14T10:19:00.999Z</time></trkpt><trkpt lat="41.06271867242944" lon="14.853487106466103"><ele>396.0</ele><time>2026-04-14T10:19:02.999Z</time></trkpt><trkpt lat="41.06266010397633" lon="14.853593603844274"><ele>396.0</ele><time>2026-04-14T10:19:07.999Z</time></trkpt><trkpt lat="41.06259244832896" lon="14.853648462954032"><ele>396.0</ele><time>2026-04-14T10:19:09.999Z</time></trkpt><trkpt lat="41.06254079483222" lon="14.853696720009482"><ele>396.0</ele><time>2026-04-14T10:19:11.999Z</time></trkpt><trkpt lat="41.06248199649787" lon="14.853739874169637"><ele>396.7142857142857</ele><time>2026-04-14T10:19:13.999Z</time></trkpt><trkpt lat="41.06241435597116" lon="14.853782227604027"><ele>397.4285714285714</ele><time>2026-04-14T10:19:15.999Z</time></trkpt><trkpt lat="41.06234675242161" lon="14.853822913729443"><ele>398.1428571428571</ele><time>2026-04-14T10:19:17.999Z</time></trkpt><trkpt lat="41.06228078186114" lon="14.853852782313146"><ele>398.8571428571429</ele><time>2026-04-14T10:19:19.999Z</time></trkpt><trkpt lat="41.06221711167261" lon="14.853895080744921"><ele>399.57142857142856</ele><time>2026-04-14T10:19:21.999Z</time></trkpt><trkpt lat="41.06215195806937" lon="14.853922210890184"><ele>400.2857142857143</ele><time>2026-04-14T10:19:24.999Z</time></trkpt><trkpt lat="41.06209108482449" lon="14.85395527289441"><ele>401.0</ele><time>2026-04-14T10:19:26.999Z</time></trkpt><trkpt lat="41.0620344515118" lon="14.853993043400955"><ele>401.0</ele><time>2026-04-14T10:19:28.999Z</time></trkpt><trkpt lat="41.0619726679762" lon="14.854020569146407"><ele>401.0</ele><time>2026-04-14T10:19:30.999Z</time></trkpt><trkpt lat="41.06190257491569" lon="14.854016563205066"><ele>401.0</ele><time>2026-04-14T10:19:33.999Z</time></trkpt><trkpt lat="41.06182863642834" lon="14.853943732825737"><ele>401.0</ele><time>2026-04-14T10:19:36.999Z</time></trkpt><trkpt lat="41.06179622389548" lon="14.85384476319624"><ele>401.0</ele><time>2026-04-14T10:19:39.999Z</time></trkpt><trkpt lat="41.0617753265802" lon="14.853763701250823"><ele>401.0</ele><time>2026-04-14T10:19:41.999Z</time></trkpt><trkpt lat="41.06174992329459" lon="14.85367641339594"><ele>401.0</ele><time>2026-04-14T10:19:43.999Z</time></trkpt><trkpt lat="41.0617058714669" lon="14.853604645021537"><ele>400.99999999999994</ele><time>2026-04-14T10:19:45.999Z</time></trkpt><trkpt lat="41.06167043299905" lon="14.853528415015761"><ele>401.0</ele><time>2026-04-14T10:19:47.999Z</time></trkpt><trkpt lat="41.06162334361285" lon="14.853419209572492"><ele>401.0</ele><time>2026-04-14T10:19:50.999Z</time></trkpt><trkpt lat="41.06161006043329" lon="14.853311663899085"><ele>401.0</ele><time>2026-04-14T10:19:53.999Z</time></trkpt><trkpt lat="41.06159613404616" lon="14.853227269714193"><ele>400.99999999999994</ele><time>2026-04-14T10:19:55.999Z</time></trkpt><trkpt lat="41.061557581701116" lon="14.853148188523956"><ele>401.0</ele><time>2026-04-14T10:19:57.999Z</time></trkpt><trkpt lat="41.061531647657425" lon="14.853061322884487"><ele>401.16666666666663</ele><time>2026-04-14T10:20:00Z</time></trkpt><trkpt lat="41.06150309039367" lon="14.852957417467806"><ele>401.3333333333333</ele><time>2026-04-14T10:20:02Z</time></trkpt><trkpt lat="41.06147541617152" lon="14.852860877573345"><ele>401.5</ele><time>2026-04-14T10:20:05Z</time></trkpt><trkpt lat="41.06146015742615" lon="14.852773297753018"><ele>401.66666666666663</ele><time>2026-04-14T10:20:07Z</time></trkpt><trkpt lat="41.06142089591295" lon="14.852667556336744"><ele>401.8333333333333</ele><time>2026-04-14T10:20:10Z</time></trkpt><trkpt lat="41.06139942512057" lon="14.852545461651646"><ele>402.0</ele><time>2026-04-14T10:20:13Z</time></trkpt><trkpt lat="41.061369664770794" lon="14.85242782267596"><ele>402.1428571428571</ele><time>2026-04-14T10:20:16Z</time></trkpt><trkpt lat="41.06133723944947" lon="14.852352346893113"><ele>402.28571428571433</ele><time>2026-04-14T10:20:18Z</time></trkpt><trkpt lat="41.06131295218345" lon="14.852232628369025"><ele>402.42857142857144</ele><time>2026-04-14T10:20:21Z</time></trkpt><trkpt lat="41.06130410824493" lon="14.852134654207848"><ele>402.57142857142856</ele><time>2026-04-14T10:20:23Z</time></trkpt><trkpt lat="41.061276102001464" lon="14.852044898583173"><ele>402.71428571428567</ele><time>2026-04-14T10:20:25Z</time></trkpt><trkpt lat="41.06127370190264" lon="14.85195827034127"><ele>402.8571428571429</ele><time>2026-04-14T10:20:27Z</time></trkpt><trkpt lat="41.061250197162096" lon="14.851879248796095"><ele>403.0</ele><time>2026-04-14T10:20:29Z</time></trkpt><trkpt lat="41.061214033370156" lon="14.851765416947313"><ele>403.0</ele><time>2026-04-14T10:20:32Z</time></trkpt><trkpt lat="41.06118507563923" lon="14.851679412789743"><ele>403.0</ele><time>2026-04-14T10:20:34Z</time></trkpt><trkpt lat="41.061167008429955" lon="14.851589829235849"><ele>403.0</ele><time>2026-04-14T10:20:36Z</time></trkpt><trkpt lat="41.06113493734374" lon="14.851478774628402"><ele>403.0</ele><time>2026-04-14T10:20:39Z</time></trkpt><trkpt lat="41.06110708917711" lon="14.851395648366013"><ele>403.0</ele><time>2026-04-14T10:20:41Z</time></trkpt><trkpt lat="41.06110928409729" lon="14.851295150865376"><ele>403.0</ele><time>2026-04-14T10:20:43Z</time></trkpt><trkpt lat="41.06110343122783" lon="14.851205464363899"><ele>403.0</ele><time>2026-04-14T10:20:45Z</time></trkpt><trkpt lat="41.061091605508786" lon="14.85107324922153"><ele>403.00000000000006</ele><time>2026-04-14T10:20:48Z</time></trkpt><trkpt lat="41.06103688127259" lon="14.850973320857442"><ele>403.0</ele><time>2026-04-14T10:20:52Z</time></trkpt><trkpt lat="41.06102668516193" lon="14.850884411367321"><ele>403.0</ele><time>2026-04-14T10:20:54Z</time></trkpt><trkpt lat="41.060992955966015" lon="14.850810211289964"><ele>403.0</ele><time>2026-04-14T10:20:56Z</time></trkpt><trkpt lat="41.06097792938879" lon="14.850710581421385"><ele>403.00000000000006</ele><time>2026-04-14T10:20:58Z</time></trkpt><trkpt lat="41.06094632978398" lon="14.850626217712387"><ele>403.0</ele><time>2026-04-14T10:21:00Z</time></trkpt><trkpt lat="41.06088841655747" lon="14.850539429418518"><ele>403.50000000000006</ele><time>2026-04-14T10:21:03Z</time></trkpt><trkpt lat="41.06086135013444" lon="14.850452930381334"><ele>404.0</ele><time>2026-04-14T10:21:04.999Z</time></trkpt><trkpt lat="41.06079064670422" lon="14.850398407871621"><ele>404.5</ele><time>2026-04-14T10:21:07.999Z</time></trkpt><trkpt lat="41.06072364140706" lon="14.85044889707365"><ele>405.0</ele><time>2026-04-14T10:21:11.999Z</time></trkpt><trkpt lat="41.06066251609288" lon="14.850488072268838"><ele>405.50000000000006</ele><time>2026-04-14T10:21:13.999Z</time></trkpt><trkpt lat="41.060572120993704" lon="14.850523328679897"><ele>406.0</ele><time>2026-04-14T10:21:16.999Z</time></trkpt><trkpt lat="41.060496630810206" lon="14.85056606272295"><ele>406.33333333333337</ele><time>2026-04-14T10:21:19.999Z</time></trkpt><trkpt lat="41.06041159642418" lon="14.850600612523836"><ele>406.6666666666667</ele><time>2026-04-14T10:21:23.999Z</time></trkpt><trkpt lat="41.06035305451722" lon="14.850640348349604"><ele>407.0</ele><time>2026-04-14T10:21:25.999Z</time></trkpt><trkpt lat="41.060290674716235" lon="14.850669681981524"><ele>407.33333333333337</ele><time>2026-04-14T10:21:27.999Z</time></trkpt><trkpt lat="41.0602129503" lon="14.850687507692175"><ele>407.6666666666667</ele><time>2026-04-14T10:21:29.999Z</time></trkpt><trkpt lat="41.06013514790702" lon="14.850726968568669"><ele>408.0</ele><time>2026-04-14T10:21:32.999Z</time></trkpt><trkpt lat="41.06006221947966" lon="14.85075376744738"><ele>408.0</ele><time>2026-04-14T10:21:34.999Z</time></trkpt><trkpt lat="41.05999151288516" lon="14.850790599459604"><ele>408.0</ele><time>2026-04-14T10:21:36.999Z</time></trkpt><trkpt lat="41.05992882913076" lon="14.85082248227835"><ele>408.0</ele><time>2026-04-14T10:21:38.999Z</time></trkpt><trkpt lat="41.059864380957734" lon="14.850849927455865"><ele>408.0</ele><time>2026-04-14T10:21:40.999Z</time></trkpt><trkpt lat="41.05978495793331" lon="14.85088653799674"><ele>408.0</ele><time>2026-04-14T10:21:43.999Z</time></trkpt><trkpt lat="41.0597067822047" lon="14.850931780205002"><ele>408.0</ele><time>2026-04-14T10:21:46.999Z</time></trkpt><trkpt lat="41.05961610247177" lon="14.850972116638223"><ele>407.2</ele><time>2026-04-14T10:21:49.999Z</time></trkpt><trkpt lat="41.059533885390366" lon="14.850996292511208"><ele>406.4</ele><time>2026-04-14T10:21:51.999Z</time></trkpt><trkpt lat="41.05945391123307" lon="14.851028488169286"><ele>405.59999999999997</ele><time>2026-04-14T10:21:53.999Z</time></trkpt><trkpt lat="41.05935138804552" lon="14.851074545088359"><ele>404.79999999999995</ele><time>2026-04-14T10:21:55.999Z</time></trkpt><trkpt lat="41.05924468761437" lon="14.851132230781152"><ele>404.0</ele><time>2026-04-14T10:21:57.999Z</time></trkpt><trkpt lat="41.059127931381305" lon="14.85119465297689"><ele>401.6</ele><time>2026-04-14T10:21:59.999Z</time></trkpt><trkpt lat="41.05906841545245" lon="14.851229715554597"><ele>399.2</ele><time>2026-04-14T10:22:00.999Z</time></trkpt><trkpt lat="41.05900385864054" lon="14.851272239673685"><ele>396.8</ele><time>2026-04-14T10:22:01.999Z</time></trkpt><trkpt lat="41.05890642355143" lon="14.851344574653597"><ele>394.40000000000003</ele><time>2026-04-14T10:22:03.999Z</time></trkpt><trkpt lat="41.058840496708704" lon="14.851456943360752"><ele>392.0</ele><time>2026-04-14T10:22:07Z</time></trkpt><trkpt lat="41.05887222836466" lon="14.85158704868902"><ele>392.0</ele><time>2026-04-14T10:22:08Z</time></trkpt><trkpt lat="41.05891381423309" lon="14.851657958439521"><ele>392.0</ele><time>2026-04-14T10:22:10Z</time></trkpt><trkpt lat="41.058958547751764" lon="14.851734235365573"><ele>392.0</ele><time>2026-04-14T10:22:12Z</time></trkpt><trkpt lat="41.05901774562043" lon="14.851792933847342"><ele>392.0</ele><time>2026-04-14T10:22:14Z</time></trkpt><trkpt lat="41.05905876439665" lon="14.851857606003907"><ele>392.0</ele><time>2026-04-14T10:22:16Z</time></trkpt><trkpt lat="41.059106962370514" lon="14.851927751823753"><ele>392.0</ele><time>2026-04-14T10:22:18Z</time></trkpt><trkpt lat="41.05915859838408" lon="14.851993212580044"><ele>392.0</ele><time>2026-04-14T10:22:20Z</time></trkpt><trkpt lat="41.05921476672559" lon="14.852053064782952"><ele>391.8333333333333</ele><time>2026-04-14T10:22:22Z</time></trkpt><trkpt lat="41.059269913198555" lon="14.852110091463766"><ele>391.66666666666663</ele><time>2026-04-14T10:22:24Z</time></trkpt><trkpt lat="41.05933601737433" lon="14.852166360531129"><ele>391.5</ele><time>2026-04-14T10:22:26Z</time></trkpt><trkpt lat="41.059396821261295" lon="14.852232848603977"><ele>391.33333333333337</ele><time>2026-04-14T10:22:28Z</time></trkpt><trkpt lat="41.05946487765101" lon="14.852297321641709"><ele>391.1666666666667</ele><time>2026-04-14T10:22:30Z</time></trkpt><trkpt lat="41.059540425922854" lon="14.852359105351466"><ele>391.0</ele><time>2026-04-14T10:22:32Z</time></trkpt><trkpt lat="41.05961175921284" lon="14.852396137772333"><ele>391.0</ele><time>2026-04-14T10:22:34Z</time></trkpt><trkpt lat="41.05968992363895" lon="14.852433699281402"><ele>391.0</ele><time>2026-04-14T10:22:36Z</time></trkpt><trkpt lat="41.059769063782014" lon="14.852455041568758"><ele>391.0</ele><time>2026-04-14T10:22:38Z</time></trkpt><trkpt lat="41.05985153535013" lon="14.852493339747204"><ele>391.0</ele><time>2026-04-14T10:22:40Z</time></trkpt><trkpt lat="41.060105951667516" lon="14.852503429909827"><ele>396.0</ele><time>2026-04-14T10:22:46Z</time></trkpt><trkpt lat="41.060339695048796" lon="14.852495073571927"><ele>401.0</ele><time>2026-04-14T10:22:52Z</time></trkpt><trkpt lat="41.06054482543374" lon="14.85260464145683"><ele>401.16666666666663</ele><time>2026-04-14T10:22:57Z</time></trkpt><trkpt lat="41.06062274955148" lon="14.852639719148248"><ele>401.3333333333333</ele><time>2026-04-14T10:22:59Z</time></trkpt><trkpt lat="41.060698444677314" lon="14.852695495140658"><ele>401.5</ele><time>2026-04-14T10:23:01Z</time></trkpt><trkpt lat="41.06077461244744" lon="14.852740984136808"><ele>401.66666666666663</ele><time>2026-04-14T10:23:03Z</time></trkpt><trkpt lat="41.060854524921474" lon="14.852767193311875"><ele>401.8333333333333</ele><time>2026-04-14T10:23:05Z</time></trkpt><trkpt lat="41.06094353906724" lon="14.852807845597468"><ele>402.0</ele><time>2026-04-14T10:23:06.999Z</time></trkpt><trkpt lat="41.061029525166745" lon="14.852858252898503"><ele>402.0</ele><time>2026-04-14T10:23:08.999Z</time></trkpt><trkpt lat="41.061111532083196" lon="14.852915015098791"><ele>402.0</ele><time>2026-04-14T10:23:10.999Z</time></trkpt><trkpt lat="41.061194770282825" lon="14.852955379670567"><ele>402.0</ele><time>2026-04-14T10:23:12.999Z</time></trkpt><trkpt lat="41.06132305335203" lon="14.852989669195685"><ele>402.0</ele><time>2026-04-14T10:23:15.999Z</time></trkpt><trkpt lat="41.06139778271708" lon="14.853047922562459"><ele>402.0</ele><time>2026-04-14T10:23:17.999Z</time></trkpt><trkpt lat="41.0614608666275" lon="14.853087540101772"><ele>402.0</ele><time>2026-04-14T10:23:19.999Z</time></trkpt><trkpt lat="41.06152191785454" lon="14.853170627523403"><ele>402.0</ele><time>2026-04-14T10:23:21.999Z</time></trkpt><trkpt lat="41.06157209000307" lon="14.85328445421699"><ele>402.0</ele><time>2026-04-14T10:23:23.999Z</time></trkpt><trkpt lat="41.061607798240935" lon="14.853382237589255"><ele>402.0</ele><time>2026-04-14T10:23:25.999Z</time></trkpt><trkpt lat="41.06163638404927" lon="14.853482843719291"><ele>402.0</ele><time>2026-04-14T10:23:28.999Z</time></trkpt><trkpt lat="41.06167261467096" lon="14.853557708748331"><ele>402.0</ele><time>2026-04-14T10:23:31.999Z</time></trkpt><trkpt lat="41.06179757823384" lon="14.8535751601213"><ele>401.85714285714283</ele><time>2026-04-14T10:24:07.999Z</time></trkpt><trkpt lat="41.06172879684134" lon="14.85360952351614"><ele>401.7142857142857</ele><time>2026-04-14T10:24:38Z</time></trkpt><trkpt lat="41.06172475107944" lon="14.85370668240769"><ele>401.57142857142856</ele><time>2026-04-14T10:24:42Z</time></trkpt><trkpt lat="41.06172405505277" lon="14.853793094360846"><ele>401.42857142857144</ele><time>2026-04-14T10:24:48Z</time></trkpt><trkpt lat="41.061751815307304" lon="14.853885966424984"><ele>401.28571428571433</ele><time>2026-04-14T10:24:53Z</time></trkpt><trkpt lat="41.06178895427032" lon="14.853982087328827"><ele>401.14285714285717</ele><time>2026-04-14T10:24:58Z</time></trkpt><trkpt lat="41.061797428077774" lon="14.854079852512061"><ele>401.0</ele><time>2026-04-14T10:25:02Z</time></trkpt><trkpt lat="41.06180923585398" lon="14.85416315400024"><ele>400.99999999999994</ele><time>2026-04-14T10:25:06Z</time></trkpt><trkpt lat="41.061811851878645" lon="14.854252758259355"><ele>401.0</ele><time>2026-04-14T10:25:12Z</time></trkpt><trkpt lat="41.061837060432744" lon="14.854357643740416"><ele>401.0</ele><time>2026-04-14T10:25:15Z</time></trkpt><trkpt lat="41.06184217862018" lon="14.854457193826963"><ele>401.0</ele><time>2026-04-14T10:25:17Z</time></trkpt><trkpt lat="41.061868940380556" lon="14.854566434402713"><ele>400.99999999999994</ele><time>2026-04-14T10:25:18.999Z</time></trkpt><trkpt lat="41.06190818616344" lon="14.854654008102916"><ele>401.0</ele><time>2026-04-14T10:25:20.999Z</time></trkpt><trkpt lat="41.06193790544081" lon="14.85475628663683"><ele>400.4</ele><time>2026-04-14T10:25:22.999Z</time></trkpt><trkpt lat="41.061980517578874" lon="14.854863649081814"><ele>399.8</ele><time>2026-04-14T10:25:24.999Z</time></trkpt><trkpt lat="41.06201040528848" lon="14.85497780146015"><ele>399.2</ele><time>2026-04-14T10:25:26.999Z</time></trkpt><trkpt lat="41.06204916544307" lon="14.855109868176305"><ele>398.59999999999997</ele><time>2026-04-14T10:25:28.999Z</time></trkpt><trkpt lat="41.06208404722838" lon="14.855273075346586"><ele>398.0</ele><time>2026-04-14T10:25:30.999Z</time></trkpt><trkpt lat="41.0621250740898" lon="14.855428620195598"><ele>397.57142857142856</ele><time>2026-04-14T10:25:32.999Z</time></trkpt><trkpt lat="41.06214120601956" lon="14.855512423747523"><ele>397.1428571428571</ele><time>2026-04-14T10:25:33.999Z</time></trkpt><trkpt lat="41.06215808384919" lon="14.855604259292177"><ele>396.71428571428567</ele><time>2026-04-14T10:25:34.999Z</time></trkpt><trkpt lat="41.06217209991445" lon="14.855696666683318"><ele>396.2857142857143</ele><time>2026-04-14T10:25:35.999Z</time></trkpt><trkpt lat="41.062190964710496" lon="14.8557918627177"><ele>395.8571428571429</ele><time>2026-04-14T10:25:36.999Z</time></trkpt><trkpt lat="41.06221618832253" lon="14.855886148558728"><ele>395.4285714285714</ele><time>2026-04-14T10:25:37.999Z</time></trkpt><trkpt lat="41.062246216286525" lon="14.855970077283732"><ele>395.0</ele><time>2026-04-14T10:25:38.999Z</time></trkpt><trkpt lat="41.06227313700975" lon="14.856062798191452"><ele>394.3333333333333</ele><time>2026-04-14T10:25:39.999Z</time></trkpt><trkpt lat="41.06229069828094" lon="14.856151560590094"><ele>393.66666666666663</ele><time>2026-04-14T10:25:40.999Z</time></trkpt><trkpt lat="41.06227199774659" lon="14.856251012936722"><ele>393.0</ele><time>2026-04-14T10:25:41.999Z</time></trkpt><trkpt lat="41.0622944929461" lon="14.85634912939441"><ele>392.33333333333337</ele><time>2026-04-14T10:25:42.999Z</time></trkpt><trkpt lat="41.06232827178072" lon="14.856494476792593"><ele>391.6666666666667</ele><time>2026-04-14T10:25:44.999Z</time></trkpt><trkpt lat="41.062360457122814" lon="14.856633669159487"><ele>391.0</ele><time>2026-04-14T10:25:46.999Z</time></trkpt><trkpt lat="41.06238973014699" lon="14.856760266581105"><ele>390.6</ele><time>2026-04-14T10:25:48.999Z</time></trkpt><trkpt lat="41.06242013828699" lon="14.85689177305678"><ele>390.20000000000005</ele><time>2026-04-14T10:25:50.999Z</time></trkpt><trkpt lat="41.06245144473906" lon="14.857027164456554"><ele>389.79999999999995</ele><time>2026-04-14T10:25:52.999Z</time></trkpt><trkpt lat="41.06248433260543" lon="14.857169394898902"><ele>389.4</ele><time>2026-04-14T10:25:54.999Z</time></trkpt><trkpt lat="41.062518645973014" lon="14.85725000206082"><ele>389.0</ele><time>2026-04-14T10:25:55.999Z</time></trkpt><trkpt lat="41.062534991392695" lon="14.85738793941263"><ele>389.0</ele><time>2026-04-14T10:25:57.999Z</time></trkpt><trkpt lat="41.062567211309016" lon="14.857527079811957"><ele>389.0</ele><time>2026-04-14T10:25:59.999Z</time></trkpt><trkpt lat="41.06260275533767" lon="14.857676974357082"><ele>389.0</ele><time>2026-04-14T10:26:01.999Z</time></trkpt><trkpt lat="41.062605856515404" lon="14.85776187359334"><ele>389.0</ele><time>2026-04-14T10:26:02.999Z</time></trkpt><trkpt lat="41.06258599891524" lon="14.857841650994533"><ele>389.0</ele><time>2026-04-14T10:26:03.999Z</time></trkpt><trkpt lat="41.0625675278868" lon="14.857968785518517"><ele>388.6</ele><time>2026-04-14T10:26:05.999Z</time></trkpt><trkpt lat="41.062544206928" lon="14.858070812082715"><ele>388.2</ele><time>2026-04-14T10:26:07.999Z</time></trkpt><trkpt lat="41.062623904902864" lon="14.85816532876626"><ele>387.8</ele><time>2026-04-14T10:26:08.999Z</time></trkpt><trkpt lat="41.062648336974114" lon="14.858300442411686"><ele>387.40000000000003</ele><time>2026-04-14T10:26:10.999Z</time></trkpt><trkpt lat="41.06265577237235" lon="14.858444376980756"><ele>387.0</ele><time>2026-04-14T10:26:12.999Z</time></trkpt><trkpt lat="41.06267469629651" lon="14.858582981678623"><ele>386.6</ele><time>2026-04-14T10:26:14.999Z</time></trkpt><trkpt lat="41.06269721697832" lon="14.858731632555543"><ele>386.20000000000005</ele><time>2026-04-14T10:26:16.999Z</time></trkpt><trkpt lat="41.062723985354815" lon="14.858885670456734"><ele>385.8</ele><time>2026-04-14T10:26:19Z</time></trkpt><trkpt lat="41.06275225548136" lon="14.859038482637747"><ele>385.4</ele><time>2026-04-14T10:26:21Z</time></trkpt><trkpt lat="41.06277444497293" lon="14.859128697067565"><ele>385.0</ele><time>2026-04-14T10:26:22Z</time></trkpt><trkpt lat="41.06280647101712" lon="14.859206586659326"><ele>385.00000000000006</ele><time>2026-04-14T10:26:23Z</time></trkpt><trkpt lat="41.06284590135835" lon="14.859279596067884"><ele>385.0</ele><time>2026-04-14T10:26:24Z</time></trkpt><trkpt lat="41.06292969546849" lon="14.859390730429384"><ele>385.0</ele><time>2026-04-14T10:26:26Z</time></trkpt><trkpt lat="41.06299412302502" lon="14.859448149428312"><ele>385.0</ele><time>2026-04-14T10:26:27Z</time></trkpt><trkpt lat="41.063052192133235" lon="14.859492400344818"><ele>385.00000000000006</ele><time>2026-04-14T10:26:28Z</time></trkpt><trkpt lat="41.06310802868296" lon="14.859534166414567"><ele>385.0</ele><time>2026-04-14T10:26:29Z</time></trkpt><trkpt lat="41.06321338656732" lon="14.85960716677154"><ele>384.75</ele><time>2026-04-14T10:26:31Z</time></trkpt><trkpt lat="41.0633260429394" lon="14.859685586538436"><ele>384.5</ele><time>2026-04-14T10:26:33Z</time></trkpt><trkpt lat="41.063440923681306" lon="14.859765674036892"><ele>384.25</ele><time>2026-04-14T10:26:35Z</time></trkpt><trkpt lat="41.06354928568836" lon="14.859844040092636"><ele>384.0</ele><time>2026-04-14T10:26:37Z</time></trkpt><trkpt lat="41.06365927382775" lon="14.859923583397906"><ele>384.0</ele><time>2026-04-14T10:26:39Z</time></trkpt><trkpt lat="41.063717405611825" lon="14.85996562340507"><ele>384.0</ele><time>2026-04-14T10:26:40Z</time></trkpt><trkpt lat="41.063827219288925" lon="14.860048677888901"><ele>384.0</ele><time>2026-04-14T10:26:42Z</time></trkpt><trkpt lat="41.063887024229295" lon="14.86008236286826"><ele>384.0</ele><time>2026-04-14T10:26:43Z</time></trkpt><trkpt lat="41.06393530210418" lon="14.860138840349055"><ele>384.0</ele><time>2026-04-14T10:26:44Z</time></trkpt><trkpt lat="41.06398124943304" lon="14.860197328938852"><ele>384.0</ele><time>2026-04-14T10:26:45Z</time></trkpt><trkpt lat="41.06406652559782" lon="14.860315717645339"><ele>383.3333333333333</ele><time>2026-04-14T10:26:47Z</time></trkpt><trkpt lat="41.064150322976765" lon="14.86041170961599"><ele>382.6666666666667</ele><time>2026-04-14T10:26:49Z</time></trkpt><trkpt lat="41.064208696548135" lon="14.860469137812272"><ele>382.0</ele><time>2026-04-14T10:26:50Z</time></trkpt><trkpt lat="41.06425910568881" lon="14.86051923555793"><ele>381.33333333333337</ele><time>2026-04-14T10:26:51Z</time></trkpt><trkpt lat="41.06431171668326" lon="14.860604758992014"><ele>380.6666666666667</ele><time>2026-04-14T10:26:53Z</time></trkpt><trkpt lat="41.06421409610991" lon="14.860671516441165"><ele>380.0</ele><time>2026-04-14T10:26:54Z</time></trkpt><trkpt lat="41.06423190317379" lon="14.860774639791513"><ele>380.0</ele><time>2026-04-14T10:26:56Z</time></trkpt><trkpt lat="41.06426288935666" lon="14.860872501707046"><ele>380.0</ele><time>2026-04-14T10:26:58Z</time></trkpt><trkpt lat="41.06431023657313" lon="14.860963723769395"><ele>380.0</ele><time>2026-04-14T10:27:00Z</time></trkpt><trkpt lat="41.0643484606204" lon="14.861061148577491"><ele>380.0</ele><time>2026-04-14T10:27:02Z</time></trkpt><trkpt lat="41.06437842828674" lon="14.861187575082303"><ele>380.0</ele><time>2026-04-14T10:27:04Z</time></trkpt><trkpt lat="41.06444485516162" lon="14.861314997693704"><ele>380.0</ele><time>2026-04-14T10:27:06Z</time></trkpt><trkpt lat="41.06448619076732" lon="14.861442296691685"><ele>380.0</ele><time>2026-04-14T10:27:08Z</time></trkpt><trkpt lat="41.06454242841221" lon="14.861557155760739"><ele>380.0</ele><time>2026-04-14T10:27:10Z</time></trkpt><trkpt lat="41.06458324139478" lon="14.861692626496609"><ele>380.0</ele><time>2026-04-14T10:27:12Z</time></trkpt><trkpt lat="41.064614946670005" lon="14.861835491130483"><ele>380.0</ele><time>2026-04-14T10:27:14Z</time></trkpt><trkpt lat="41.064651549863854" lon="14.86199709880033"><ele>379.8</ele><time>2026-04-14T10:27:16Z</time></trkpt><trkpt lat="41.06468571453031" lon="14.862148513710764"><ele>379.6</ele><time>2026-04-14T10:27:18Z</time></trkpt><trkpt lat="41.06471675485886" lon="14.86229419251774"><ele>379.4</ele><time>2026-04-14T10:27:20Z</time></trkpt><trkpt lat="41.064729544026974" lon="14.862384627340264"><ele>379.2</ele><time>2026-04-14T10:27:21Z</time></trkpt><trkpt lat="41.06474278356065" lon="14.862536230481446"><ele>379.0</ele><time>2026-04-14T10:27:23Z</time></trkpt><trkpt lat="41.06476380711399" lon="14.862668900890315"><ele>378.2</ele><time>2026-04-14T10:27:25Z</time></trkpt><trkpt lat="41.06479134762584" lon="14.862814470760691"><ele>377.4</ele><time>2026-04-14T10:27:27Z</time></trkpt><trkpt lat="41.06482367746716" lon="14.862893572356247"><ele>376.6</ele><time>2026-04-14T10:27:27.999Z</time></trkpt><trkpt lat="41.06483595303552" lon="14.863042098548874"><ele>375.8</ele><time>2026-04-14T10:27:29.999Z</time></trkpt><trkpt lat="41.06487180815556" lon="14.863177958763815"><ele>375.0</ele><time>2026-04-14T10:27:31.999Z</time></trkpt><trkpt lat="41.06487762616848" lon="14.863334146844403"><ele>374.5</ele><time>2026-04-14T10:27:33.999Z</time></trkpt><trkpt lat="41.06491554099783" lon="14.863486934750531"><ele>374.0</ele><time>2026-04-14T10:27:35.999Z</time></trkpt><trkpt lat="41.06495888509228" lon="14.863633336288684"><ele>373.5</ele><time>2026-04-14T10:27:37.999Z</time></trkpt><trkpt lat="41.06501736253603" lon="14.863774229087298"><ele>373.0</ele><time>2026-04-14T10:27:39.999Z</time></trkpt><trkpt lat="41.06508247708121" lon="14.863898663398551"><ele>372.75</ele><time>2026-04-14T10:27:41.999Z</time></trkpt><trkpt lat="41.06517058436012" lon="14.863994355692956"><ele>372.5</ele><time>2026-04-14T10:27:43.999Z</time></trkpt><trkpt lat="41.06526616579357" lon="14.8640968618481"><ele>372.25</ele><time>2026-04-14T10:27:45.999Z</time></trkpt><trkpt lat="41.06535160889873" lon="14.864199007326814"><ele>372.0</ele><time>2026-04-14T10:27:47.999Z</time></trkpt><trkpt lat="41.06545459913794" lon="14.864294915598634"><ele>371.8333333333333</ele><time>2026-04-14T10:27:49.999Z</time></trkpt><trkpt lat="41.06555287013146" lon="14.86439003932739"><ele>371.6666666666667</ele><time>2026-04-14T10:27:51.999Z</time></trkpt><trkpt lat="41.065664668431026" lon="14.864471911445746"><ele>371.5</ele><time>2026-04-14T10:27:53.999Z</time></trkpt><trkpt lat="41.06572346551159" lon="14.864513798842527"><ele>371.33333333333337</ele><time>2026-04-14T10:27:54.999Z</time></trkpt><trkpt lat="41.06578634393035" lon="14.864554198043328"><ele>371.1666666666667</ele><time>2026-04-14T10:27:55.999Z</time></trkpt><trkpt lat="41.065843039502774" lon="14.864591989405344"><ele>371.0</ele><time>2026-04-14T10:27:56.999Z</time></trkpt><trkpt lat="41.0659125216537" lon="14.864634260800736"><ele>370.83333333333337</ele><time>2026-04-14T10:27:57.999Z</time></trkpt><trkpt lat="41.06597136089533" lon="14.864670519926495"><ele>370.6666666666667</ele><time>2026-04-14T10:27:58.999Z</time></trkpt><trkpt lat="41.066034806818564" lon="14.864714705738706"><ele>370.5</ele><time>2026-04-14T10:27:59.999Z</time></trkpt><trkpt lat="41.06609962167071" lon="14.864750325260696"><ele>370.3333333333333</ele><time>2026-04-14T10:28:00.999Z</time></trkpt><trkpt lat="41.066159696950045" lon="14.864799730018294"><ele>370.16666666666663</ele><time>2026-04-14T10:28:01.999Z</time></trkpt><trkpt lat="41.06621864542727" lon="14.86488376650073"><ele>370.0</ele><time>2026-04-14T10:28:02.999Z</time></trkpt><trkpt lat="41.06628341528411" lon="14.864964289999575"><ele>370.0</ele><time>2026-04-14T10:28:03.999Z</time></trkpt><trkpt lat="41.06632689006329" lon="14.86503618610149"><ele>370.0</ele><time>2026-04-14T10:28:04.999Z</time></trkpt><trkpt lat="41.06637447105953" lon="14.865109013208556"><ele>370.0</ele><time>2026-04-14T10:28:05.999Z</time></trkpt><trkpt lat="41.06641887337347" lon="14.865198168472341"><ele>370.0</ele><time>2026-04-14T10:28:06.999Z</time></trkpt><trkpt lat="41.06646517158183" lon="14.865280459222824"><ele>370.0</ele><time>2026-04-14T10:28:07.999Z</time></trkpt><trkpt lat="41.066506060661204" lon="14.86537392920605"><ele>370.0</ele><time>2026-04-14T10:28:08.999Z</time></trkpt><trkpt lat="41.0665548931098" lon="14.8654562784099"><ele>369.66666666666663</ele><time>2026-04-14T10:28:09.999Z</time></trkpt><trkpt lat="41.06660945553658" lon="14.865532397253075"><ele>369.3333333333333</ele><time>2026-04-14T10:28:10.999Z</time></trkpt><trkpt lat="41.06666736557757" lon="14.865606161431568"><ele>369.0</ele><time>2026-04-14T10:28:11.999Z</time></trkpt><trkpt lat="41.066730862001194" lon="14.86568295150773"><ele>368.6666666666667</ele><time>2026-04-14T10:28:12.999Z</time></trkpt><trkpt lat="41.06679082296168" lon="14.865753979982141"><ele>368.33333333333337</ele><time>2026-04-14T10:28:13.999Z</time></trkpt><trkpt lat="41.06685545818027" lon="14.865817333729343"><ele>368.0</ele><time>2026-04-14T10:28:14.999Z</time></trkpt><trkpt lat="41.06692346353974" lon="14.865873935487054"><ele>368.0</ele><time>2026-04-14T10:28:15.999Z</time></trkpt><trkpt lat="41.066998113687305" lon="14.865922845384842"><ele>368.0</ele><time>2026-04-14T10:28:16.999Z</time></trkpt><trkpt lat="41.06707345255677" lon="14.865971433632396"><ele>368.0</ele><time>2026-04-14T10:28:17.999Z</time></trkpt><trkpt lat="41.0671475881337" lon="14.866018959842005"><ele>368.0</ele><time>2026-04-14T10:28:18.999Z</time></trkpt><trkpt lat="41.06721872711112" lon="14.866061043959093"><ele>368.0</ele><time>2026-04-14T10:28:19.999Z</time></trkpt><trkpt lat="41.06729737761527" lon="14.866092233297833"><ele>368.0</ele><time>2026-04-14T10:28:20.999Z</time></trkpt><trkpt lat="41.067361486097745" lon="14.866126336245621"><ele>366.79999999999995</ele><time>2026-04-14T10:28:21.999Z</time></trkpt><trkpt lat="41.067421706062106" lon="14.866167552273048"><ele>365.6</ele><time>2026-04-14T10:28:22.999Z</time></trkpt><trkpt lat="41.067472100425306" lon="14.866219866298536"><ele>364.4</ele><time>2026-04-14T10:28:24Z</time></trkpt><trkpt lat="41.06752425239313" lon="14.866358020367059"><ele>363.20000000000005</ele><time>2026-04-14T10:28:26Z</time></trkpt><trkpt lat="41.06752445128084" lon="14.866474600913165"><ele>362.0</ele><time>2026-04-14T10:28:28Z</time></trkpt><trkpt lat="41.0676508376803" lon="14.866533826412537"><ele>362.0</ele><time>2026-04-14T10:28:32Z</time></trkpt><trkpt lat="41.06771409458113" lon="14.866496491898335"><ele>362.0</ele><time>2026-04-14T10:28:34Z</time></trkpt><trkpt lat="41.067778551660055" lon="14.866456979758961"><ele>362.0</ele><time>2026-04-14T10:28:36Z</time></trkpt><trkpt lat="41.06785746589942" lon="14.866398374420099"><ele>362.0</ele><time>2026-04-14T10:28:38Z</time></trkpt><trkpt lat="41.06792939253608" lon="14.866344177902764"><ele>362.0</ele><time>2026-04-14T10:28:40Z</time></trkpt><trkpt lat="41.06800401270323" lon="14.86630466390321"><ele>362.0</ele><time>2026-04-14T10:28:42Z</time></trkpt><trkpt lat="41.068067660407955" lon="14.866357275904214"><ele>362.0</ele><time>2026-04-14T10:28:44Z</time></trkpt><trkpt lat="41.06816238340989" lon="14.866451804162566"><ele>362.0</ele><time>2026-04-14T10:28:46Z</time></trkpt><trkpt lat="41.068247338497805" lon="14.866537148617256"><ele>362.0</ele><time>2026-04-14T10:28:48Z</time></trkpt><trkpt lat="41.068334867636636" lon="14.866535306375162"><ele>362.0</ele><time>2026-04-14T10:28:50Z</time></trkpt><trkpt lat="41.06839524969843" lon="14.866461990784348"><ele>362.0</ele><time>2026-04-14T10:28:52Z</time></trkpt><trkpt lat="41.06847915902149" lon="14.866399930921105"><ele>362.0</ele><time>2026-04-14T10:28:54Z</time></trkpt><trkpt lat="41.068582895039164" lon="14.866319218277022"><ele>362.0</ele><time>2026-04-14T10:28:56Z</time></trkpt><trkpt lat="41.06864007430006" lon="14.866276292450895"><ele>362.0</ele><time>2026-04-14T10:28:57Z</time></trkpt><trkpt lat="41.06869804410198" lon="14.86623165835613"><ele>362.0</ele><time>2026-04-14T10:28:58Z</time></trkpt><trkpt lat="41.06875824041486" lon="14.866179467471023"><ele>362.0</ele><time>2026-04-14T10:28:59Z</time></trkpt><trkpt lat="41.06882578635871" lon="14.866125474045779"><ele>362.0</ele><time>2026-04-14T10:29:00Z</time></trkpt><trkpt lat="41.06888453201073" lon="14.86608084268321"><ele>362.0</ele><time>2026-04-14T10:29:01Z</time></trkpt><trkpt lat="41.06894081579362" lon="14.866030363877979"><ele>362.0</ele><time>2026-04-14T10:29:02Z</time></trkpt><trkpt lat="41.06902414617688" lon="14.86600723754636"><ele>362.0</ele><time>2026-04-14T10:29:03Z</time></trkpt><trkpt lat="41.06907964771402" lon="14.86596043091432"><ele>362.0</ele><time>2026-04-14T10:29:04Z</time></trkpt><trkpt lat="41.06916347835932" lon="14.865868425139215"><ele>362.0</ele><time>2026-04-14T10:29:06Z</time></trkpt><trkpt lat="41.069225613615075" lon="14.865834727064447"><ele>362.0</ele><time>2026-04-14T10:29:07Z</time></trkpt><trkpt lat="41.06933066620722" lon="14.865752713521564"><ele>361.8</ele><time>2026-04-14T10:29:09Z</time></trkpt><trkpt lat="41.06939232241948" lon="14.865716732077022"><ele>361.6</ele><time>2026-04-14T10:29:10Z</time></trkpt><trkpt lat="41.0694952161549" lon="14.865636209348555"><ele>361.40000000000003</ele><time>2026-04-14T10:29:12Z</time></trkpt><trkpt lat="41.06958949911704" lon="14.865572256319329"><ele>361.20000000000005</ele><time>2026-04-14T10:29:14Z</time></trkpt><trkpt lat="41.0696753446387" lon="14.865511567035"><ele>361.0</ele><time>2026-04-14T10:29:16Z</time></trkpt><trkpt lat="41.06974736182302" lon="14.865456561986274"><ele>361.0</ele><time>2026-04-14T10:29:18Z</time></trkpt><trkpt lat="41.06983294967327" lon="14.865414853780806"><ele>361.0</ele><time>2026-04-14T10:29:20Z</time></trkpt><trkpt lat="41.06990608209442" lon="14.865382283309724"><ele>361.0</ele><time>2026-04-14T10:29:22Z</time></trkpt><trkpt lat="41.06997069852408" lon="14.865409212194658"><ele>361.0</ele><time>2026-04-14T10:29:24Z</time></trkpt><trkpt lat="41.07004617550181" lon="14.865471658750325"><ele>361.0</ele><time>2026-04-14T10:29:26Z</time></trkpt><trkpt lat="41.07012862842037" lon="14.865543155123373"><ele>361.0</ele><time>2026-04-14T10:29:28Z</time></trkpt><trkpt lat="41.07020517011635" lon="14.865625981804477"><ele>361.0</ele><time>2026-04-14T10:29:30Z</time></trkpt><trkpt lat="41.07029197402771" lon="14.865707267551139"><ele>361.0</ele><time>2026-04-14T10:29:32Z</time></trkpt><trkpt lat="41.07035906470002" lon="14.865769501106582"><ele>361.0</ele><time>2026-04-14T10:29:34Z</time></trkpt><trkpt lat="41.07043695251923" lon="14.865845400211198"><ele>361.0</ele><time>2026-04-14T10:29:36Z</time></trkpt><trkpt lat="41.070499558046116" lon="14.865921119999362"><ele>361.0</ele><time>2026-04-14T10:29:36.999Z</time></trkpt><trkpt lat="41.070573329601096" lon="14.865971489027274"><ele>360.6</ele><time>2026-04-14T10:29:38.999Z</time></trkpt><trkpt lat="41.070648621078966" lon="14.866064575887032"><ele>360.20000000000005</ele><time>2026-04-14T10:29:40.999Z</time></trkpt><trkpt lat="41.07072707392709" lon="14.86612592173254"><ele>359.79999999999995</ele><time>2026-04-14T10:29:42.999Z</time></trkpt><trkpt lat="41.070805826865666" lon="14.866217153073142"><ele>359.4</ele><time>2026-04-14T10:29:44.999Z</time></trkpt><trkpt lat="41.07088723801952" lon="14.866300242667583"><ele>359.0</ele><time>2026-04-14T10:29:46.999Z</time></trkpt><trkpt lat="41.070966263419976" lon="14.866372199843799"><ele>359.0</ele><time>2026-04-14T10:29:48.999Z</time></trkpt><trkpt lat="41.07104945318517" lon="14.866443876345153"><ele>359.0</ele><time>2026-04-14T10:29:50.999Z</time></trkpt><trkpt lat="41.071099589784815" lon="14.866505495479052"><ele>359.0</ele><time>2026-04-14T10:29:51.999Z</time></trkpt><trkpt lat="41.071203883681534" lon="14.866612443326751"><ele>359.0</ele><time>2026-04-14T10:29:53.999Z</time></trkpt><trkpt lat="41.071261616645124" lon="14.866674933012428"><ele>359.0</ele><time>2026-04-14T10:29:54.999Z</time></trkpt><trkpt lat="41.07132395501034" lon="14.866736066395694"><ele>357.6666666666667</ele><time>2026-04-14T10:29:55.999Z</time></trkpt><trkpt lat="41.071383842577866" lon="14.866795634721097"><ele>356.33333333333337</ele><time>2026-04-14T10:29:56.999Z</time></trkpt><trkpt lat="41.0714491124836" lon="14.8668651549204"><ele>355.0</ele><time>2026-04-14T10:29:57.999Z</time></trkpt><trkpt lat="41.07151346055494" lon="14.86693983199877"><ele>353.6666666666667</ele><time>2026-04-14T10:29:58.999Z</time></trkpt><trkpt lat="41.07157909503876" lon="14.867015327740516"><ele>352.3333333333333</ele><time>2026-04-14T10:29:59.999Z</time></trkpt><trkpt lat="41.07164968714064" lon="14.867087420122795"><ele>351.0</ele><time>2026-04-14T10:30:00.999Z</time></trkpt><trkpt lat="41.07171211700197" lon="14.867162483058241"><ele>351.0</ele><time>2026-04-14T10:30:01.999Z</time></trkpt><trkpt lat="41.07177955769821" lon="14.867234493065578"><ele>351.0</ele><time>2026-04-14T10:30:02.999Z</time></trkpt><trkpt lat="41.071841147805024" lon="14.867301429939086"><ele>351.0</ele><time>2026-04-14T10:30:03.999Z</time></trkpt><trkpt lat="41.07191022527646" lon="14.867379725482051"><ele>351.0</ele><time>2026-04-14T10:30:04.999Z</time></trkpt><trkpt lat="41.071969606572644" lon="14.867461236398508"><ele>351.0</ele><time>2026-04-14T10:30:05.999Z</time></trkpt><trkpt lat="41.07202975594546" lon="14.867546843784547"><ele>351.0</ele><time>2026-04-14T10:30:06.999Z</time></trkpt><trkpt lat="41.07209192004183" lon="14.867626948128303"><ele>351.1666666666667</ele><time>2026-04-14T10:30:07.999Z</time></trkpt><trkpt lat="41.07215187917117" lon="14.867708804442202"><ele>351.3333333333333</ele><time>2026-04-14T10:30:08.999Z</time></trkpt><trkpt lat="41.07220839597625" lon="14.86779155488503"><ele>351.5</ele><time>2026-04-14T10:30:09.999Z</time></trkpt><trkpt lat="41.07226776927362" lon="14.867859388712446"><ele>351.66666666666663</ele><time>2026-04-14T10:30:10.999Z</time></trkpt><trkpt lat="41.07233223680486" lon="14.86793864586977"><ele>351.8333333333333</ele><time>2026-04-14T10:30:11.999Z</time></trkpt><trkpt lat="41.07239130136655" lon="14.868010428500714"><ele>352.0</ele><time>2026-04-14T10:30:12.999Z</time></trkpt><trkpt lat="41.072450110014586" lon="14.868093321736666"><ele>352.0</ele><time>2026-04-14T10:30:13.999Z</time></trkpt><trkpt lat="41.07250083964431" lon="14.86817715439211"><ele>352.0</ele><time>2026-04-14T10:30:14.999Z</time></trkpt><trkpt lat="41.07255404024655" lon="14.86825504222855"><ele>352.0</ele><time>2026-04-14T10:30:15.999Z</time></trkpt><trkpt lat="41.07260959846802" lon="14.868336091198076"><ele>352.0</ele><time>2026-04-14T10:30:16.999Z</time></trkpt><trkpt lat="41.072667141362516" lon="14.868415336668884"><ele>352.0</ele><time>2026-04-14T10:30:17.999Z</time></trkpt><trkpt lat="41.07271962968062" lon="14.868483517877536"><ele>352.0</ele><time>2026-04-14T10:30:18.999Z</time></trkpt><trkpt lat="41.07277077234383" lon="14.86856135641531"><ele>351.0</ele><time>2026-04-14T10:30:19.999Z</time></trkpt><trkpt lat="41.07281618144939" lon="14.868620656016112"><ele>350.0</ele><time>2026-04-14T10:30:20.999Z</time></trkpt><trkpt lat="41.07286438206271" lon="14.86869476081434"><ele>349.0</ele><time>2026-04-14T10:30:21.999Z</time></trkpt><trkpt lat="41.07291358199949" lon="14.868761704452204"><ele>348.0</ele><time>2026-04-14T10:30:22.999Z</time></trkpt><trkpt lat="41.07296025304722" lon="14.868829364326395"><ele>347.0</ele><time>2026-04-14T10:30:23.999Z</time></trkpt><trkpt lat="41.073003684198994" lon="14.868892404968351"><ele>346.0</ele><time>2026-04-14T10:30:24.999Z</time></trkpt><trkpt lat="41.07304762984434" lon="14.868957605252442"><ele>345.0</ele><time>2026-04-14T10:30:25.999Z</time></trkpt><trkpt lat="41.07312765823842" lon="14.869085265799374"><ele>345.0</ele><time>2026-04-14T10:30:27.999Z</time></trkpt><trkpt lat="41.07321060472909" lon="14.869207732021575"><ele>345.0</ele><time>2026-04-14T10:30:30Z</time></trkpt><trkpt lat="41.07328117992128" lon="14.869301099958117"><ele>345.0</ele><time>2026-04-14T10:30:32Z</time></trkpt><trkpt lat="41.07335070990232" lon="14.869400665368675"><ele>345.0</ele><time>2026-04-14T10:30:34Z</time></trkpt><trkpt lat="41.073423508703115" lon="14.869496876393425"><ele>345.0</ele><time>2026-04-14T10:30:36Z</time></trkpt><trkpt lat="41.073492867089264" lon="14.869597274242599"><ele>345.6</ele><time>2026-04-14T10:30:38Z</time></trkpt><trkpt lat="41.073551651398546" lon="14.86969322805458"><ele>346.2</ele><time>2026-04-14T10:30:40Z</time></trkpt><trkpt lat="41.07361957715739" lon="14.869794835318224"><ele>346.79999999999995</ele><time>2026-04-14T10:30:42Z</time></trkpt><trkpt lat="41.073679904190996" lon="14.869890350883622"><ele>347.4</ele><time>2026-04-14T10:30:44Z</time></trkpt><trkpt lat="41.07374824185978" lon="14.869985427559445"><ele>348.0</ele><time>2026-04-14T10:30:46Z</time></trkpt><trkpt lat="41.073821250869" lon="14.870081998145425"><ele>348.2</ele><time>2026-04-14T10:30:48Z</time></trkpt><trkpt lat="41.073886954714645" lon="14.870181093704629"><ele>348.4</ele><time>2026-04-14T10:30:50Z</time></trkpt><trkpt lat="41.07395653853498" lon="14.870289098570463"><ele>348.59999999999997</ele><time>2026-04-14T10:30:52Z</time></trkpt><trkpt lat="41.07402407605796" lon="14.870390902140885"><ele>348.79999999999995</ele><time>2026-04-14T10:30:54Z</time></trkpt><trkpt lat="41.07409340901195" lon="14.87049812302364"><ele>349.0</ele><time>2026-04-14T10:30:56Z</time></trkpt><trkpt lat="41.07416216238357" lon="14.870587372294233"><ele>349.0</ele><time>2026-04-14T10:30:58Z</time></trkpt><trkpt lat="41.07423412621465" lon="14.870703248077156"><ele>349.0</ele><time>2026-04-14T10:31:00Z</time></trkpt><trkpt lat="41.074304609262654" lon="14.870816444139951"><ele>349.0</ele><time>2026-04-14T10:31:02Z</time></trkpt><trkpt lat="41.07437762369015" lon="14.870925383495695"><ele>349.0</ele><time>2026-04-14T10:31:04Z</time></trkpt><trkpt lat="41.074455796506854" lon="14.871030238607934"><ele>349.0</ele><time>2026-04-14T10:31:06Z</time></trkpt><trkpt lat="41.07455316727229" lon="14.871033160657465"><ele>349.0</ele><time>2026-04-14T10:31:08Z</time></trkpt><trkpt lat="41.07456638519938" lon="14.870913943938085"><ele>349.0</ele><time>2026-04-14T10:31:10Z</time></trkpt><trkpt lat="41.074535239813905" lon="14.870834927388433"><ele>349.0</ele><time>2026-04-14T10:31:14Z</time></trkpt><trkpt lat="41.07452731848158" lon="14.870742607240157"><ele>349.0</ele><time>2026-04-14T10:31:17Z</time></trkpt><trkpt lat="41.07451190755503" lon="14.87065264120918"><ele>349.0</ele><time>2026-04-14T10:31:20Z</time></trkpt><trkpt lat="41.07448199949432" lon="14.87055749043076"><ele>349.0</ele><time>2026-04-14T10:31:24Z</time></trkpt><trkpt lat="41.074453072775256" lon="14.870458261871436"><ele>348.99999999999994</ele><time>2026-04-14T10:31:28Z</time></trkpt><trkpt lat="41.07443483265352" lon="14.870361395237676"><ele>349.0</ele><time>2026-04-14T10:31:31Z</time></trkpt><trkpt lat="41.07441031152038" lon="14.870262321104878"><ele>349.0</ele><time>2026-04-14T10:31:35Z</time></trkpt><trkpt lat="41.074388081015705" lon="14.870170457973286"><ele>349.0</ele><time>2026-04-14T10:31:39Z</time></trkpt><trkpt lat="41.07435989845806" lon="14.87009570355166"><ele>349.0</ele><time>2026-04-14T10:31:42Z</time></trkpt><trkpt lat="41.07429915644501" lon="14.87001450213672"><ele>348.99999999999994</ele><time>2026-04-14T10:31:45.999Z</time></trkpt><trkpt lat="41.074263388711685" lon="14.8699405297007"><ele>349.0</ele><time>2026-04-14T10:31:48.999Z</time></trkpt><trkpt lat="41.074329811340824" lon="14.86995288576624"><ele>349.0</ele><time>2026-04-14T10:31:54.999Z</time></trkpt><trkpt lat="41.07435447538889" lon="14.870051366266187"><ele>349.0</ele><time>2026-04-14T10:31:56.999Z</time></trkpt><trkpt lat="41.074389206436756" lon="14.87016567570953"><ele>349.0</ele><time>2026-04-14T10:31:58.999Z</time></trkpt><trkpt lat="41.07441624929397" lon="14.870313499535953"><ele>349.0</ele><time>2026-04-14T10:32:00.999Z</time></trkpt><trkpt lat="41.07443489664522" lon="14.870401149134853"><ele>349.0</ele><time>2026-04-14T10:32:01.999Z</time></trkpt><trkpt lat="41.07445772249375" lon="14.87049439792211"><ele>349.0</ele><time>2026-04-14T10:32:02.999Z</time></trkpt><trkpt lat="41.07448155045391" lon="14.870590632146028"><ele>349.0</ele><time>2026-04-14T10:32:03.999Z</time></trkpt><trkpt lat="41.07450537157363" lon="14.87069044647902"><ele>349.0</ele><time>2026-04-14T10:32:04.999Z</time></trkpt><trkpt lat="41.07452588648827" lon="14.870785830410538"><ele>349.0</ele><time>2026-04-14T10:32:05.999Z</time></trkpt><trkpt lat="41.07454302265593" lon="14.87088048137594"><ele>349.0</ele><time>2026-04-14T10:32:06.999Z</time></trkpt><trkpt lat="41.07455585872627" lon="14.870969270242872"><ele>349.0</ele><time>2026-04-14T10:32:07.999Z</time></trkpt><trkpt lat="41.074510975211844" lon="14.871046553545453"><ele>349.0</ele><time>2026-04-14T10:32:09.999Z</time></trkpt><trkpt lat="41.074419527271516" lon="14.870996130788141"><ele>348.99999999999994</ele><time>2026-04-14T10:32:11.999Z</time></trkpt><trkpt lat="41.074370965002316" lon="14.870935387023518"><ele>349.0</ele><time>2026-04-14T10:32:13.999Z</time></trkpt><trkpt lat="41.07433115366631" lon="14.87086679548125"><ele>349.0</ele><time>2026-04-14T10:32:15.999Z</time></trkpt><trkpt lat="41.074280688707624" lon="14.870797322922435"><ele>349.0</ele><time>2026-04-14T10:32:17.999Z</time></trkpt><trkpt lat="41.07423019431004" lon="14.870730850939225"><ele>349.0</ele><time>2026-04-14T10:32:19.999Z</time></trkpt><trkpt lat="41.07418222116272" lon="14.870672311993781"><ele>348.99999999999994</ele><time>2026-04-14T10:32:21.999Z</time></trkpt><trkpt lat="41.07412776683466" lon="14.870577303058852"><ele>349.0</ele><time>2026-04-14T10:32:23.999Z</time></trkpt><trkpt lat="41.074079036295174" lon="14.870519234563545"><ele>348.8333333333333</ele><time>2026-04-14T10:32:25.999Z</time></trkpt><trkpt lat="41.07403347201734" lon="14.870452528592336"><ele>348.66666666666663</ele><time>2026-04-14T10:32:27.999Z</time></trkpt><trkpt lat="41.07398307219574" lon="14.870389321941987"><ele>348.5</ele><time>2026-04-14T10:32:29.999Z</time></trkpt><trkpt lat="41.07393348168654" lon="14.870316995351025"><ele>348.3333333333333</ele><time>2026-04-14T10:32:31.999Z</time></trkpt><trkpt lat="41.07386307537284" lon="14.8702194924337"><ele>348.1666666666667</ele><time>2026-04-14T10:32:34.999Z</time></trkpt><trkpt lat="41.073818180313445" lon="14.870159971967308"><ele>348.0</ele><time>2026-04-14T10:32:37Z</time></trkpt><trkpt lat="41.07377213079517" lon="14.870068344099439"><ele>348.0</ele><time>2026-04-14T10:32:39Z</time></trkpt><trkpt lat="41.07371884397656" lon="14.869998581632178"><ele>348.0</ele><time>2026-04-14T10:32:41Z</time></trkpt><trkpt lat="41.073677196972525" lon="14.869919408884654"><ele>348.0</ele><time>2026-04-14T10:32:43Z</time></trkpt><trkpt lat="41.073634048139304" lon="14.869856723324885"><ele>348.0</ele><time>2026-04-14T10:32:45Z</time></trkpt><trkpt lat="41.07358112272986" lon="14.869771730424779"><ele>348.0</ele><time>2026-04-14T10:32:47Z</time></trkpt><trkpt lat="41.073553778406676" lon="14.869652381116095"><ele>348.0</ele><time>2026-04-14T10:32:48Z</time></trkpt><trkpt lat="41.07350488556086" lon="14.869597946501834"><ele>348.0</ele><time>2026-04-14T10:32:50Z</time></trkpt><trkpt lat="41.07345308088604" lon="14.869530792107176"><ele>348.0</ele><time>2026-04-14T10:32:52Z</time></trkpt><trkpt lat="41.07340227486081" lon="14.869443291215507"><ele>348.0</ele><time>2026-04-14T10:32:54Z</time></trkpt><trkpt lat="41.073336747767314" lon="14.869366658193231"><ele>348.0</ele><time>2026-04-14T10:32:56Z</time></trkpt><trkpt lat="41.07328259346753" lon="14.869283035806731"><ele>348.0</ele><time>2026-04-14T10:32:58Z</time></trkpt><trkpt lat="41.073215594320004" lon="14.869192792875152"><ele>348.0</ele><time>2026-04-14T10:33:00Z</time></trkpt><trkpt lat="41.073154098349875" lon="14.869085955411435"><ele>347.4</ele><time>2026-04-14T10:33:02Z</time></trkpt><trkpt lat="41.073082255335194" lon="14.868988286748358"><ele>346.79999999999995</ele><time>2026-04-14T10:33:04Z</time></trkpt><trkpt lat="41.073021196029046" lon="14.868892564397363"><ele>346.2</ele><time>2026-04-14T10:33:06Z</time></trkpt><trkpt lat="41.072955467042384" lon="14.86881133904663"><ele>345.6</ele><time>2026-04-14T10:33:08Z</time></trkpt><trkpt lat="41.07288378324155" lon="14.868718666994651"><ele>345.0</ele><time>2026-04-14T10:33:10Z</time></trkpt><trkpt lat="41.07281782200901" lon="14.86863978746545"><ele>345.0</ele><time>2026-04-14T10:33:12Z</time></trkpt><trkpt lat="41.07274954092302" lon="14.868542767760887"><ele>345.0</ele><time>2026-04-14T10:33:14Z</time></trkpt><trkpt lat="41.07268335248554" lon="14.868460748966127"><ele>345.0</ele><time>2026-04-14T10:33:16Z</time></trkpt><trkpt lat="41.07261769937065" lon="14.86836594081808"><ele>345.0</ele><time>2026-04-14T10:33:18Z</time></trkpt><trkpt lat="41.07254244610472" lon="14.868267325772276"><ele>345.0</ele><time>2026-04-14T10:33:20Z</time></trkpt><trkpt lat="41.07248096697615" lon="14.868182348600469"><ele>344.6666666666667</ele><time>2026-04-14T10:33:22Z</time></trkpt><trkpt lat="41.07243255584673" lon="14.868088578724132"><ele>344.3333333333333</ele><time>2026-04-14T10:33:24Z</time></trkpt><trkpt lat="41.0723746923219" lon="14.868017834422524"><ele>344.0</ele><time>2026-04-14T10:33:26Z</time></trkpt><trkpt lat="41.07232123906357" lon="14.867944148912464"><ele>343.66666666666663</ele><time>2026-04-14T10:33:28Z</time></trkpt><trkpt lat="41.07226529064673" lon="14.867860430372838"><ele>343.3333333333333</ele><time>2026-04-14T10:33:30Z</time></trkpt><trkpt lat="41.072213752660964" lon="14.867781755790418"><ele>343.0</ele><time>2026-04-14T10:33:32Z</time></trkpt><trkpt lat="41.072153624628335" lon="14.867699888611167"><ele>343.0</ele><time>2026-04-14T10:33:34Z</time></trkpt><trkpt lat="41.072103575609916" lon="14.867633093120066"><ele>343.0</ele><time>2026-04-14T10:33:36Z</time></trkpt><trkpt lat="41.072054964005865" lon="14.867561428571923"><ele>343.0</ele><time>2026-04-14T10:33:38Z</time></trkpt><trkpt lat="41.07200482530612" lon="14.867496730093608"><ele>343.0</ele><time>2026-04-14T10:33:40Z</time></trkpt><trkpt lat="41.0719582190359" lon="14.867436542258943"><ele>343.0</ele><time>2026-04-14T10:33:42Z</time></trkpt><trkpt lat="41.071888803927685" lon="14.867349090848764"><ele>343.0</ele><time>2026-04-14T10:33:45Z</time></trkpt><trkpt lat="41.07183317583573" lon="14.867293891882442"><ele>343.0</ele><time>2026-04-14T10:33:47Z</time></trkpt><trkpt lat="41.071761473119736" lon="14.867212845135661"><ele>344.3333333333333</ele><time>2026-04-14T10:33:49.999Z</time></trkpt><trkpt lat="41.07168949225483" lon="14.867136142026014"><ele>345.66666666666663</ele><time>2026-04-14T10:33:52.999Z</time></trkpt><trkpt lat="41.07161716495023" lon="14.867054696985461"><ele>347.0</ele><time>2026-04-14T10:33:55.999Z</time></trkpt><trkpt lat="41.071561853750296" lon="14.867001910837644"><ele>348.3333333333333</ele><time>2026-04-14T10:33:57.999Z</time></trkpt><trkpt lat="41.07150849020587" lon="14.866941915112037"><ele>349.6666666666667</ele><time>2026-04-14T10:33:59.999Z</time></trkpt><trkpt lat="41.07143436224332" lon="14.866863938752312"><ele>351.0</ele><time>2026-04-14T10:34:02.999Z</time></trkpt><trkpt lat="41.07136069891824" lon="14.86678262599239"><ele>352.3333333333333</ele><time>2026-04-14T10:34:05.999Z</time></trkpt><trkpt lat="41.0712902158424" lon="14.866708048896689"><ele>353.6666666666667</ele><time>2026-04-14T10:34:08.999Z</time></trkpt><trkpt lat="41.07122402100924" lon="14.866633437908273"><ele>355.0</ele><time>2026-04-14T10:34:11.999Z</time></trkpt><trkpt lat="41.07114763354116" lon="14.866563980458782"><ele>356.33333333333337</ele><time>2026-04-14T10:34:14.999Z</time></trkpt><trkpt lat="41.07108309260406" lon="14.866491637268823"><ele>357.6666666666667</ele><time>2026-04-14T10:34:17.999Z</time></trkpt><trkpt lat="41.07100637967001" lon="14.866425890724672"><ele>359.0</ele><time>2026-04-14T10:34:20.999Z</time></trkpt><trkpt lat="41.0709341477933" lon="14.866365221293336"><ele>359.0</ele><time>2026-04-14T10:34:23.999Z</time></trkpt><trkpt lat="41.07087996857399" lon="14.86630862771037"><ele>359.0</ele><time>2026-04-14T10:34:25.999Z</time></trkpt><trkpt lat="41.070822133781256" lon="14.866250578323365"><ele>359.0</ele><time>2026-04-14T10:34:27.999Z</time></trkpt><trkpt lat="41.07076828848372" lon="14.866197768052585"><ele>359.0</ele><time>2026-04-14T10:34:29.999Z</time></trkpt><trkpt lat="41.070713704593565" lon="14.866137654007815"><ele>359.0</ele><time>2026-04-14T10:34:31.999Z</time></trkpt><trkpt lat="41.07065666940393" lon="14.86607530017712"><ele>359.0</ele><time>2026-04-14T10:34:33.999Z</time></trkpt><trkpt lat="41.07060730693437" lon="14.866008263049567"><ele>359.0</ele><time>2026-04-14T10:34:35.999Z</time></trkpt><trkpt lat="41.07054154320671" lon="14.865965414052775"><ele>359.2857142857143</ele><time>2026-04-14T10:34:37.999Z</time></trkpt><trkpt lat="41.070488588576865" lon="14.865907435446774"><ele>359.57142857142856</ele><time>2026-04-14T10:34:39.999Z</time></trkpt><trkpt lat="41.07043548062572" lon="14.865853274469673"><ele>359.8571428571429</ele><time>2026-04-14T10:34:42Z</time></trkpt><trkpt lat="41.07037559905395" lon="14.865795077053917"><ele>360.1428571428571</ele><time>2026-04-14T10:34:44Z</time></trkpt><trkpt lat="41.07031357807052" lon="14.865741809733459"><ele>360.4285714285714</ele><time>2026-04-14T10:34:46Z</time></trkpt><trkpt lat="41.07026551333643" lon="14.865677707407068"><ele>360.7142857142857</ele><time>2026-04-14T10:34:48Z</time></trkpt><trkpt lat="41.07021202724325" lon="14.865623512102461"><ele>361.0</ele><time>2026-04-14T10:34:50Z</time></trkpt><trkpt lat="41.070156314294195" lon="14.865572890997445"><ele>361.0</ele><time>2026-04-14T10:34:52Z</time></trkpt><trkpt lat="41.07010750710206" lon="14.865517422292267"><ele>361.0</ele><time>2026-04-14T10:34:54Z</time></trkpt><trkpt lat="41.07001133354471" lon="14.865475048875911"><ele>361.0</ele><time>2026-04-14T10:34:57Z</time></trkpt><trkpt lat="41.069953228934594" lon="14.865420695598456"><ele>361.0</ele><time>2026-04-14T10:34:59Z</time></trkpt><trkpt lat="41.069851230615235" lon="14.865389587248504"><ele>361.0</ele><time>2026-04-14T10:35:02Z</time></trkpt><trkpt lat="41.0697694508291" lon="14.865421599402751"><ele>361.0</ele><time>2026-04-14T10:35:04Z</time></trkpt><trkpt lat="41.06968293892649" lon="14.865477295966008"><ele>361.0</ele><time>2026-04-14T10:35:06Z</time></trkpt><trkpt lat="41.069582664382125" lon="14.865557297160727"><ele>361.0</ele><time>2026-04-14T10:35:08Z</time></trkpt><trkpt lat="41.06948125202644" lon="14.86562995342576"><ele>361.0</ele><time>2026-04-14T10:35:10Z</time></trkpt><trkpt lat="41.069376611117924" lon="14.865704614494685"><ele>361.0</ele><time>2026-04-14T10:35:12Z</time></trkpt><trkpt lat="41.06928503491077" lon="14.865764573536252"><ele>361.0</ele><time>2026-04-14T10:35:14Z</time></trkpt><trkpt lat="41.06921434033316" lon="14.865810350137995"><ele>361.0</ele><time>2026-04-14T10:35:17Z</time></trkpt><trkpt lat="41.06915341978086" lon="14.865887132189037"><ele>361.0</ele><time>2026-04-14T10:36:02Z</time></trkpt><trkpt lat="41.06909611256948" lon="14.865936663271146"><ele>361.0</ele><time>2026-04-14T10:36:04Z</time></trkpt><trkpt lat="41.06903526335388" lon="14.865968983926024"><ele>361.0</ele><time>2026-04-14T10:36:06Z</time></trkpt><trkpt lat="41.068962881612045" lon="14.86601734304016"><ele>361.0</ele><time>2026-04-14T10:36:08Z</time></trkpt><trkpt lat="41.06889579683153" lon="14.866074742634769"><ele>361.16666666666663</ele><time>2026-04-14T10:36:10Z</time></trkpt><trkpt lat="41.068822397279376" lon="14.866121879885167"><ele>361.3333333333333</ele><time>2026-04-14T10:36:12Z</time></trkpt><trkpt lat="41.06874724378682" lon="14.866174257052396"><ele>361.5</ele><time>2026-04-14T10:36:14Z</time></trkpt><trkpt lat="41.06868192428417" lon="14.866220769976174"><ele>361.6666666666667</ele><time>2026-04-14T10:36:16Z</time></trkpt><trkpt lat="41.06861182117976" lon="14.866265404918678"><ele>361.83333333333337</ele><time>2026-04-14T10:36:18Z</time></trkpt><trkpt lat="41.0685439180386" lon="14.86631411226318"><ele>362.0</ele><time>2026-04-14T10:36:19.999Z</time></trkpt><trkpt lat="41.068469076305604" lon="14.866364244279303"><ele>362.0</ele><time>2026-04-14T10:36:21.999Z</time></trkpt><trkpt lat="41.068397508036334" lon="14.866417555173078"><ele>362.0</ele><time>2026-04-14T10:36:23.999Z</time></trkpt><trkpt lat="41.06833180357589" lon="14.866459273987719"><ele>362.0</ele><time>2026-04-14T10:36:25.999Z</time></trkpt><trkpt lat="41.068258650953595" lon="14.866449850734718"><ele>362.0</ele><time>2026-04-14T10:36:27.999Z</time></trkpt><trkpt lat="41.06819995632836" lon="14.866380702726579"><ele>362.0</ele><time>2026-04-14T10:36:29.999Z</time></trkpt><trkpt lat="41.06812382696248" lon="14.866295469764172"><ele>362.0</ele><time>2026-04-14T10:36:32.999Z</time></trkpt><trkpt lat="41.06805215894817" lon="14.866248529959128"><ele>362.0</ele><time>2026-04-14T10:36:36.999Z</time></trkpt><trkpt lat="41.06797747371622" lon="14.866273601846649"><ele>362.0</ele><time>2026-04-14T10:36:40.999Z</time></trkpt><trkpt lat="41.067910739682766" lon="14.866336867198656"><ele>362.0</ele><time>2026-04-14T10:36:44.999Z</time></trkpt><trkpt lat="41.067852081916826" lon="14.866396913626494"><ele>362.0</ele><time>2026-04-14T10:36:48Z</time></trkpt><trkpt lat="41.06777234753031" lon="14.86643698787311"><ele>362.0</ele><time>2026-04-14T10:36:51Z</time></trkpt><trkpt lat="41.06769451608029" lon="14.866387605802453"><ele>362.0</ele><time>2026-04-14T10:36:53Z</time></trkpt><trkpt lat="41.067638521356464" lon="14.86629761841552"><ele>362.0</ele><time>2026-04-14T10:36:55Z</time></trkpt><trkpt lat="41.06758277914721" lon="14.866205898906784"><ele>362.0</ele><time>2026-04-14T10:36:57Z</time></trkpt><trkpt lat="41.067523646034815" lon="14.86614173410394"><ele>362.0</ele><time>2026-04-14T10:36:59Z</time></trkpt><trkpt lat="41.06745419555652" lon="14.866105691920351"><ele>362.0</ele><time>2026-04-14T10:37:01Z</time></trkpt><trkpt lat="41.067374143162" lon="14.866084796185257"><ele>362.0</ele><time>2026-04-14T10:37:03Z</time></trkpt><trkpt lat="41.06729520089482" lon="14.866056799027932"><ele>362.0</ele><time>2026-04-14T10:37:05Z</time></trkpt><trkpt lat="41.06722878333209" lon="14.866025800839507"><ele>362.0</ele><time>2026-04-14T10:37:07Z</time></trkpt><trkpt lat="41.0671588994716" lon="14.866000992913463"><ele>362.0</ele><time>2026-04-14T10:37:09Z</time></trkpt><trkpt lat="41.06709433269106" lon="14.86595486526529"><ele>362.0</ele><time>2026-04-14T10:37:11Z</time></trkpt><trkpt lat="41.06701624565256" lon="14.865913943885742"><ele>362.0</ele><time>2026-04-14T10:37:13Z</time></trkpt><trkpt lat="41.0669515836999" lon="14.865874421225747"><ele>362.0</ele><time>2026-04-14T10:37:15Z</time></trkpt><trkpt lat="41.0668829033636" lon="14.865827440013415"><ele>362.0</ele><time>2026-04-14T10:37:17Z</time></trkpt><trkpt lat="41.06681844659217" lon="14.86577258967323"><ele>362.7142857142857</ele><time>2026-04-14T10:37:19Z</time></trkpt><trkpt lat="41.0667521684576" lon="14.865710651776867"><ele>363.42857142857144</ele><time>2026-04-14T10:37:21Z</time></trkpt><trkpt lat="41.06669627950419" lon="14.865654230922607"><ele>364.1428571428571</ele><time>2026-04-14T10:37:23Z</time></trkpt><trkpt lat="41.06664633132908" lon="14.865592251909792"><ele>364.8571428571429</ele><time>2026-04-14T10:37:25Z</time></trkpt><trkpt lat="41.06659223752739" lon="14.865525138109296"><ele>365.5714285714286</ele><time>2026-04-14T10:37:27Z</time></trkpt><trkpt lat="41.066540696837" lon="14.865459676119308"><ele>366.2857142857143</ele><time>2026-04-14T10:37:29Z</time></trkpt><trkpt lat="41.066500314540235" lon="14.86539063639025"><ele>367.0</ele><time>2026-04-14T10:37:31Z</time></trkpt><trkpt lat="41.06645744369415" lon="14.865316498937274"><ele>367.0</ele><time>2026-04-14T10:37:33Z</time></trkpt><trkpt lat="41.06641718221557" lon="14.865241813476494"><ele>367.0</ele><time>2026-04-14T10:37:35Z</time></trkpt><trkpt lat="41.066379223361345" lon="14.865162009124461"><ele>367.0</ele><time>2026-04-14T10:37:37Z</time></trkpt><trkpt lat="41.066337883981106" lon="14.865082865925865"><ele>367.0</ele><time>2026-04-14T10:37:39Z</time></trkpt><trkpt lat="41.06626942649566" lon="14.864988490978346"><ele>367.0</ele><time>2026-04-14T10:37:42Z</time></trkpt><trkpt lat="41.06620106497404" lon="14.864898420740221"><ele>367.0</ele><time>2026-04-14T10:37:45Z</time></trkpt><trkpt lat="41.06615020400266" lon="14.864848669044006"><ele>367.5</ele><time>2026-04-14T10:37:47Z</time></trkpt><trkpt lat="41.06609978689252" lon="14.864795689697877"><ele>368.0</ele><time>2026-04-14T10:37:49Z</time></trkpt><trkpt lat="41.066022208540375" lon="14.864728998822372"><ele>368.5</ele><time>2026-04-14T10:37:52Z</time></trkpt><trkpt lat="41.06596692630487" lon="14.864682795689637"><ele>369.0</ele><time>2026-04-14T10:37:54Z</time></trkpt><trkpt lat="41.06590110723945" lon="14.864638187682162"><ele>369.5</ele><time>2026-04-14T10:37:56Z</time></trkpt><trkpt lat="41.06582316712275" lon="14.864589059019977"><ele>370.0</ele><time>2026-04-14T10:37:59Z</time></trkpt><trkpt lat="41.065761491274344" lon="14.864552580540993"><ele>370.16666666666663</ele><time>2026-04-14T10:38:01Z</time></trkpt><trkpt lat="41.065699871169244" lon="14.864512058808051"><ele>370.3333333333333</ele><time>2026-04-14T10:38:03Z</time></trkpt><trkpt lat="41.06563141916467" lon="14.864471850478358"><ele>370.5</ele><time>2026-04-14T10:38:05Z</time></trkpt><trkpt lat="41.06555648479999" lon="14.864407809814802"><ele>370.6666666666667</ele><time>2026-04-14T10:38:08Z</time></trkpt><trkpt lat="41.065476437078445" lon="14.864339466689628"><ele>370.83333333333337</ele><time>2026-04-14T10:38:11Z</time></trkpt><trkpt lat="41.065417926225834" lon="14.864303915967048"><ele>371.0</ele><time>2026-04-14T10:38:13Z</time></trkpt><trkpt lat="41.065359582067394" lon="14.864242593401132"><ele>371.1666666666667</ele><time>2026-04-14T10:38:15Z</time></trkpt><trkpt lat="41.06530855898219" lon="14.864187035974032"><ele>371.33333333333337</ele><time>2026-04-14T10:38:17Z</time></trkpt><trkpt lat="41.06524559557059" lon="14.864142785216588"><ele>371.5</ele><time>2026-04-14T10:38:19Z</time></trkpt><trkpt lat="41.065173962546815" lon="14.864059554939175"><ele>371.6666666666667</ele><time>2026-04-14T10:38:22Z</time></trkpt><trkpt lat="41.06512828961463" lon="14.863997518732564"><ele>371.8333333333333</ele><time>2026-04-14T10:38:24Z</time></trkpt><trkpt lat="41.06508219779513" lon="14.863935212109988"><ele>372.0</ele><time>2026-04-14T10:38:26Z</time></trkpt><trkpt lat="41.065028248366595" lon="14.863833187232096"><ele>372.0</ele><time>2026-04-14T10:38:29Z</time></trkpt><trkpt lat="41.06498207536376" lon="14.863764057499777"><ele>372.0</ele><time>2026-04-14T10:38:31Z</time></trkpt><trkpt lat="41.0649411782793" lon="14.863673738510721"><ele>372.0</ele><time>2026-04-14T10:38:33.999Z</time></trkpt><trkpt lat="41.064908834516245" lon="14.863565131162902"><ele>372.0</ele><time>2026-04-14T10:38:36.999Z</time></trkpt><trkpt lat="41.06487189477125" lon="14.86347504034112"><ele>372.0</ele><time>2026-04-14T10:38:40.999Z</time></trkpt><trkpt lat="41.06484867234559" lon="14.86336162760385"><ele>372.0</ele><time>2026-04-14T10:38:43.999Z</time></trkpt><trkpt lat="41.06482562788818" lon="14.863265903377416"><ele>372.5</ele><time>2026-04-14T10:38:45.999Z</time></trkpt><trkpt lat="41.064798654822795" lon="14.863147650469916"><ele>373.0</ele><time>2026-04-14T10:38:48.999Z</time></trkpt><trkpt lat="41.06478450397774" lon="14.863051426467871"><ele>373.5</ele><time>2026-04-14T10:38:50.999Z</time></trkpt><trkpt lat="41.06476410811646" lon="14.862956978958609"><ele>374.0</ele><time>2026-04-14T10:38:52.999Z</time></trkpt><trkpt lat="41.064756308184066" lon="14.862866679209224"><ele>374.5</ele><time>2026-04-14T10:38:55Z</time></trkpt><trkpt lat="41.064740499328586" lon="14.862778602797047"><ele>375.0</ele><time>2026-04-14T10:38:57Z</time></trkpt><trkpt lat="41.06473045336889" lon="14.862684537662814"><ele>375.5714285714286</ele><time>2026-04-14T10:38:59Z</time></trkpt><trkpt lat="41.064738329285134" lon="14.862599244290047"><ele>376.1428571428571</ele><time>2026-04-14T10:39:01Z</time></trkpt><trkpt lat="41.064745893739534" lon="14.862494106937163"><ele>376.7142857142857</ele><time>2026-04-14T10:39:03Z</time></trkpt><trkpt lat="41.06473305204413" lon="14.862394220856293"><ele>377.28571428571433</ele><time>2026-04-14T10:39:05Z</time></trkpt><trkpt lat="41.06473469598428" lon="14.862288094383818"><ele>377.8571428571429</ele><time>2026-04-14T10:39:07Z</time></trkpt><trkpt lat="41.06472402042446" lon="14.862201837394663"><ele>378.42857142857144</ele><time>2026-04-14T10:39:09Z</time></trkpt><trkpt lat="41.06470645550803" lon="14.862099375541694"><ele>379.0</ele><time>2026-04-14T10:39:11Z</time></trkpt><trkpt lat="41.0646887700171" lon="14.862000316567476"><ele>379.0</ele><time>2026-04-14T10:39:13Z</time></trkpt><trkpt lat="41.06466855626206" lon="14.861903561323007"><ele>379.0</ele><time>2026-04-14T10:39:15Z</time></trkpt><trkpt lat="41.06463623671339" lon="14.86177948449061"><ele>379.0</ele><time>2026-04-14T10:39:18Z</time></trkpt><trkpt lat="41.06460606701442" lon="14.86169859974389"><ele>379.0</ele><time>2026-04-14T10:39:20Z</time></trkpt><trkpt lat="41.0645792889155" lon="14.861608088391423"><ele>379.0</ele><time>2026-04-14T10:39:22Z</time></trkpt><trkpt lat="41.06454482031282" lon="14.861517147018628"><ele>379.0</ele><time>2026-04-14T10:39:24Z</time></trkpt><trkpt lat="41.064514095218236" lon="14.861437427719585"><ele>379.16666666666663</ele><time>2026-04-14T10:39:26Z</time></trkpt><trkpt lat="41.064479393721754" lon="14.861356807137657"><ele>379.3333333333333</ele><time>2026-04-14T10:39:28Z</time></trkpt><trkpt lat="41.06442840960175" lon="14.861258543727475"><ele>379.5</ele><time>2026-04-14T10:39:31Z</time></trkpt><trkpt lat="41.064376656528474" lon="14.861160001915172"><ele>379.6666666666667</ele><time>2026-04-14T10:39:34Z</time></trkpt><trkpt lat="41.06434415805369" lon="14.861081644303162"><ele>379.83333333333337</ele><time>2026-04-14T10:39:36Z</time></trkpt><trkpt lat="41.064294287837356" lon="14.860977483255848"><ele>380.0</ele><time>2026-04-14T10:39:39Z</time></trkpt><trkpt lat="41.064264006319505" lon="14.860877709117515"><ele>380.0</ele><time>2026-04-14T10:39:42Z</time></trkpt><trkpt lat="41.06425431926725" lon="14.860756902538624"><ele>380.0</ele><time>2026-04-14T10:39:45Z</time></trkpt><trkpt lat="41.064236353010806" lon="14.860654445733402"><ele>380.0</ele><time>2026-04-14T10:39:47Z</time></trkpt><trkpt lat="41.06421601819214" lon="14.860563510086397"><ele>380.0</ele><time>2026-04-14T10:39:49Z</time></trkpt><trkpt lat="41.064184141314506" lon="14.860480378974385"><ele>380.0</ele><time>2026-04-14T10:39:51Z</time></trkpt><trkpt lat="41.06413760026869" lon="14.860394068538172"><ele>380.0</ele><time>2026-04-14T10:39:53Z</time></trkpt><trkpt lat="41.06408808805308" lon="14.860317443808228"><ele>380.42857142857144</ele><time>2026-04-14T10:39:55Z</time></trkpt><trkpt lat="41.06403399243529" lon="14.86024220418215"><ele>380.8571428571429</ele><time>2026-04-14T10:39:57Z</time></trkpt><trkpt lat="41.06397436528145" lon="14.860194204256372"><ele>381.2857142857143</ele><time>2026-04-14T10:39:59Z</time></trkpt><trkpt lat="41.06391834703038" lon="14.860141727585736"><ele>381.7142857142857</ele><time>2026-04-14T10:40:01Z</time></trkpt><trkpt lat="41.06386387582888" lon="14.860083008942029"><ele>382.1428571428571</ele><time>2026-04-14T10:40:03Z</time></trkpt><trkpt lat="41.06380577376621" lon="14.86003070492063"><ele>382.57142857142856</ele><time>2026-04-14T10:40:05Z</time></trkpt><trkpt lat="41.063729970720594" lon="14.85996689251056"><ele>383.0</ele><time>2026-04-14T10:40:08Z</time></trkpt><trkpt lat="41.063664539783225" lon="14.859905499137385"><ele>383.0</ele><time>2026-04-14T10:40:10Z</time></trkpt><trkpt lat="41.063610006604" lon="14.859852663130933"><ele>383.0</ele><time>2026-04-14T10:40:12Z</time></trkpt><trkpt lat="41.063553438210015" lon="14.859801621476144"><ele>383.0</ele><time>2026-04-14T10:40:14Z</time></trkpt><trkpt lat="41.06346980512232" lon="14.859738380190757"><ele>383.0</ele><time>2026-04-14T10:40:17Z</time></trkpt><trkpt lat="41.063414275564305" lon="14.859697095630214"><ele>383.0</ele><time>2026-04-14T10:40:19Z</time></trkpt><trkpt lat="41.06335032245552" lon="14.85965407448535"><ele>383.0</ele><time>2026-04-14T10:40:21Z</time></trkpt><trkpt lat="41.06328885135301" lon="14.859611880739712"><ele>383.0</ele><time>2026-04-14T10:40:23Z</time></trkpt><trkpt lat="41.06322852671957" lon="14.859559079849747"><ele>383.0</ele><time>2026-04-14T10:40:25Z</time></trkpt><trkpt lat="41.063174894862165" lon="14.859515261751401"><ele>383.0</ele><time>2026-04-14T10:40:27Z</time></trkpt><trkpt lat="41.06311516714635" lon="14.859477080763476"><ele>383.0</ele><time>2026-04-14T10:40:29Z</time></trkpt><trkpt lat="41.06305645381954" lon="14.859421106706378"><ele>383.0</ele><time>2026-04-14T10:40:31Z</time></trkpt><trkpt lat="41.06298511790379" lon="14.859374058848083"><ele>383.0</ele><time>2026-04-14T10:40:33Z</time></trkpt><trkpt lat="41.06291673460831" lon="14.859282341387168"><ele>383.0</ele><time>2026-04-14T10:40:36Z</time></trkpt><trkpt lat="41.06285606212309" lon="14.859184058521693"><ele>383.2857142857143</ele><time>2026-04-14T10:40:38.999Z</time></trkpt><trkpt lat="41.06282678370748" lon="14.85910145402917"><ele>383.57142857142856</ele><time>2026-04-14T10:40:40.999Z</time></trkpt><trkpt lat="41.06279512860957" lon="14.859019274671137"><ele>383.8571428571429</ele><time>2026-04-14T10:40:42.999Z</time></trkpt><trkpt lat="41.062778744543586" lon="14.858929251570235"><ele>384.1428571428571</ele><time>2026-04-14T10:40:44.999Z</time></trkpt><trkpt lat="41.06275172214477" lon="14.858835526285477"><ele>384.42857142857144</ele><time>2026-04-14T10:40:47.999Z</time></trkpt><trkpt lat="41.06274481469325" lon="14.858748849996203"><ele>384.7142857142857</ele><time>2026-04-14T10:40:49.999Z</time></trkpt><trkpt lat="41.06272290475476" lon="14.8586499910551"><ele>385.0</ele><time>2026-04-14T10:40:52.999Z</time></trkpt><trkpt lat="41.06270731829023" lon="14.858530406564421"><ele>385.2857142857143</ele><time>2026-04-14T10:40:55.999Z</time></trkpt><trkpt lat="41.0626855084702" lon="14.858441420046008"><ele>385.57142857142856</ele><time>2026-04-14T10:40:57.999Z</time></trkpt><trkpt lat="41.062676530379036" lon="14.858344034635625"><ele>385.8571428571429</ele><time>2026-04-14T10:41:00Z</time></trkpt><trkpt lat="41.062665339292025" lon="14.858256685360757"><ele>386.1428571428571</ele><time>2026-04-14T10:41:02Z</time></trkpt><trkpt lat="41.06264736816801" lon="14.858153635277173"><ele>386.42857142857144</ele><time>2026-04-14T10:41:05Z</time></trkpt><trkpt lat="41.062645177466486" lon="14.858058426729958"><ele>386.7142857142857</ele><time>2026-04-14T10:41:08Z</time></trkpt><trkpt lat="41.06265357447797" lon="14.857971790713762"><ele>387.0</ele><time>2026-04-14T10:41:10Z</time></trkpt><trkpt lat="41.06264253626872" lon="14.857837585957817"><ele>387.0</ele><time>2026-04-14T10:41:13Z</time></trkpt><trkpt lat="41.06263970083417" lon="14.857748638813597"><ele>387.0</ele><time>2026-04-14T10:41:15Z</time></trkpt><trkpt lat="41.062630885972816" lon="14.857627317677135"><ele>387.0</ele><time>2026-04-14T10:41:18Z</time></trkpt><trkpt lat="41.06261824433491" lon="14.857542454473784"><ele>387.0</ele><time>2026-04-14T10:41:20Z</time></trkpt><trkpt lat="41.062598488234514" lon="14.857448452559964"><ele>387.0</ele><time>2026-04-14T10:41:23Z</time></trkpt><trkpt lat="41.062584212898024" lon="14.857350367159924"><ele>387.0</ele><time>2026-04-14T10:41:26Z</time></trkpt><trkpt lat="41.06256520850016" lon="14.857265357649204"><ele>387.0</ele><time>2026-04-14T10:41:28Z</time></trkpt><trkpt lat="41.06253698606802" lon="14.857164975130473"><ele>387.3333333333333</ele><time>2026-04-14T10:41:31Z</time></trkpt><trkpt lat="41.06251792686931" lon="14.857070260065273"><ele>387.66666666666663</ele><time>2026-04-14T10:41:33Z</time></trkpt><trkpt lat="41.06248918304264" lon="14.85696448942246"><ele>388.0</ele><time>2026-04-14T10:41:36Z</time></trkpt><trkpt lat="41.06246390369575" lon="14.856856606959358"><ele>388.3333333333333</ele><time>2026-04-14T10:41:39Z</time></trkpt><trkpt lat="41.06244376948009" lon="14.85677637297003"><ele>388.66666666666663</ele><time>2026-04-14T10:41:41Z</time></trkpt><trkpt lat="41.06240737748069" lon="14.856670140087335"><ele>389.0</ele><time>2026-04-14T10:41:44Z</time></trkpt><trkpt lat="41.0624007066371" lon="14.856583033240373"><ele>389.3333333333333</ele><time>2026-04-14T10:41:46Z</time></trkpt><trkpt lat="41.06236907805358" lon="14.85648452593954"><ele>389.66666666666663</ele><time>2026-04-14T10:41:49Z</time></trkpt><trkpt lat="41.06234544017222" lon="14.856383385596239"><ele>390.0</ele><time>2026-04-14T10:41:51Z</time></trkpt><trkpt lat="41.06230443160085" lon="14.856294295374028"><ele>390.33333333333337</ele><time>2026-04-14T10:41:54Z</time></trkpt><trkpt lat="41.06229012136937" lon="14.856201994224167"><ele>390.6666666666667</ele><time>2026-04-14T10:41:56Z</time></trkpt><trkpt lat="41.062281867877516" lon="14.856111556300338"><ele>391.0</ele><time>2026-04-14T10:41:58Z</time></trkpt><trkpt lat="41.0622737775518" lon="14.855990364057984"><ele>391.6666666666667</ele><time>2026-04-14T10:42:01Z</time></trkpt><trkpt lat="41.06224965071775" lon="14.855906791028048"><ele>392.33333333333337</ele><time>2026-04-14T10:42:03Z</time></trkpt><trkpt lat="41.06223020146619" lon="14.855799388955623"><ele>393.0</ele><time>2026-04-14T10:42:06Z</time></trkpt><trkpt lat="41.062213461930725" lon="14.855682523669111"><ele>393.66666666666663</ele><time>2026-04-14T10:42:09Z</time></trkpt><trkpt lat="41.062167143909804" lon="14.855615831188745"><ele>394.3333333333333</ele><time>2026-04-14T10:42:11Z</time></trkpt><trkpt lat="41.06219322319435" lon="14.855522063543845"><ele>395.0</ele><time>2026-04-14T10:42:13Z</time></trkpt><trkpt lat="41.062157269124405" lon="14.85541673017606"><ele>394.99999999999994</ele><time>2026-04-14T10:42:16Z</time></trkpt><trkpt lat="41.06212121851775" lon="14.855327565253134"><ele>395.0</ele><time>2026-04-14T10:42:19Z</time></trkpt><trkpt lat="41.06208424828519" lon="14.855241342258017"><ele>395.0</ele><time>2026-04-14T10:42:21Z</time></trkpt><trkpt lat="41.06204219359238" lon="14.85516591957104"><ele>395.0</ele><time>2026-04-14T10:42:24Z</time></trkpt><trkpt lat="41.06201091755293" lon="14.855049858511956"><ele>394.99999999999994</ele><time>2026-04-14T10:42:27Z</time></trkpt><trkpt lat="41.06197577870105" lon="14.854953877206924"><ele>395.0</ele><time>2026-04-14T10:42:30Z</time></trkpt><trkpt lat="41.06194364221637" lon="14.854849847296649"><ele>395.4285714285714</ele><time>2026-04-14T10:42:33Z</time></trkpt><trkpt lat="41.06191247251516" lon="14.854763001053609"><ele>395.8571428571429</ele><time>2026-04-14T10:42:36Z</time></trkpt><trkpt lat="41.061880319755666" lon="14.854667186692302"><ele>396.2857142857143</ele><time>2026-04-14T10:42:39Z</time></trkpt><trkpt lat="41.06186045164704" lon="14.854545589360958"><ele>396.71428571428567</ele><time>2026-04-14T10:42:41.999Z</time></trkpt><trkpt lat="41.061830280551554" lon="14.854469965808635"><ele>397.1428571428571</ele><time>2026-04-14T10:42:44.999Z</time></trkpt><trkpt lat="41.0618387737609" lon="14.8543793373505"><ele>397.57142857142856</ele><time>2026-04-14T10:42:46.999Z</time></trkpt><trkpt lat="41.06184171523658" lon="14.85429249636421"><ele>398.0</ele><time>2026-04-14T10:42:48.999Z</time></trkpt><trkpt lat="41.061830523973036" lon="14.854176706337396"><ele>398.4285714285714</ele><time>2026-04-14T10:42:51.999Z</time></trkpt><trkpt lat="41.061809426860265" lon="14.85409235421612"><ele>398.85714285714283</ele><time>2026-04-14T10:42:53.999Z</time></trkpt><trkpt lat="41.06177661568465" lon="14.85399076500241"><ele>399.2857142857143</ele><time>2026-04-14T10:42:56.999Z</time></trkpt><trkpt lat="41.06176085663943" lon="14.853908378961952"><ele>399.71428571428567</ele><time>2026-04-14T10:42:58.999Z</time></trkpt><trkpt lat="41.0617416401508" lon="14.853824366152006"><ele>400.14285714285717</ele><time>2026-04-14T10:43:00.999Z</time></trkpt><trkpt lat="41.06171169985526" lon="14.853714586517135"><ele>400.57142857142856</ele><time>2026-04-14T10:43:03.999Z</time></trkpt><trkpt lat="41.06168654939922" lon="14.853632523749846"><ele>401.0</ele><time>2026-04-14T10:43:06Z</time></trkpt><trkpt lat="41.06166106273112" lon="14.853553940102724"><ele>401.14285714285717</ele><time>2026-04-14T10:43:08Z</time></trkpt><trkpt lat="41.061615108354864" lon="14.853451237804345"><ele>401.28571428571433</ele><time>2026-04-14T10:43:11Z</time></trkpt><trkpt lat="41.061586458011924" lon="14.853358971406369"><ele>401.42857142857144</ele><time>2026-04-14T10:43:14Z</time></trkpt><trkpt lat="41.061565878524476" lon="14.853272519720454"><ele>401.57142857142856</ele><time>2026-04-14T10:43:16Z</time></trkpt><trkpt lat="41.06154410919684" lon="14.853187197617537"><ele>401.7142857142857</ele><time>2026-04-14T10:43:18Z</time></trkpt><trkpt lat="41.06151674341402" lon="14.853096259757955"><ele>401.85714285714283</ele><time>2026-04-14T10:43:20Z</time></trkpt><trkpt lat="41.061499047095374" lon="14.853005387356744"><ele>402.0</ele><time>2026-04-14T10:43:22Z</time></trkpt><trkpt lat="41.06146987542904" lon="14.852889310711282"><ele>402.0</ele><time>2026-04-14T10:43:25Z</time></trkpt><trkpt lat="41.061449944567926" lon="14.852769061060625"><ele>402.0</ele><time>2026-04-14T10:43:28Z</time></trkpt><trkpt lat="41.06143168937621" lon="14.852667240651995"><ele>402.0</ele><time>2026-04-14T10:43:31Z</time></trkpt><trkpt lat="41.061399644822274" lon="14.852555284091778"><ele>402.0</ele><time>2026-04-14T10:43:34Z</time></trkpt><trkpt lat="41.06137502790243" lon="14.852442187373596"><ele>402.0</ele><time>2026-04-14T10:43:37Z</time></trkpt><trkpt lat="41.06134698381511" lon="14.852363789418392"><ele>402.0</ele><time>2026-04-14T10:43:39Z</time></trkpt><trkpt lat="41.06132415256542" lon="14.852278030002937"><ele>402.1666666666667</ele><time>2026-04-14T10:43:41Z</time></trkpt><trkpt lat="41.06129216791595" lon="14.852154758175343"><ele>402.33333333333337</ele><time>2026-04-14T10:43:44Z</time></trkpt><trkpt lat="41.0612697397614" lon="14.852033971495723"><ele>402.5</ele><time>2026-04-14T10:43:47Z</time></trkpt><trkpt lat="41.06124794170162" lon="14.851918696816542"><ele>402.6666666666667</ele><time>2026-04-14T10:43:50Z</time></trkpt><trkpt lat="41.061220214433234" lon="14.851797938495222"><ele>402.83333333333337</ele><time>2026-04-14T10:43:53Z</time></trkpt><trkpt lat="41.0612007464816" lon="14.851711933484811"><ele>403.0</ele><time>2026-04-14T10:43:55Z</time></trkpt><trkpt lat="41.0611816856952" lon="14.851585121417013"><ele>403.00000000000006</ele><time>2026-04-14T10:43:58Z</time></trkpt><trkpt lat="41.061165361333124" lon="14.851466291874809"><ele>403.0</ele><time>2026-04-14T10:44:01Z</time></trkpt><trkpt lat="41.061122193700136" lon="14.851372069931244"><ele>403.0</ele><time>2026-04-14T10:44:04Z</time></trkpt><trkpt lat="41.06109676968887" lon="14.85126779924416"><ele>403.0</ele><time>2026-04-14T10:44:07Z</time></trkpt><trkpt lat="41.06107747792179" lon="14.851177526169446"><ele>403.00000000000006</ele><time>2026-04-14T10:44:09Z</time></trkpt><trkpt lat="41.06101066769535" lon="14.851064167696238"><ele>403.0</ele><time>2026-04-14T10:44:12Z</time></trkpt><trkpt lat="41.06099970769261" lon="14.85094441870432"><ele>403.50000000000006</ele><time>2026-04-14T10:44:16Z</time></trkpt><trkpt lat="41.060960684241245" lon="14.850854309189254"><ele>404.0</ele><time>2026-04-14T10:44:18Z</time></trkpt><trkpt lat="41.060944465335176" lon="14.850748902607858"><ele>404.5</ele><time>2026-04-14T10:44:20Z</time></trkpt><trkpt lat="41.060928972161555" lon="14.85063624574294"><ele>405.0</ele><time>2026-04-14T10:44:23Z</time></trkpt><trkpt lat="41.06089615622036" lon="14.850514211408539"><ele>405.50000000000006</ele><time>2026-04-14T10:44:26Z</time></trkpt><trkpt lat="41.06084577856816" lon="14.850426703342182"><ele>406.0</ele><time>2026-04-14T10:44:29Z</time></trkpt><trkpt lat="41.060782019160364" lon="14.850411196841424"><ele>406.33333333333337</ele><time>2026-04-14T10:44:32Z</time></trkpt><trkpt lat="41.0607087791776" lon="14.850456711935974"><ele>406.6666666666667</ele><time>2026-04-14T10:44:37Z</time></trkpt><trkpt lat="41.06062469045137" lon="14.850490722911797"><ele>407.0</ele><time>2026-04-14T10:44:40Z</time></trkpt><trkpt lat="41.06053980150238" lon="14.850529680227025"><ele>407.33333333333337</ele><time>2026-04-14T10:44:43Z</time></trkpt><trkpt lat="41.06047033096304" lon="14.850560295760053"><ele>407.6666666666667</ele><time>2026-04-14T10:44:46Z</time></trkpt><trkpt lat="41.060393907860636" lon="14.850598224647987"><ele>408.0</ele><time>2026-04-14T10:44:49Z</time></trkpt><trkpt lat="41.060315326347485" lon="14.85063506768036"><ele>408.0</ele><time>2026-04-14T10:44:51.999Z</time></trkpt><trkpt lat="41.06022881024296" lon="14.85067389403326"><ele>408.0</ele><time>2026-04-14T10:44:54.999Z</time></trkpt><trkpt lat="41.06014147431934" lon="14.850712381096672"><ele>408.0</ele><time>2026-04-14T10:44:57.999Z</time></trkpt><trkpt lat="41.06007738930752" lon="14.850733129598257"><ele>408.0</ele><time>2026-04-14T10:44:59.999Z</time></trkpt><trkpt lat="41.06001555442197" lon="14.850759527286439"><ele>408.0</ele><time>2026-04-14T10:45:01.999Z</time></trkpt><trkpt lat="41.059937036329366" lon="14.850805130031633"><ele>408.0</ele><time>2026-04-14T10:45:04.999Z</time></trkpt><trkpt lat="41.05987726729138" lon="14.850832108725381"><ele>408.0</ele><time>2026-04-14T10:45:06.999Z</time></trkpt><trkpt lat="41.05979430207341" lon="14.850867832849389"><ele>408.0</ele><time>2026-04-14T10:45:09.999Z</time></trkpt><trkpt lat="41.05971000854583" lon="14.850911843231327"><ele>408.0</ele><time>2026-04-14T10:45:13Z</time></trkpt><trkpt lat="41.05962451136036" lon="14.85094271135082"><ele>408.0</ele><time>2026-04-14T10:45:16Z</time></trkpt><trkpt lat="41.059560461913456" lon="14.850976337301363"><ele>408.0</ele><time>2026-04-14T10:45:18Z</time></trkpt><trkpt lat="41.05948345047046" lon="14.851008946947594"><ele>408.0</ele><time>2026-04-14T10:45:20Z</time></trkpt><trkpt lat="41.05937990710361" lon="14.85105152182666"><ele>407.2</ele><time>2026-04-14T10:45:22Z</time></trkpt><trkpt lat="41.05927161853805" lon="14.85110944289265"><ele>406.4</ele><time>2026-04-14T10:45:24Z</time></trkpt><trkpt lat="41.0591517653492" lon="14.851176681804462"><ele>405.59999999999997</ele><time>2026-04-14T10:45:26Z</time></trkpt><trkpt lat="41.059083654172156" lon="14.851221424541327"><ele>404.79999999999995</ele><time>2026-04-14T10:45:27Z</time></trkpt><trkpt lat="41.05901519026022" lon="14.85125930574881"><ele>404.0</ele><time>2026-04-14T10:45:28Z</time></trkpt><trkpt lat="41.058954246415574" lon="14.851296802231449"><ele>401.99999999999994</ele><time>2026-04-14T10:45:29Z</time></trkpt><trkpt lat="41.058871191510825" lon="14.851405581706738"><ele>400.0</ele><time>2026-04-14T10:45:31Z</time></trkpt><trkpt lat="41.05886551456276" lon="14.851513307729443"><ele>398.0</ele><time>2026-04-14T10:45:33Z</time></trkpt><trkpt lat="41.05890420982725" lon="14.851612973398664"><ele>396.0</ele><time>2026-04-14T10:45:35Z</time></trkpt><trkpt lat="41.05894809965398" lon="14.851710755054"><ele>393.99999999999994</ele><time>2026-04-14T10:45:37Z</time></trkpt><trkpt lat="41.05899470768107" lon="14.85178174376984"><ele>392.0</ele><time>2026-04-14T10:45:39Z</time></trkpt><trkpt lat="41.059047716408436" lon="14.85185461335141"><ele>391.8333333333333</ele><time>2026-04-14T10:45:41Z</time></trkpt><trkpt lat="41.05910063212208" lon="14.851916432820124"><ele>391.66666666666663</ele><time>2026-04-14T10:45:43Z</time></trkpt><trkpt lat="41.059159426613284" lon="14.851991060837806"><ele>391.5</ele><time>2026-04-14T10:45:45Z</time></trkpt><trkpt lat="41.05923042570704" lon="14.852065034181235"><ele>391.33333333333337</ele><time>2026-04-14T10:45:47Z</time></trkpt><trkpt lat="41.059285102607554" lon="14.852131606257762"><ele>391.1666666666667</ele><time>2026-04-14T10:45:49Z</time></trkpt><trkpt lat="41.05935177156899" lon="14.85219830607465"><ele>391.0</ele><time>2026-04-14T10:45:51Z</time></trkpt><trkpt lat="41.05941711853702" lon="14.852252184224719"><ele>391.00000000000006</ele><time>2026-04-14T10:45:53Z</time></trkpt><trkpt lat="41.05948331487421" lon="14.852309691084976"><ele>391.0</ele><time>2026-04-14T10:45:55Z</time></trkpt><trkpt lat="41.059552783353936" lon="14.85235320386484"><ele>391.0</ele><time>2026-04-14T10:45:57Z</time></trkpt><trkpt lat="41.05962362500846" lon="14.85239752910565"><ele>391.0</ele><time>2026-04-14T10:45:59Z</time></trkpt><trkpt lat="41.05970122071478" lon="14.852431137139233"><ele>391.00000000000006</ele><time>2026-04-14T10:46:01Z</time></trkpt><trkpt lat="41.059778940225975" lon="14.852460138275495"><ele>391.0</ele><time>2026-04-14T10:46:03Z</time></trkpt><trkpt lat="41.05985026844475" lon="14.852486891739137"><ele>391.00000000000006</ele><time>2026-04-14T10:46:05Z</time></trkpt><trkpt lat="41.059929499194865" lon="14.852491461817438"><ele>391.0</ele><time>2026-04-14T10:46:07Z</time></trkpt><trkpt lat="41.06001158400692" lon="14.852491429015965"><ele>391.0</ele><time>2026-04-14T10:46:09Z</time></trkpt><trkpt lat="41.06009244595414" lon="14.85248728324038"><ele>391.0</ele><time>2026-04-14T10:46:11Z</time></trkpt><trkpt lat="41.06019495482311" lon="14.85248572562221"><ele>391.00000000000006</ele><time>2026-04-14T10:46:14Z</time></trkpt><trkpt lat="41.060283316459646" lon="14.852474621675483"><ele>391.0</ele><time>2026-04-14T10:46:16Z</time></trkpt><trkpt lat="41.060390401270446" lon="14.852478737375339"><ele>392.25</ele><time>2026-04-14T10:46:20Z</time></trkpt><trkpt lat="41.060483488677804" lon="14.852579459189506"><ele>393.5</ele><time>2026-04-14T10:46:22Z</time></trkpt><trkpt lat="41.060634203632" lon="14.852703230537397"><ele>394.75</ele><time>2026-04-14T10:46:25Z</time></trkpt><trkpt lat="41.06071917919994" lon="14.852728150276047"><ele>396.0</ele><time>2026-04-14T10:46:27Z</time></trkpt><trkpt lat="41.06080213137146" lon="14.852768188812576"><ele>397.0</ele><time>2026-04-14T10:46:29Z</time></trkpt><trkpt lat="41.06088418518765" lon="14.85280952336065"><ele>398.0</ele><time>2026-04-14T10:46:31Z</time></trkpt><trkpt lat="41.06097066248735" lon="14.852845176276345"><ele>399.0</ele><time>2026-04-14T10:46:33Z</time></trkpt><trkpt lat="41.0610274681824" lon="14.852892869458703"><ele>400.0</ele><time>2026-04-14T10:46:35Z</time></trkpt><trkpt lat="41.0610881951926" lon="14.852948136014893"><ele>401.0</ele><time>2026-04-14T10:46:37Z</time></trkpt><trkpt lat="41.061146392538824" lon="14.853037447684006"><ele>402.0</ele><time>2026-04-14T10:46:39Z</time></trkpt><trkpt lat="41.06122786723914" lon="14.853043431124352"><ele>402.0</ele><time>2026-04-14T10:46:41Z</time></trkpt><trkpt lat="41.0612922683112" lon="14.853071531344424"><ele>402.0</ele><time>2026-04-14T10:46:43Z</time></trkpt><trkpt lat="41.06144867385198" lon="14.85310928647031"><ele>402.0</ele><time>2026-04-14T10:46:46.999Z</time></trkpt><trkpt lat="41.061521284450436" lon="14.85317513244929"><ele>402.0</ele><time>2026-04-14T10:46:49.999Z</time></trkpt><trkpt lat="41.061582462520825" lon="14.853269947908064"><ele>402.0</ele><time>2026-04-14T10:46:51.999Z</time></trkpt><trkpt lat="41.06162750819558" lon="14.853422573823735"><ele>401.8333333333333</ele><time>2026-04-14T10:46:53.999Z</time></trkpt><trkpt lat="41.06165844875583" lon="14.85354350922391"><ele>401.66666666666663</ele><time>2026-04-14T10:46:55.999Z</time></trkpt><trkpt lat="41.06167967343973" lon="14.85366070861778"><ele>401.5</ele><time>2026-04-14T10:46:57.999Z</time></trkpt><trkpt lat="41.061705154399164" lon="14.853785315926478"><ele>401.3333333333333</ele><time>2026-04-14T10:46:59.999Z</time></trkpt><trkpt lat="41.06173708516772" lon="14.853896055590772"><ele>401.16666666666663</ele><time>2026-04-14T10:47:01.999Z</time></trkpt><trkpt lat="41.06178339273579" lon="14.853962079243503"><ele>401.0</ele><time>2026-04-14T10:47:03.999Z</time></trkpt><trkpt lat="41.06184270577968" lon="14.853997795273546"><ele>400.99999999999994</ele><time>2026-04-14T10:47:05.999Z</time></trkpt><trkpt lat="41.061911635244286" lon="14.853994442541484"><ele>401.0</ele><time>2026-04-14T10:47:07.999Z</time></trkpt><trkpt lat="41.06199076563436" lon="14.853967090007615"><ele>401.0</ele><time>2026-04-14T10:47:09.999Z</time></trkpt><trkpt lat="41.062073006235686" lon="14.853933289949858"><ele>401.0</ele><time>2026-04-14T10:47:12.999Z</time></trkpt><trkpt lat="41.06213983549746" lon="14.853902642871102"><ele>400.99999999999994</ele><time>2026-04-14T10:47:15.999Z</time></trkpt><trkpt lat="41.062212592223" lon="14.853858775227279"><ele>401.0</ele><time>2026-04-14T10:47:19Z</time></trkpt><trkpt lat="41.062295263433974" lon="14.853793178490937"><ele>400.99999999999994</ele><time>2026-04-14T10:47:22Z</time></trkpt><trkpt lat="41.06236233439693" lon="14.853753258986211"><ele>401.0</ele><time>2026-04-14T10:47:24Z</time></trkpt><trkpt lat="41.06242872040976" lon="14.853700742545394"><ele>401.0</ele><time>2026-04-14T10:47:26Z</time></trkpt><trkpt lat="41.062512229404405" lon="14.853645016239874"><ele>401.0</ele><time>2026-04-14T10:47:28Z</time></trkpt><trkpt lat="41.06257222853542" lon="14.853611257579958"><ele>400.99999999999994</ele><time>2026-04-14T10:47:29Z</time></trkpt><trkpt lat="41.06266290407894" lon="14.85354825262733"><ele>401.0</ele><time>2026-04-14T10:47:31Z</time></trkpt><trkpt lat="41.06276411940986" lon="14.853464351267771"><ele>400.0</ele><time>2026-04-14T10:47:33Z</time></trkpt><trkpt lat="41.06285964601883" lon="14.853391314232779"><ele>399.0</ele><time>2026-04-14T10:47:35Z</time></trkpt><trkpt lat="41.06292102354803" lon="14.853341538889477"><ele>398.0</ele><time>2026-04-14T10:47:36Z</time></trkpt><trkpt lat="41.062995577389174" lon="14.853298376138909"><ele>397.0</ele><time>2026-04-14T10:47:37Z</time></trkpt><trkpt lat="41.06310221127258" lon="14.853221795420998"><ele>396.0</ele><time>2026-04-14T10:47:39Z</time></trkpt><trkpt lat="41.063165442897244" lon="14.853193241742535"><ele>396.0</ele><time>2026-04-14T10:47:40Z</time></trkpt><trkpt lat="41.063235886183975" lon="14.853161427604338"><ele>396.0</ele><time>2026-04-14T10:47:41Z</time></trkpt><trkpt lat="41.063301882189286" lon="14.853122416319176"><ele>396.0</ele><time>2026-04-14T10:47:42Z</time></trkpt><trkpt lat="41.063369201230245" lon="14.853090476242079"><ele>396.0</ele><time>2026-04-14T10:47:43Z</time></trkpt><trkpt lat="41.06344284737929" lon="14.853058961700809"><ele>396.0</ele><time>2026-04-14T10:47:44Z</time></trkpt><trkpt lat="41.06351518896273" lon="14.853026110990692"><ele>396.0</ele><time>2026-04-14T10:47:45Z</time></trkpt><trkpt lat="41.06358614533917" lon="14.852995038916195"><ele>396.0</ele><time>2026-04-14T10:47:46Z</time></trkpt><trkpt lat="41.06365118448399" lon="14.852959321380796"><ele>395.5</ele><time>2026-04-14T10:47:47Z</time></trkpt><trkpt lat="41.063719161718744" lon="14.852919523288667"><ele>395.0</ele><time>2026-04-14T10:47:48Z</time></trkpt><trkpt lat="41.06379079555698" lon="14.852877753674187"><ele>394.5</ele><time>2026-04-14T10:47:49Z</time></trkpt><trkpt lat="41.0638630083768" lon="14.85284284878011"><ele>394.0</ele><time>2026-04-14T10:47:50Z</time></trkpt><trkpt lat="41.063928525155916" lon="14.852803838388814"><ele>393.5</ele><time>2026-04-14T10:47:51Z</time></trkpt><trkpt lat="41.063990554865605" lon="14.852771361975838"><ele>393.0</ele><time>2026-04-14T10:47:52Z</time></trkpt><trkpt lat="41.06408131790905" lon="14.852710595335497"><ele>393.0</ele><time>2026-04-14T10:47:54Z</time></trkpt><trkpt lat="41.0640983349416" lon="14.852509821806988"><ele>393.0</ele><time>2026-04-14T10:47:59Z</time></trkpt><trkpt lat="41.06406848742197" lon="14.852404931635387"><ele>393.0</ele><time>2026-04-14T10:48:01Z</time></trkpt><trkpt lat="41.0640361790084" lon="14.85228937599008"><ele>393.0</ele><time>2026-04-14T10:48:03Z</time></trkpt><trkpt lat="41.064001021779234" lon="14.85216916817223"><ele>393.0</ele><time>2026-04-14T10:48:05Z</time></trkpt><trkpt lat="41.06396081397845" lon="14.852045046650213"><ele>393.0</ele><time>2026-04-14T10:48:07Z</time></trkpt><trkpt lat="41.06392286385039" lon="14.851912320423345"><ele>393.0</ele><time>2026-04-14T10:48:09Z</time></trkpt><trkpt lat="41.06388932644538" lon="14.851793165266589"><ele>393.0</ele><time>2026-04-14T10:48:11Z</time></trkpt><trkpt lat="41.06384584900131" lon="14.85166456035444"><ele>393.0</ele><time>2026-04-14T10:48:13Z</time></trkpt><trkpt lat="41.06380958784248" lon="14.8515420793689"><ele>393.0</ele><time>2026-04-14T10:48:15Z</time></trkpt><trkpt lat="41.06378009304904" lon="14.851397406284768"><ele>393.14285714285717</ele><time>2026-04-14T10:48:17Z</time></trkpt><trkpt lat="41.06376036424874" lon="14.851302883579839"><ele>393.2857142857143</ele><time>2026-04-14T10:48:19Z</time></trkpt><trkpt lat="41.06373725478691" lon="14.851202438313551"><ele>393.42857142857144</ele><time>2026-04-14T10:48:21Z</time></trkpt><trkpt lat="41.063715425560964" lon="14.851102820339234"><ele>393.57142857142856</ele><time>2026-04-14T10:48:23Z</time></trkpt><trkpt lat="41.06368546872612" lon="14.851013278591461"><ele>393.7142857142857</ele><time>2026-04-14T10:48:25Z</time></trkpt><trkpt lat="41.06365896824258" lon="14.85092698620191"><ele>393.8571428571429</ele><time>2026-04-14T10:48:27Z</time></trkpt><trkpt lat="41.063633945999925" lon="14.850839501423852"><ele>394.0</ele><time>2026-04-14T10:48:29Z</time></trkpt><trkpt lat="41.06360255831489" lon="14.850738262478611"><ele>394.1666666666667</ele><time>2026-04-14T10:48:32Z</time></trkpt><trkpt lat="41.06358609905424" lon="14.850655699396258"><ele>394.33333333333337</ele><time>2026-04-14T10:48:34Z</time></trkpt><trkpt lat="41.063560527782855" lon="14.850578417290409"><ele>394.5</ele><time>2026-04-14T10:48:36Z</time></trkpt><trkpt lat="41.06352986837916" lon="14.85047943915767"><ele>394.66666666666663</ele><time>2026-04-14T10:48:39Z</time></trkpt><trkpt lat="41.0634987952456" lon="14.850363253387568"><ele>394.8333333333333</ele><time>2026-04-14T10:48:42Z</time></trkpt><trkpt lat="41.06346053119078" lon="14.850239159588904"><ele>395.0</ele><time>2026-04-14T10:48:45Z</time></trkpt><trkpt lat="41.063432702190404" lon="14.850147029974378"><ele>394.99999999999994</ele><time>2026-04-14T10:48:47Z</time></trkpt><trkpt lat="41.06340148703563" lon="14.850050268237947"><ele>395.0</ele><time>2026-04-14T10:48:49Z</time></trkpt><trkpt lat="41.063371691397535" lon="14.849942706034602"><ele>395.0</ele><time>2026-04-14T10:48:51Z</time></trkpt><trkpt lat="41.063332645236926" lon="14.84985601817124"><ele>395.0</ele><time>2026-04-14T10:48:53Z</time></trkpt><trkpt lat="41.06328004387899" lon="14.849772320455767"><ele>394.99999999999994</ele><time>2026-04-14T10:48:55Z</time></trkpt><trkpt lat="41.06323184847975" lon="14.849663733618831"><ele>395.0</ele><time>2026-04-14T10:48:57Z</time></trkpt><trkpt lat="41.06316420254003" lon="14.849599690086626"><ele>395.4</ele><time>2026-04-14T10:48:59Z</time></trkpt><trkpt lat="41.06309343810245" lon="14.84950645311606"><ele>395.8</ele><time>2026-04-14T10:49:01Z</time></trkpt><trkpt lat="41.06301218552017" lon="14.84943552444008"><ele>396.20000000000005</ele><time>2026-04-14T10:49:03Z</time></trkpt><trkpt lat="41.062921428012295" lon="14.849371515713365"><ele>396.6</ele><time>2026-04-14T10:49:05Z</time></trkpt><trkpt lat="41.06284395908843" lon="14.849307913161965"><ele>397.0</ele><time>2026-04-14T10:49:07Z</time></trkpt><trkpt lat="41.06276201410003" lon="14.849254087659675"><ele>397.0</ele><time>2026-04-14T10:49:09Z</time></trkpt><trkpt lat="41.062677322237526" lon="14.849197063257048"><ele>397.0</ele><time>2026-04-14T10:49:11Z</time></trkpt><trkpt lat="41.062600975124674" lon="14.849145925893044"><ele>397.0</ele><time>2026-04-14T10:49:13Z</time></trkpt><trkpt lat="41.06251134377949" lon="14.8490751154646"><ele>397.0</ele><time>2026-04-14T10:49:15Z</time></trkpt><trkpt lat="41.06244698531452" lon="14.848989280705196"><ele>397.0</ele><time>2026-04-14T10:49:17Z</time></trkpt><trkpt lat="41.0623892746289" lon="14.848900437014784"><ele>397.1666666666667</ele><time>2026-04-14T10:49:18.999Z</time></trkpt><trkpt lat="41.06233163493489" lon="14.84881164257017"><ele>397.33333333333337</ele><time>2026-04-14T10:49:20.999Z</time></trkpt><trkpt lat="41.062299437514675" lon="14.84871287226192"><ele>397.5</ele><time>2026-04-14T10:49:22.999Z</time></trkpt><trkpt lat="41.06235359015122" lon="14.848642760197755"><ele>397.66666666666663</ele><time>2026-04-14T10:49:24Z</time></trkpt><trkpt lat="41.062380597886325" lon="14.848523589851958"><ele>397.8333333333333</ele><time>2026-04-14T10:49:26Z</time></trkpt><trkpt lat="41.06241134269303" lon="14.848426203005555"><ele>398.0</ele><time>2026-04-14T10:49:28Z</time></trkpt><trkpt lat="41.06245033605552" lon="14.848329810145056"><ele>397.3333333333333</ele><time>2026-04-14T10:49:30Z</time></trkpt><trkpt lat="41.062519002775616" lon="14.848256294108504"><ele>396.66666666666663</ele><time>2026-04-14T10:49:33Z</time></trkpt><trkpt lat="41.06257284648965" lon="14.84817861651646"><ele>396.0</ele><time>2026-04-14T10:49:36Z</time></trkpt><trkpt lat="41.06262569054254" lon="14.848108045725287"><ele>395.33333333333337</ele><time>2026-04-14T10:49:39Z</time></trkpt><trkpt lat="41.06268428863436" lon="14.848013789957738"><ele>394.6666666666667</ele><time>2026-04-14T10:49:43Z</time></trkpt><trkpt lat="41.06273627400858" lon="14.847923112811602"><ele>394.0</ele><time>2026-04-14T10:49:47Z</time></trkpt><trkpt lat="41.06276922565718" lon="14.84784529977948"><ele>394.00000000000006</ele><time>2026-04-14T10:49:51Z</time></trkpt><trkpt lat="41.06279381593422" lon="14.847734873018606"><ele>394.0</ele><time>2026-04-14T10:49:54Z</time></trkpt><trkpt lat="41.06281380954198" lon="14.847636775871095"><ele>394.0</ele><time>2026-04-14T10:49:57Z</time></trkpt><trkpt lat="41.06282974401451" lon="14.847531745276244"><ele>394.0</ele><time>2026-04-14T10:50:00Z</time></trkpt><trkpt lat="41.06284372338331" lon="14.84744017807447"><ele>394.00000000000006</ele><time>2026-04-14T10:50:03Z</time></trkpt><trkpt lat="41.062863889625454" lon="14.847345396592898"><ele>394.0</ele><time>2026-04-14T10:50:06Z</time></trkpt><trkpt lat="41.06290574543367" lon="14.847279264222701"><ele>394.1666666666667</ele><time>2026-04-14T10:50:09Z</time></trkpt><trkpt lat="41.06295068016655" lon="14.847191970416532"><ele>394.33333333333337</ele><time>2026-04-14T10:50:13Z</time></trkpt><trkpt lat="41.06300884604049" lon="14.847118257897753"><ele>394.5</ele><time>2026-04-14T10:50:17Z</time></trkpt><trkpt lat="41.06307548283455" lon="14.847073852633645"><ele>394.66666666666663</ele><time>2026-04-14T10:50:21Z</time></trkpt><trkpt lat="41.06314830130697" lon="14.847054006254723"><ele>394.8333333333333</ele><time>2026-04-14T10:50:25Z</time></trkpt><trkpt lat="41.06322105925319" lon="14.84705867856423"><ele>395.0</ele><time>2026-04-14T10:50:29Z</time></trkpt><trkpt lat="41.06331935683468" lon="14.847081477376985"><ele>394.99999999999994</ele><time>2026-04-14T10:50:34Z</time></trkpt><trkpt lat="41.06340478329149" lon="14.847111766497397"><ele>395.0</ele><time>2026-04-14T10:50:38Z</time></trkpt><trkpt lat="41.06348949276764" lon="14.847120441343723"><ele>395.0</ele><time>2026-04-14T10:50:41Z</time></trkpt><trkpt lat="41.06356016114261" lon="14.847111069511469"><ele>395.0</ele><time>2026-04-14T10:50:45Z</time></trkpt><trkpt lat="41.06362023031748" lon="14.84708121659521"><ele>394.99999999999994</ele><time>2026-04-14T10:50:48Z</time></trkpt><trkpt lat="41.0636965806554" lon="14.84706351644239"><ele>395.0</ele><time>2026-04-14T10:50:52Z</time></trkpt><trkpt lat="41.0637728716126" lon="14.8470267742613"><ele>395.0</ele><time>2026-04-14T10:50:56Z</time></trkpt><trkpt lat="41.06383878579364" lon="14.84699703914509"><ele>395.0</ele><time>2026-04-14T10:51:01Z</time></trkpt><trkpt lat="41.06390687900188" lon="14.846973760727792"><ele>395.0</ele><time>2026-04-14T10:51:04Z</time></trkpt><trkpt lat="41.063971684353746" lon="14.84694922083888"><ele>395.0</ele><time>2026-04-14T10:51:07Z</time></trkpt><trkpt lat="41.064038673460146" lon="14.846924041623682"><ele>395.0</ele><time>2026-04-14T10:51:10Z</time></trkpt><trkpt lat="41.06410372742663" lon="14.846887445336844"><ele>395.0</ele><time>2026-04-14T10:51:13Z</time></trkpt><trkpt lat="41.06416448558065" lon="14.846837257012906"><ele>395.0</ele><time>2026-04-14T10:51:16Z</time></trkpt><trkpt lat="41.064204473134176" lon="14.846749346155748"><ele>397.0</ele><time>2026-04-14T10:51:20Z</time></trkpt><trkpt lat="41.06422736565539" lon="14.846665209244861"><ele>399.0</ele><time>2026-04-14T10:51:25Z</time></trkpt><trkpt lat="41.06424513087791" lon="14.84658107204616"><ele>401.0</ele><time>2026-04-14T10:51:28Z</time></trkpt><trkpt lat="41.06425724153257" lon="14.846475487290881"><ele>403.0</ele><time>2026-04-14T10:51:32Z</time></trkpt><trkpt lat="41.06426132295385" lon="14.846389633960648"><ele>405.0</ele><time>2026-04-14T10:51:35Z</time></trkpt><trkpt lat="41.06426814267403" lon="14.846306442361472"><ele>407.0</ele><time>2026-04-14T10:51:38Z</time></trkpt><trkpt lat="41.064266952394206" lon="14.846208587257218"><ele>409.0</ele><time>2026-04-14T10:51:42Z</time></trkpt><trkpt lat="41.064278023868916" lon="14.846103526197245"><ele>409.0</ele><time>2026-04-14T10:51:44Z</time></trkpt><trkpt lat="41.06426867217795" lon="14.845998520498426"><ele>409.0</ele><time>2026-04-14T10:51:49Z</time></trkpt><trkpt lat="41.06426212952312" lon="14.845913544363668"><ele>409.0</ele><time>2026-04-14T10:51:52Z</time></trkpt><trkpt lat="41.06425686884608" lon="14.84582691806914"><ele>409.0</ele><time>2026-04-14T10:51:56Z</time></trkpt><trkpt lat="41.06424315190205" lon="14.845742147969894"><ele>409.0</ele><time>2026-04-14T10:51:59Z</time></trkpt><trkpt lat="41.06420324477713" lon="14.845659984813825"><ele>409.0</ele><time>2026-04-14T10:52:03Z</time></trkpt><trkpt lat="41.06416861202874" lon="14.845586867126439"><ele>409.0</ele><time>2026-04-14T10:52:06Z</time></trkpt><trkpt lat="41.06410042747148" lon="14.845534463697696"><ele>409.83333333333337</ele><time>2026-04-14T10:52:10Z</time></trkpt><trkpt lat="41.06402432264816" lon="14.845508759658054"><ele>410.6666666666667</ele><time>2026-04-14T10:52:14Z</time></trkpt><trkpt lat="41.06394430485616" lon="14.845490107677774"><ele>411.5</ele><time>2026-04-14T10:52:17Z</time></trkpt><trkpt lat="41.06386189835401" lon="14.845469141328076"><ele>412.33333333333337</ele><time>2026-04-14T10:52:21Z</time></trkpt><trkpt lat="41.06378538991152" lon="14.845428976946385"><ele>413.1666666666667</ele><time>2026-04-14T10:52:25Z</time></trkpt><trkpt lat="41.06371340411727" lon="14.845393741237954"><ele>414.0</ele><time>2026-04-14T10:52:29Z</time></trkpt><trkpt lat="41.06364775209723" lon="14.845364402191786"><ele>414.0</ele><time>2026-04-14T10:52:32Z</time></trkpt><trkpt lat="41.06357670451301" lon="14.845352730710992"><ele>414.0</ele><time>2026-04-14T10:52:35Z</time></trkpt><trkpt lat="41.06351369050272" lon="14.845314185300236"><ele>414.0</ele><time>2026-04-14T10:52:39Z</time></trkpt><trkpt lat="41.063434238446426" lon="14.845289988788329"><ele>414.0</ele><time>2026-04-14T10:52:43Z</time></trkpt><trkpt lat="41.06335091712136" lon="14.845280189489586"><ele>414.0</ele><time>2026-04-14T10:52:47Z</time></trkpt><trkpt lat="41.063279860177815" lon="14.845259476780285"><ele>414.0</ele><time>2026-04-14T10:52:50Z</time></trkpt><trkpt lat="41.06321409528542" lon="14.845190741145752"><ele>414.42857142857144</ele><time>2026-04-14T10:52:55Z</time></trkpt><trkpt lat="41.063155708178755" lon="14.845152107238341"><ele>414.8571428571429</ele><time>2026-04-14T10:52:59Z</time></trkpt><trkpt lat="41.063080652101576" lon="14.845120193811212"><ele>415.28571428571433</ele><time>2026-04-14T10:53:03Z</time></trkpt><trkpt lat="41.0630104671042" lon="14.845075657516094"><ele>415.7142857142857</ele><time>2026-04-14T10:53:07Z</time></trkpt><trkpt lat="41.06294837822258" lon="14.845032168419477"><ele>416.1428571428571</ele><time>2026-04-14T10:53:10Z</time></trkpt><trkpt lat="41.06287146470911" lon="14.84500759562681"><ele>416.5714285714286</ele><time>2026-04-14T10:53:14Z</time></trkpt><trkpt lat="41.06280648803297" lon="14.844965188930203"><ele>417.0</ele><time>2026-04-14T10:53:17Z</time></trkpt><trkpt lat="41.06273878187396" lon="14.844903325309446"><ele>417.42857142857144</ele><time>2026-04-14T10:53:21Z</time></trkpt><trkpt lat="41.06267683294796" lon="14.844866509787625"><ele>417.85714285714283</ele><time>2026-04-14T10:53:24Z</time></trkpt><trkpt lat="41.06260784456206" lon="14.844835049855464"><ele>418.2857142857143</ele><time>2026-04-14T10:53:28Z</time></trkpt><trkpt lat="41.06253937351658" lon="14.844820777714727"><ele>418.7142857142857</ele><time>2026-04-14T10:53:32Z</time></trkpt><trkpt lat="41.06247648322118" lon="14.844831016809195"><ele>419.1428571428571</ele><time>2026-04-14T10:53:35Z</time></trkpt><trkpt lat="41.06240595589914" lon="14.84480018422424"><ele>419.57142857142856</ele><time>2026-04-14T10:53:39Z</time></trkpt><trkpt lat="41.06233098328522" lon="14.844772445803326"><ele>420.0</ele><time>2026-04-14T10:53:43Z</time></trkpt><trkpt lat="41.06225959203057" lon="14.844765539628453"><ele>420.7142857142857</ele><time>2026-04-14T10:53:47Z</time></trkpt><trkpt lat="41.06218295181208" lon="14.844742789077818"><ele>421.42857142857144</ele><time>2026-04-14T10:53:51Z</time></trkpt><trkpt lat="41.06212300463727" lon="14.844714477990532"><ele>422.1428571428571</ele><time>2026-04-14T10:53:54Z</time></trkpt><trkpt lat="41.062052533442895" lon="14.844674479074014"><ele>422.8571428571429</ele><time>2026-04-14T10:53:58Z</time></trkpt><trkpt lat="41.06197974239274" lon="14.84465946213644"><ele>423.57142857142856</ele><time>2026-04-14T10:54:01Z</time></trkpt><trkpt lat="41.06191414215317" lon="14.844646348042529"><ele>424.2857142857143</ele><time>2026-04-14T10:54:05Z</time></trkpt><trkpt lat="41.06184755260434" lon="14.84460882292311"><ele>425.0</ele><time>2026-04-14T10:54:09Z</time></trkpt><trkpt lat="41.061780632151695" lon="14.844585505039406"><ele>425.0</ele><time>2026-04-14T10:54:12Z</time></trkpt><trkpt lat="41.061717752646835" lon="14.844565450024048"><ele>425.0</ele><time>2026-04-14T10:54:15Z</time></trkpt><trkpt lat="41.061642148981235" lon="14.844523267500591"><ele>425.0</ele><time>2026-04-14T10:54:19Z</time></trkpt><trkpt lat="41.06157895173778" lon="14.844482149878997"><ele>425.0</ele><time>2026-04-14T10:54:23Z</time></trkpt><trkpt lat="41.06151809242771" lon="14.844438155681063"><ele>425.0</ele><time>2026-04-14T10:54:26Z</time></trkpt><trkpt lat="41.06144629814201" lon="14.844399807285066"><ele>425.0</ele><time>2026-04-14T10:54:29Z</time></trkpt><trkpt lat="41.061382451102574" lon="14.84436246494837"><ele>425.0</ele><time>2026-04-14T10:54:32Z</time></trkpt><trkpt lat="41.06131482316266" lon="14.844323220454381"><ele>425.49999999999994</ele><time>2026-04-14T10:54:35Z</time></trkpt><trkpt lat="41.06125530336241" lon="14.844288022065266"><ele>426.0</ele><time>2026-04-14T10:54:38Z</time></trkpt><trkpt lat="41.06119440001133" lon="14.844221436535708"><ele>426.5</ele><time>2026-04-14T10:54:42Z</time></trkpt><trkpt lat="41.06113564222873" lon="14.844150021496123"><ele>427.0</ele><time>2026-04-14T10:54:45Z</time></trkpt><trkpt lat="41.06105706729925" lon="14.844163725524105"><ele>427.49999999999994</ele><time>2026-04-14T10:54:49Z</time></trkpt><trkpt lat="41.06100741809878" lon="14.844254849927351"><ele>428.0</ele><time>2026-04-14T10:54:52Z</time></trkpt><trkpt lat="41.060969656848414" lon="14.844341059604856"><ele>428.00000000000006</ele><time>2026-04-14T10:54:55Z</time></trkpt><trkpt lat="41.060920485192874" lon="14.844411790744827"><ele>428.0</ele><time>2026-04-14T10:54:58Z</time></trkpt><trkpt lat="41.060885736856285" lon="14.844509596916376"><ele>428.0</ele><time>2026-04-14T10:55:02Z</time></trkpt><trkpt lat="41.06085036082026" lon="14.844582667316885"><ele>428.0</ele><time>2026-04-14T10:55:05Z</time></trkpt><trkpt lat="41.06081357837741" lon="14.844658328828514"><ele>428.0</ele><time>2026-04-14T10:55:08Z</time></trkpt><trkpt lat="41.06077623481033" lon="14.844742392867184"><ele>428.00000000000006</ele><time>2026-04-14T10:55:11Z</time></trkpt><trkpt lat="41.06074439444497" lon="14.844828821577142"><ele>428.0</ele><time>2026-04-14T10:55:14Z</time></trkpt><trkpt lat="41.06069132614528" lon="14.844914869777735"><ele>428.16666666666663</ele><time>2026-04-14T10:55:17Z</time></trkpt><trkpt lat="41.0606648326423" lon="14.845015103229906"><ele>428.3333333333333</ele><time>2026-04-14T10:55:20Z</time></trkpt><trkpt lat="41.060636492777455" lon="14.8451157281439"><ele>428.5</ele><time>2026-04-14T10:55:22Z</time></trkpt><trkpt lat="41.060612012080995" lon="14.845228492450468"><ele>428.66666666666663</ele><time>2026-04-14T10:55:24Z</time></trkpt><trkpt lat="41.060594200664184" lon="14.845339545978684"><ele>428.8333333333333</ele><time>2026-04-14T10:55:26Z</time></trkpt><trkpt lat="41.06057588368187" lon="14.845420010975737"><ele>429.0</ele><time>2026-04-14T10:55:28Z</time></trkpt><trkpt lat="41.06058972125064" lon="14.845503087899294"><ele>426.79999999999995</ele><time>2026-04-14T10:56:18Z</time></trkpt><trkpt lat="41.06059030047581" lon="14.845605188226813"><ele>424.59999999999997</ele><time>2026-04-14T10:56:21Z</time></trkpt><trkpt lat="41.060571112398335" lon="14.84573398818085"><ele>422.4</ele><time>2026-04-14T10:56:23Z</time></trkpt><trkpt lat="41.06055860067922" lon="14.845908687633102"><ele>420.2</ele><time>2026-04-14T10:56:25Z</time></trkpt><trkpt lat="41.06055801752351" lon="14.846018502119888"><ele>418.0</ele><time>2026-04-14T10:56:26Z</time></trkpt><trkpt lat="41.06056492446016" lon="14.846137536857702"><ele>416.4</ele><time>2026-04-14T10:56:27Z</time></trkpt><trkpt lat="41.060587141578665" lon="14.846261812540284"><ele>414.79999999999995</ele><time>2026-04-14T10:56:28Z</time></trkpt><trkpt lat="41.06061898336243" lon="14.846387227443662"><ele>413.2</ele><time>2026-04-14T10:56:29Z</time></trkpt><trkpt lat="41.060651940606526" lon="14.846513386847493"><ele>411.6</ele><time>2026-04-14T10:56:30Z</time></trkpt><trkpt lat="41.060688937809466" lon="14.84664304362704"><ele>410.0</ele><time>2026-04-14T10:56:31Z</time></trkpt><trkpt lat="41.060760885048225" lon="14.84677146680818"><ele>408.0</ele><time>2026-04-14T10:56:32Z</time></trkpt><trkpt lat="41.06083821827555" lon="14.846906892372356"><ele>406.0</ele><time>2026-04-14T10:56:33Z</time></trkpt><trkpt lat="41.06091819921849" lon="14.847040476102418"><ele>404.0</ele><time>2026-04-14T10:56:34Z</time></trkpt><trkpt lat="41.06101022458133" lon="14.847167211504713"><ele>402.0</ele><time>2026-04-14T10:56:35Z</time></trkpt><trkpt lat="41.061116233825274" lon="14.847291830444302"><ele>402.0</ele><time>2026-04-14T10:56:36Z</time></trkpt><trkpt lat="41.061228127484306" lon="14.84740419170173"><ele>402.0</ele><time>2026-04-14T10:56:37Z</time></trkpt><trkpt lat="41.061348385408195" lon="14.847518186806628"><ele>402.0</ele><time>2026-04-14T10:56:38Z</time></trkpt><trkpt lat="41.06146583388393" lon="14.847633387411973"><ele>402.0</ele><time>2026-04-14T10:56:39Z</time></trkpt><trkpt lat="41.06157875022903" lon="14.847760529341512"><ele>401.0</ele><time>2026-04-14T10:56:40Z</time></trkpt><trkpt lat="41.061708220722686" lon="14.847886668887954"><ele>400.0</ele><time>2026-04-14T10:56:41Z</time></trkpt><trkpt lat="41.06182301816044" lon="14.847996766685744"><ele>399.0</ele><time>2026-04-14T10:56:42Z</time></trkpt><trkpt lat="41.061937486647906" lon="14.848101135283093"><ele>398.0</ele><time>2026-04-14T10:56:43Z</time></trkpt><trkpt lat="41.06206216495566" lon="14.848240402457385"><ele>398.0</ele><time>2026-04-14T10:56:44Z</time></trkpt><trkpt lat="41.062136321373465" lon="14.848339506084049"><ele>398.0</ele><time>2026-04-14T10:56:45Z</time></trkpt><trkpt lat="41.062193327737994" lon="14.848453365804042"><ele>398.0</ele><time>2026-04-14T10:56:46Z</time></trkpt><trkpt lat="41.062236640987486" lon="14.848591938360771"><ele>398.0</ele><time>2026-04-14T10:56:47Z</time></trkpt><trkpt lat="41.062254508702075" lon="14.84874117849716"><ele>398.0</ele><time>2026-04-14T10:56:48Z</time></trkpt><trkpt lat="41.06230637811969" lon="14.84888377614896"><ele>397.79999999999995</ele><time>2026-04-14T10:56:49Z</time></trkpt><trkpt lat="41.0623753262907" lon="14.848994071745325"><ele>397.6</ele><time>2026-04-14T10:56:50Z</time></trkpt><trkpt lat="41.06247139877924" lon="14.84907339365255"><ele>397.4</ele><time>2026-04-14T10:56:51Z</time></trkpt><trkpt lat="41.06255456331493" lon="14.84914874565158"><ele>397.20000000000005</ele><time>2026-04-14T10:56:52Z</time></trkpt><trkpt lat="41.06264724176264" lon="14.8491898822684"><ele>397.0</ele><time>2026-04-14T10:56:53Z</time></trkpt><trkpt lat="41.06273088400735" lon="14.84924019631405"><ele>397.00000000000006</ele><time>2026-04-14T10:56:54Z</time></trkpt><trkpt lat="41.062805377605315" lon="14.849289609582158"><ele>397.0</ele><time>2026-04-14T10:56:55Z</time></trkpt><trkpt lat="41.06288389028384" lon="14.849351550087787"><ele>397.0</ele><time>2026-04-14T10:56:56Z</time></trkpt><trkpt lat="41.06295536478836" lon="14.84940732677991"><ele>397.0</ele><time>2026-04-14T10:56:57Z</time></trkpt><trkpt lat="41.063019422146404" lon="14.849448859141908"><ele>397.00000000000006</ele><time>2026-04-14T10:56:58Z</time></trkpt><trkpt lat="41.06307605870767" lon="14.849528187537098"><ele>397.0</ele><time>2026-04-14T10:56:59Z</time></trkpt><trkpt lat="41.06313209418998" lon="14.849591388572383"><ele>396.6666666666667</ele><time>2026-04-14T10:57:00Z</time></trkpt><trkpt lat="41.063182532864026" lon="14.849656826422358"><ele>396.33333333333337</ele><time>2026-04-14T10:57:01Z</time></trkpt><trkpt lat="41.063238615010505" lon="14.849716153965302"><ele>396.0</ele><time>2026-04-14T10:57:02Z</time></trkpt><trkpt lat="41.063275534978125" lon="14.849794515004165"><ele>395.66666666666663</ele><time>2026-04-14T10:57:03Z</time></trkpt><trkpt lat="41.06330933943572" lon="14.849871559105859"><ele>395.3333333333333</ele><time>2026-04-14T10:57:04Z</time></trkpt><trkpt lat="41.06332285011725" lon="14.849954639931346"><ele>395.0</ele><time>2026-04-14T10:57:05Z</time></trkpt><trkpt lat="41.06336880279102" lon="14.850100183409038"><ele>395.0</ele><time>2026-04-14T10:57:07Z</time></trkpt><trkpt lat="41.06340294130493" lon="14.850230326736963"><ele>395.0</ele><time>2026-04-14T10:57:09Z</time></trkpt><trkpt lat="41.06343490805966" lon="14.850345843026656"><ele>395.0</ele><time>2026-04-14T10:57:11Z</time></trkpt><trkpt lat="41.06347070579694" lon="14.850469509502446"><ele>395.0</ele><time>2026-04-14T10:57:13Z</time></trkpt><trkpt lat="41.063512828389364" lon="14.850586889619057"><ele>395.0</ele><time>2026-04-14T10:57:15Z</time></trkpt><trkpt lat="41.06355088468266" lon="14.850717989269468"><ele>395.0</ele><time>2026-04-14T10:57:17Z</time></trkpt><trkpt lat="41.063589036588766" lon="14.85085061024173"><ele>395.0</ele><time>2026-04-14T10:57:19Z</time></trkpt><trkpt lat="41.06362692865772" lon="14.850983901607457"><ele>395.0</ele><time>2026-04-14T10:57:21Z</time></trkpt><trkpt lat="41.06366247813492" lon="14.851133596655409"><ele>395.0</ele><time>2026-04-14T10:57:23Z</time></trkpt><trkpt lat="41.06370006747904" lon="14.851280701333703"><ele>394.8333333333333</ele><time>2026-04-14T10:57:25Z</time></trkpt><trkpt lat="41.063744836511106" lon="14.851423927873588"><ele>394.66666666666663</ele><time>2026-04-14T10:57:27Z</time></trkpt><trkpt lat="41.06378764415863" lon="14.851577536236004"><ele>394.5</ele><time>2026-04-14T10:57:29Z</time></trkpt><trkpt lat="41.063812997279165" lon="14.85165398421305"><ele>394.33333333333337</ele><time>2026-04-14T10:57:30Z</time></trkpt><trkpt lat="41.0638492948597" lon="14.851722446345502"><ele>394.1666666666667</ele><time>2026-04-14T10:57:31Z</time></trkpt><trkpt lat="41.06387773184762" lon="14.851798871848576"><ele>394.0</ele><time>2026-04-14T10:57:32Z</time></trkpt><trkpt lat="41.0639020683785" lon="14.851880542755971"><ele>393.83333333333337</ele><time>2026-04-14T10:57:33Z</time></trkpt><trkpt lat="41.06391136300671" lon="14.851966043030083"><ele>393.6666666666667</ele><time>2026-04-14T10:57:34Z</time></trkpt><trkpt lat="41.06393485564553" lon="14.852047094887402"><ele>393.5</ele><time>2026-04-14T10:57:35Z</time></trkpt><trkpt lat="41.06397019349739" lon="14.852126845681758"><ele>393.33333333333337</ele><time>2026-04-14T10:57:36Z</time></trkpt><trkpt lat="41.0639814827123" lon="14.852209342254898"><ele>393.1666666666667</ele><time>2026-04-14T10:57:37Z</time></trkpt><trkpt lat="41.06402159372574" lon="14.85233517631221"><ele>393.0</ele><time>2026-04-14T10:57:39Z</time></trkpt><trkpt lat="41.06405456917417" lon="14.852442168139609"><ele>393.0</ele><time>2026-04-14T10:57:41Z</time></trkpt><trkpt lat="41.064061612765386" lon="14.852550530008482"><ele>393.0</ele><time>2026-04-14T10:57:44Z</time></trkpt><trkpt lat="41.06393778950603" lon="14.852503996612999"><ele>393.0</ele><time>2026-04-14T10:57:46Z</time></trkpt><trkpt lat="41.06393250341285" lon="14.852711022130942"><ele>393.0</ele><time>2026-04-14T10:57:48Z</time></trkpt><trkpt lat="41.06387665550681" lon="14.852773196965842"><ele>393.0</ele><time>2026-04-14T10:57:50Z</time></trkpt><trkpt lat="41.06380357267293" lon="14.852809347541385"><ele>393.00000000000006</ele><time>2026-04-14T10:57:52Z</time></trkpt><trkpt lat="41.06373599138209" lon="14.852828318402624"><ele>393.0</ele><time>2026-04-14T10:57:54Z</time></trkpt><trkpt lat="41.06366580756903" lon="14.852862055205993"><ele>393.0</ele><time>2026-04-14T10:57:56Z</time></trkpt><trkpt lat="41.06360497205087" lon="14.852903513185229"><ele>393.0</ele><time>2026-04-14T10:57:58Z</time></trkpt><trkpt lat="41.063532446197186" lon="14.852938713626092"><ele>393.0</ele><time>2026-04-14T10:58:00Z</time></trkpt><trkpt lat="41.063466955628286" lon="14.852955891422807"><ele>393.00000000000006</ele><time>2026-04-14T10:58:02Z</time></trkpt><trkpt lat="41.063411747168075" lon="14.852998488594773"><ele>393.0</ele><time>2026-04-14T10:58:04Z</time></trkpt><trkpt lat="41.06335283491485" lon="14.853036707377226"><ele>393.5</ele><time>2026-04-14T10:58:06Z</time></trkpt><trkpt lat="41.06327088700089" lon="14.85307894463502"><ele>394.0</ele><time>2026-04-14T10:58:09Z</time></trkpt><trkpt lat="41.06319591088569" lon="14.853129162052666"><ele>394.5</ele><time>2026-04-14T10:58:12Z</time></trkpt><trkpt lat="41.0631073214703" lon="14.853166268133648"><ele>395.0</ele><time>2026-04-14T10:58:15Z</time></trkpt><trkpt lat="41.06302943623818" lon="14.853223590520711"><ele>395.5</ele><time>2026-04-14T10:58:18Z</time></trkpt><trkpt lat="41.06295682553507" lon="14.853281446610662"><ele>396.0</ele><time>2026-04-14T10:58:21Z</time></trkpt><trkpt lat="41.062898171282" lon="14.853326225561046"><ele>396.0</ele><time>2026-04-14T10:58:23Z</time></trkpt><trkpt lat="41.06284283040217" lon="14.85337103996081"><ele>396.0</ele><time>2026-04-14T10:58:25Z</time></trkpt><trkpt lat="41.06277169881762" lon="14.85344501552438"><ele>396.0</ele><time>2026-04-14T10:58:28Z</time></trkpt><trkpt lat="41.0626978408875" lon="14.853494965409087"><ele>396.0</ele><time>2026-04-14T10:58:31Z</time></trkpt><trkpt lat="41.06263618405922" lon="14.853529222259416"><ele>396.0</ele><time>2026-04-14T10:58:33Z</time></trkpt><trkpt lat="41.06256358975592" lon="14.853593308298075"><ele>396.0</ele><time>2026-04-14T10:58:36Z</time></trkpt><trkpt lat="41.062506509765385" lon="14.853654853597883"><ele>396.8333333333333</ele><time>2026-04-14T10:58:39Z</time></trkpt><trkpt lat="41.06244609315833" lon="14.853698861744485"><ele>397.66666666666663</ele><time>2026-04-14T10:58:42Z</time></trkpt><trkpt lat="41.06237539493804" lon="14.853773008637548"><ele>398.5</ele><time>2026-04-14T10:58:45Z</time></trkpt><trkpt lat="41.06229595681919" lon="14.853788896079012"><ele>399.3333333333333</ele><time>2026-04-14T10:58:48Z</time></trkpt><trkpt lat="41.062260871611024" lon="14.853873735680768"><ele>400.16666666666663</ele><time>2026-04-14T10:58:53Z</time></trkpt><trkpt lat="41.06221160457357" lon="14.853937374682289"><ele>401.0</ele><time>2026-04-14T10:58:55Z</time></trkpt><trkpt lat="41.06214848542467" lon="14.853973017851526"><ele>401.0</ele><time>2026-04-14T10:58:59Z</time></trkpt><trkpt lat="41.06207348235142" lon="14.853997814754615"><ele>401.0</ele><time>2026-04-14T10:59:02Z</time></trkpt><trkpt lat="41.06200839376581" lon="14.854001057763337"><ele>401.0</ele><time>2026-04-14T10:59:04Z</time></trkpt><trkpt lat="41.06195079236654" lon="14.853959035948224"><ele>401.0</ele><time>2026-04-14T10:59:06Z</time></trkpt><trkpt lat="41.06188675609353" lon="14.853875582033236"><ele>401.0</ele><time>2026-04-14T10:59:09Z</time></trkpt><trkpt lat="41.06184896799867" lon="14.85380783180928"><ele>401.0</ele><time>2026-04-14T10:59:11Z</time></trkpt><trkpt lat="41.06181471802293" lon="14.85371292859481"><ele>401.0</ele><time>2026-04-14T10:59:14Z</time></trkpt><trkpt lat="41.0618228407251" lon="14.853627622836083"><ele>400.99999999999994</ele><time>2026-04-14T10:59:17Z</time></trkpt><trkpt lat="41.061904075632455" lon="14.853596374039563"><ele>401.0</ele><time>2026-04-14T10:59:21Z</time></trkpt><trkpt lat="41.061973777961086" lon="14.853546792191803"><ele>401.0</ele><time>2026-04-14T10:59:25Z</time></trkpt><trkpt lat="41.062041105301084" lon="14.853532918538756"><ele>401.0</ele><time>2026-04-14T10:59:29Z</time></trkpt><trkpt lat="41.062115147940546" lon="14.853500063776183"><ele>400.99999999999994</ele><time>2026-04-14T10:59:32Z</time></trkpt><trkpt lat="41.06220183397527" lon="14.853480337966529"><ele>401.0</ele><time>2026-04-14T10:59:35Z</time></trkpt><trkpt lat="41.06229345916607" lon="14.853435859895187"><ele>400.8333333333333</ele><time>2026-04-14T10:59:38Z</time></trkpt><trkpt lat="41.06237460155048" lon="14.853416124626277"><ele>400.66666666666663</ele><time>2026-04-14T10:59:40Z</time></trkpt><trkpt lat="41.06245818883736" lon="14.853384018050546"><ele>400.5</ele><time>2026-04-14T10:59:42Z</time></trkpt><trkpt lat="41.06254596885261" lon="14.853346581718544"><ele>400.33333333333337</ele><time>2026-04-14T10:59:44Z</time></trkpt><trkpt lat="41.062634101472604" lon="14.853320314597617"><ele>400.1666666666667</ele><time>2026-04-14T10:59:46Z</time></trkpt><trkpt lat="41.062708906582614" lon="14.853300924559589"><ele>400.0</ele><time>2026-04-14T10:59:48Z</time></trkpt><trkpt lat="41.06278527278527" lon="14.85328531218228"><ele>399.33333333333337</ele><time>2026-04-14T10:59:51Z</time></trkpt><trkpt lat="41.0628517283983" lon="14.853265803597072"><ele>398.6666666666667</ele><time>2026-04-14T10:59:54Z</time></trkpt><trkpt lat="41.06292494508306" lon="14.853224032672587"><ele>398.0</ele><time>2026-04-14T11:00:00Z</time></trkpt><trkpt lat="41.06299450421898" lon="14.853188273784633"><ele>397.33333333333337</ele><time>2026-04-14T11:00:06Z</time></trkpt><trkpt lat="41.06308099439921" lon="14.853185453106013"><ele>396.6666666666667</ele><time>2026-04-14T11:00:09Z</time></trkpt><trkpt lat="41.06316624983287" lon="14.853168284401667"><ele>396.0</ele><time>2026-04-14T11:00:11Z</time></trkpt><trkpt lat="41.06325156588583" lon="14.853133664167638"><ele>395.4</ele><time>2026-04-14T11:00:13Z</time></trkpt><trkpt lat="41.063332967003085" lon="14.85308357621186"><ele>394.8</ele><time>2026-04-14T11:00:15Z</time></trkpt><trkpt lat="41.06343816507878" lon="14.853032234754766"><ele>394.2</ele><time>2026-04-14T11:00:17Z</time></trkpt><trkpt lat="41.06353509464643" lon="14.852980726629259"><ele>393.59999999999997</ele><time>2026-04-14T11:00:19Z</time></trkpt><trkpt lat="41.06359921820047" lon="14.852950022690157"><ele>393.0</ele><time>2026-04-14T11:00:20Z</time></trkpt><trkpt lat="41.06371582859043" lon="14.852896787436025"><ele>393.0</ele><time>2026-04-14T11:00:22Z</time></trkpt><trkpt lat="41.06377634142813" lon="14.852867500097695"><ele>393.0</ele><time>2026-04-14T11:00:23Z</time></trkpt><trkpt lat="41.06383472192496" lon="14.852835784709823"><ele>393.0</ele><time>2026-04-14T11:00:24Z</time></trkpt><trkpt lat="41.06394443638392" lon="14.852776747078554"><ele>393.0</ele><time>2026-04-14T11:00:26Z</time></trkpt><trkpt lat="41.06405182222258" lon="14.852714726213065"><ele>393.0</ele><time>2026-04-14T11:00:28Z</time></trkpt><trkpt lat="41.06411477622322" lon="14.852684629438274"><ele>393.0</ele><time>2026-04-14T11:00:29Z</time></trkpt><trkpt lat="41.0641750101341" lon="14.852654041005158"><ele>392.5</ele><time>2026-04-14T11:00:30Z</time></trkpt><trkpt lat="41.06428540029948" lon="14.852565803036844"><ele>392.0</ele><time>2026-04-14T11:00:32Z</time></trkpt><trkpt lat="41.064352198683586" lon="14.852530177388001"><ele>391.5</ele><time>2026-04-14T11:00:33Z</time></trkpt><trkpt lat="41.0644201461731" lon="14.852504379447426"><ele>391.0</ele><time>2026-04-14T11:00:34Z</time></trkpt><trkpt lat="41.06448913426923" lon="14.852472859122814"><ele>390.5</ele><time>2026-04-14T11:00:35Z</time></trkpt><trkpt lat="41.06455871456173" lon="14.85243936776455"><ele>390.0</ele><time>2026-04-14T11:00:36Z</time></trkpt><trkpt lat="41.06463001645149" lon="14.852397603698634"><ele>390.0</ele><time>2026-04-14T11:00:37Z</time></trkpt><trkpt lat="41.06469225206202" lon="14.852358684293785"><ele>390.0</ele><time>2026-04-14T11:00:38Z</time></trkpt><trkpt lat="41.06476044160485" lon="14.852319002983347"><ele>390.0</ele><time>2026-04-14T11:00:39Z</time></trkpt><trkpt lat="41.06482596018112" lon="14.852288368988203"><ele>390.0</ele><time>2026-04-14T11:00:40Z</time></trkpt><trkpt lat="41.064894764894284" lon="14.852256367437276"><ele>390.0</ele><time>2026-04-14T11:00:41Z</time></trkpt><trkpt lat="41.06496489130563" lon="14.85222047761048"><ele>390.0</ele><time>2026-04-14T11:00:42Z</time></trkpt><trkpt lat="41.06503403947647" lon="14.852189113157571"><ele>390.0</ele><time>2026-04-14T11:00:43Z</time></trkpt><trkpt lat="41.0651010306647" lon="14.852157372255043"><ele>389.8333333333333</ele><time>2026-04-14T11:00:44Z</time></trkpt><trkpt lat="41.06516722586281" lon="14.852125894864944"><ele>389.66666666666663</ele><time>2026-04-14T11:00:45Z</time></trkpt><trkpt lat="41.0652280008067" lon="14.85209606875467"><ele>389.5</ele><time>2026-04-14T11:00:46Z</time></trkpt><trkpt lat="41.06529529414617" lon="14.852056728597763"><ele>389.3333333333333</ele><time>2026-04-14T11:00:47Z</time></trkpt><trkpt lat="41.06535464065127" lon="14.852026680339801"><ele>389.16666666666663</ele><time>2026-04-14T11:00:48Z</time></trkpt><trkpt lat="41.06546629666652" lon="14.851966234527005"><ele>389.0</ele><time>2026-04-14T11:00:50Z</time></trkpt><trkpt lat="41.065575610856094" lon="14.851904156937383"><ele>389.0</ele><time>2026-04-14T11:00:52Z</time></trkpt><trkpt lat="41.06568402669835" lon="14.85184738840639"><ele>389.0</ele><time>2026-04-14T11:00:54Z</time></trkpt><trkpt lat="41.06578714215463" lon="14.851797692695824"><ele>389.0</ele><time>2026-04-14T11:00:56Z</time></trkpt><trkpt lat="41.06589225152401" lon="14.851745831771538"><ele>389.0</ele><time>2026-04-14T11:00:58Z</time></trkpt><trkpt lat="41.066000814404305" lon="14.851683378248044"><ele>388.0</ele><time>2026-04-14T11:01:00Z</time></trkpt><trkpt lat="41.066099437658956" lon="14.851636677092108"><ele>387.0</ele><time>2026-04-14T11:01:02Z</time></trkpt><trkpt lat="41.06620766739081" lon="14.851595610740102"><ele>386.0</ele><time>2026-04-14T11:01:04Z</time></trkpt><trkpt lat="41.06631703373206" lon="14.851538009580631"><ele>385.0</ele><time>2026-04-14T11:01:06Z</time></trkpt><trkpt lat="41.066420599479706" lon="14.851477614087655"><ele>384.0</ele><time>2026-04-14T11:01:08Z</time></trkpt><trkpt lat="41.066528656684056" lon="14.851429331646576"><ele>384.4</ele><time>2026-04-14T11:01:10Z</time></trkpt><trkpt lat="41.06662601078861" lon="14.851381572330286"><ele>384.79999999999995</ele><time>2026-04-14T11:01:12Z</time></trkpt><trkpt lat="41.06671785853026" lon="14.851327025886576"><ele>385.20000000000005</ele><time>2026-04-14T11:01:14Z</time></trkpt><trkpt lat="41.06680835617841" lon="14.851275739447644"><ele>385.6</ele><time>2026-04-14T11:01:16Z</time></trkpt><trkpt lat="41.0669103869568" lon="14.8512184621369"><ele>386.0</ele><time>2026-04-14T11:01:18Z</time></trkpt><trkpt lat="41.06701112327733" lon="14.851159815649373"><ele>386.0</ele><time>2026-04-14T11:01:20Z</time></trkpt><trkpt lat="41.06710828605807" lon="14.851121586119872"><ele>386.0</ele><time>2026-04-14T11:01:22Z</time></trkpt><trkpt lat="41.067203375290646" lon="14.851069564750352"><ele>386.0</ele><time>2026-04-14T11:01:24Z</time></trkpt><trkpt lat="41.067310635076474" lon="14.85101605291299"><ele>386.0</ele><time>2026-04-14T11:01:26Z</time></trkpt><trkpt lat="41.067404096843674" lon="14.850968012315485"><ele>386.0</ele><time>2026-04-14T11:01:28Z</time></trkpt><trkpt lat="41.067503663329894" lon="14.850909928457414"><ele>384.4</ele><time>2026-04-14T11:01:30Z</time></trkpt><trkpt lat="41.06760422015207" lon="14.850855705028323"><ele>382.8</ele><time>2026-04-14T11:01:32Z</time></trkpt><trkpt lat="41.067692503423025" lon="14.85081350224043"><ele>381.2</ele><time>2026-04-14T11:01:34Z</time></trkpt><trkpt lat="41.06779481160828" lon="14.850772746531934"><ele>379.59999999999997</ele><time>2026-04-14T11:01:36Z</time></trkpt><trkpt lat="41.06789125587704" lon="14.850724927007933"><ele>378.0</ele><time>2026-04-14T11:01:38Z</time></trkpt><trkpt lat="41.06799580696203" lon="14.850688513816992"><ele>378.0</ele><time>2026-04-14T11:01:40Z</time></trkpt><trkpt lat="41.06809691571359" lon="14.850702294045607"><ele>378.0</ele><time>2026-04-14T11:01:42Z</time></trkpt><trkpt lat="41.06816532250419" lon="14.850739577403848"><ele>378.0</ele><time>2026-04-14T11:01:43Z</time></trkpt><trkpt lat="41.06823476831839" lon="14.850824333165402"><ele>378.0</ele><time>2026-04-14T11:01:45Z</time></trkpt><trkpt lat="41.068296216688346" lon="14.850908826693903"><ele>378.0</ele><time>2026-04-14T11:01:47Z</time></trkpt><trkpt lat="41.068357033063975" lon="14.850978716420213"><ele>378.0</ele><time>2026-04-14T11:01:49Z</time></trkpt><trkpt lat="41.068425423159816" lon="14.851071534817569"><ele>378.79999999999995</ele><time>2026-04-14T11:01:51Z</time></trkpt><trkpt lat="41.06849176382922" lon="14.851161324747281"><ele>379.6</ele><time>2026-04-14T11:01:53Z</time></trkpt><trkpt lat="41.0685552955977" lon="14.851243159161298"><ele>380.4</ele><time>2026-04-14T11:01:55Z</time></trkpt><trkpt lat="41.068607774437574" lon="14.851347461818879"><ele>381.20000000000005</ele><time>2026-04-14T11:01:57Z</time></trkpt><trkpt lat="41.06867545771744" lon="14.851438985523092"><ele>382.0</ele><time>2026-04-14T11:01:59Z</time></trkpt><trkpt lat="41.0687524297345" lon="14.851539536114096"><ele>382.0</ele><time>2026-04-14T11:02:01Z</time></trkpt><trkpt lat="41.06882359404941" lon="14.851628719687753"><ele>382.0</ele><time>2026-04-14T11:02:03Z</time></trkpt><trkpt lat="41.068917307077214" lon="14.85174981516102"><ele>382.0</ele><time>2026-04-14T11:02:05Z</time></trkpt><trkpt lat="41.06897791276486" lon="14.851839118563575"><ele>382.0</ele><time>2026-04-14T11:02:07Z</time></trkpt><trkpt lat="41.06906181906269" lon="14.851947546444173"><ele>382.0</ele><time>2026-04-14T11:02:09Z</time></trkpt><trkpt lat="41.069138445503526" lon="14.852051719394575"><ele>381.40000000000003</ele><time>2026-04-14T11:02:11Z</time></trkpt><trkpt lat="41.069230246625615" lon="14.852137188846733"><ele>380.8</ele><time>2026-04-14T11:02:13Z</time></trkpt><trkpt lat="41.06933844564276" lon="14.852215361137329"><ele>380.2</ele><time>2026-04-14T11:02:15Z</time></trkpt><trkpt lat="41.06939107444882" lon="14.852263491563809"><ele>379.6</ele><time>2026-04-14T11:02:16Z</time></trkpt><trkpt lat="41.06949800441699" lon="14.852321984156754"><ele>379.0</ele><time>2026-04-14T11:02:18Z</time></trkpt><trkpt lat="41.06960622805917" lon="14.852395995591005"><ele>379.0</ele><time>2026-04-14T11:02:20Z</time></trkpt><trkpt lat="41.06971395905216" lon="14.852475947898645"><ele>379.0</ele><time>2026-04-14T11:02:22Z</time></trkpt><trkpt lat="41.06982216092242" lon="14.85255213402414"><ele>379.0</ele><time>2026-04-14T11:02:24Z</time></trkpt><trkpt lat="41.0699201926146" lon="14.852603419962048"><ele>379.0</ele><time>2026-04-14T11:02:26Z</time></trkpt><trkpt lat="41.07002493643865" lon="14.852675992225546"><ele>379.0</ele><time>2026-04-14T11:02:28Z</time></trkpt><trkpt lat="41.07011838585841" lon="14.852738040611296"><ele>379.0</ele><time>2026-04-14T11:02:30Z</time></trkpt><trkpt lat="41.07020894037025" lon="14.852813416350658"><ele>379.0</ele><time>2026-04-14T11:02:32Z</time></trkpt><trkpt lat="41.07029763487988" lon="14.8528446479594"><ele>379.0</ele><time>2026-04-14T11:02:34Z</time></trkpt><trkpt lat="41.07038152669465" lon="14.852918797040891"><ele>379.0</ele><time>2026-04-14T11:02:36Z</time></trkpt><trkpt lat="41.07045748231579" lon="14.852978336047627"><ele>379.0</ele><time>2026-04-14T11:02:38Z</time></trkpt><trkpt lat="41.07053213919365" lon="14.853053136096396"><ele>379.0</ele><time>2026-04-14T11:02:40Z</time></trkpt><trkpt lat="41.07060260360944" lon="14.853124527362613"><ele>379.0</ele><time>2026-04-14T11:02:42Z</time></trkpt><trkpt lat="41.07066568925865" lon="14.85320131289464"><ele>379.0</ele><time>2026-04-14T11:02:44Z</time></trkpt><trkpt lat="41.07071871977386" lon="14.853282391198638"><ele>379.0</ele><time>2026-04-14T11:02:46Z</time></trkpt><trkpt lat="41.07077773850649" lon="14.853348320939403"><ele>379.0</ele><time>2026-04-14T11:02:48Z</time></trkpt><trkpt lat="41.07083173151728" lon="14.85341852202913"><ele>379.5</ele><time>2026-04-14T11:02:50Z</time></trkpt><trkpt lat="41.07089722520582" lon="14.853477420807343"><ele>380.0</ele><time>2026-04-14T11:02:52Z</time></trkpt><trkpt lat="41.07095990269821" lon="14.853552436541598"><ele>380.5</ele><time>2026-04-14T11:02:54Z</time></trkpt><trkpt lat="41.071029577221935" lon="14.853613420250161"><ele>381.0</ele><time>2026-04-14T11:02:56Z</time></trkpt><trkpt lat="41.07109667720736" lon="14.853672627698765"><ele>381.5</ele><time>2026-04-14T11:02:58Z</time></trkpt><trkpt lat="41.07116291851118" lon="14.853716229612115"><ele>382.0</ele><time>2026-04-14T11:03:00Z</time></trkpt><trkpt lat="41.07123889859263" lon="14.853753718133953"><ele>382.0</ele><time>2026-04-14T11:03:02Z</time></trkpt><trkpt lat="41.07130994869233" lon="14.853781454765244"><ele>382.0</ele><time>2026-04-14T11:03:04Z</time></trkpt><trkpt lat="41.07138636065943" lon="14.853832548810042"><ele>382.0</ele><time>2026-04-14T11:03:06Z</time></trkpt><trkpt lat="41.07146571651583" lon="14.85386461534017"><ele>382.0</ele><time>2026-04-14T11:03:08Z</time></trkpt><trkpt lat="41.071549396283174" lon="14.853907985054516"><ele>382.0</ele><time>2026-04-14T11:03:10Z</time></trkpt><trkpt lat="41.07164629526495" lon="14.853949320032676"><ele>382.0</ele><time>2026-04-14T11:03:12Z</time></trkpt><trkpt lat="41.0717334753221" lon="14.853990417724688"><ele>381.20000000000005</ele><time>2026-04-14T11:03:14Z</time></trkpt><trkpt lat="41.07182827556072" lon="14.854034332472269"><ele>380.4</ele><time>2026-04-14T11:03:16Z</time></trkpt><trkpt lat="41.07192551438044" lon="14.854077865073837"><ele>379.6</ele><time>2026-04-14T11:03:18Z</time></trkpt><trkpt lat="41.0720228699039" lon="14.854116671272527"><ele>378.79999999999995</ele><time>2026-04-14T11:03:20Z</time></trkpt><trkpt lat="41.07212524654039" lon="14.854142368369557"><ele>378.0</ele><time>2026-04-14T11:03:22Z</time></trkpt><trkpt lat="41.07221805494805" lon="14.854178974046421"><ele>378.0</ele><time>2026-04-14T11:03:24Z</time></trkpt><trkpt lat="41.072315917876544" lon="14.854199453471063"><ele>378.0</ele><time>2026-04-14T11:03:26Z</time></trkpt><trkpt lat="41.07240224476242" lon="14.854256745338962"><ele>378.0</ele><time>2026-04-14T11:03:28Z</time></trkpt><trkpt lat="41.07241341208282" lon="14.854390297104327"><ele>378.0</ele><time>2026-04-14T11:03:30Z</time></trkpt><trkpt lat="41.072363606456314" lon="14.854511253309644"><ele>378.0</ele><time>2026-04-14T11:03:32Z</time></trkpt><trkpt lat="41.07232274164783" lon="14.854623713076297"><ele>378.0</ele><time>2026-04-14T11:03:34Z</time></trkpt><trkpt lat="41.07228241814996" lon="14.854729561561841"><ele>378.0</ele><time>2026-04-14T11:03:36Z</time></trkpt><trkpt lat="41.07224741931865" lon="14.854842037664923"><ele>378.0</ele><time>2026-04-14T11:03:38Z</time></trkpt><trkpt lat="41.0722184118324" lon="14.8549578854796"><ele>378.0</ele><time>2026-04-14T11:03:40Z</time></trkpt><trkpt lat="41.07219238081035" lon="14.855078202908325"><ele>378.0</ele><time>2026-04-14T11:03:42Z</time></trkpt><trkpt lat="41.072163666388725" lon="14.855176695054455"><ele>378.0</ele><time>2026-04-14T11:03:44Z</time></trkpt><trkpt lat="41.07213582030283" lon="14.855286217660986"><ele>378.0</ele><time>2026-04-14T11:03:46Z</time></trkpt><trkpt lat="41.07210606348332" lon="14.855405864918383"><ele>378.0</ele><time>2026-04-14T11:03:48Z</time></trkpt><trkpt lat="41.07207688238104" lon="14.855511504838747"><ele>378.0</ele><time>2026-04-14T11:03:50Z</time></trkpt><trkpt lat="41.07205051666353" lon="14.855635383095512"><ele>378.0</ele><time>2026-04-14T11:03:52Z</time></trkpt><trkpt lat="41.07201493254921" lon="14.855754145624873"><ele>378.0</ele><time>2026-04-14T11:03:54Z</time></trkpt><trkpt lat="41.07196814120913" lon="14.855853528519209"><ele>377.4</ele><time>2026-04-14T11:03:56Z</time></trkpt><trkpt lat="41.07193383054036" lon="14.855954926217517"><ele>376.79999999999995</ele><time>2026-04-14T11:03:58Z</time></trkpt><trkpt lat="41.07187262543064" lon="14.856084527763878"><ele>376.2</ele><time>2026-04-14T11:04:00Z</time></trkpt><trkpt lat="41.07182428517875" lon="14.856181418295648"><ele>375.6</ele><time>2026-04-14T11:04:02Z</time></trkpt><trkpt lat="41.07177393716351" lon="14.856258722924384"><ele>375.0</ele><time>2026-04-14T11:04:04Z</time></trkpt><trkpt lat="41.07170547802694" lon="14.85635609811429"><ele>375.0</ele><time>2026-04-14T11:04:06Z</time></trkpt><trkpt lat="41.07163838063835" lon="14.856444777236256"><ele>375.0</ele><time>2026-04-14T11:04:08Z</time></trkpt><trkpt lat="41.07156733616864" lon="14.856520884050543"><ele>375.0</ele><time>2026-04-14T11:04:10Z</time></trkpt><trkpt lat="41.071483811487006" lon="14.85656847275595"><ele>375.0</ele><time>2026-04-14T11:04:12Z</time></trkpt><trkpt lat="41.071408520015474" lon="14.856618294501807"><ele>375.0</ele><time>2026-04-14T11:04:14Z</time></trkpt><trkpt lat="41.07132458469601" lon="14.856650162891432"><ele>375.0</ele><time>2026-04-14T11:04:16Z</time></trkpt><trkpt lat="41.07125153557116" lon="14.856675296642274"><ele>375.1666666666667</ele><time>2026-04-14T11:04:18Z</time></trkpt><trkpt lat="41.07117332910062" lon="14.856691905609607"><ele>375.3333333333333</ele><time>2026-04-14T11:04:20Z</time></trkpt><trkpt lat="41.07105251740772" lon="14.856710424833203"><ele>375.5</ele><time>2026-04-14T11:04:22Z</time></trkpt><trkpt lat="41.07097444931778" lon="14.856723887529755"><ele>375.66666666666663</ele><time>2026-04-14T11:04:24Z</time></trkpt><trkpt lat="41.07090505941791" lon="14.856735393186746"><ele>375.8333333333333</ele><time>2026-04-14T11:04:26Z</time></trkpt><trkpt lat="41.07082271991576" lon="14.85674351922178"><ele>376.0</ele><time>2026-04-14T11:04:28Z</time></trkpt><trkpt lat="41.07073157527028" lon="14.856760310590346"><ele>376.16666666666663</ele><time>2026-04-14T11:04:30Z</time></trkpt><trkpt lat="41.07063254924404" lon="14.856769932197151"><ele>376.3333333333333</ele><time>2026-04-14T11:04:33Z</time></trkpt><trkpt lat="41.07055610490113" lon="14.85677868998272"><ele>376.5</ele><time>2026-04-14T11:04:35Z</time></trkpt><trkpt lat="41.07048389289599" lon="14.856786990927166"><ele>376.6666666666667</ele><time>2026-04-14T11:04:37Z</time></trkpt><trkpt lat="41.0704095801313" lon="14.856804640065288"><ele>376.83333333333337</ele><time>2026-04-14T11:04:39Z</time></trkpt><trkpt lat="41.070330643206695" lon="14.85681407230562"><ele>377.0</ele><time>2026-04-14T11:04:41Z</time></trkpt><trkpt lat="41.07024343613309" lon="14.856821536247745"><ele>376.6</ele><time>2026-04-14T11:04:43Z</time></trkpt><trkpt lat="41.070158703759425" lon="14.856839215527597"><ele>376.20000000000005</ele><time>2026-04-14T11:04:45Z</time></trkpt><trkpt lat="41.07006282151893" lon="14.85685301332754"><ele>375.8</ele><time>2026-04-14T11:04:47Z</time></trkpt><trkpt lat="41.06997218099974" lon="14.85686350358488"><ele>375.4</ele><time>2026-04-14T11:04:49Z</time></trkpt><trkpt lat="41.06987962980481" lon="14.856875705539212"><ele>375.0</ele><time>2026-04-14T11:04:51Z</time></trkpt><trkpt lat="41.06979553363919" lon="14.856892581832664"><ele>374.3333333333333</ele><time>2026-04-14T11:04:53Z</time></trkpt><trkpt lat="41.06970429543392" lon="14.856908329948572"><ele>373.6666666666667</ele><time>2026-04-14T11:04:55Z</time></trkpt><trkpt lat="41.06961130180914" lon="14.856919526887811"><ele>373.0</ele><time>2026-04-14T11:04:57Z</time></trkpt><trkpt lat="41.069536674287114" lon="14.856929066302259"><ele>372.33333333333337</ele><time>2026-04-14T11:04:59Z</time></trkpt><trkpt lat="41.069440867832235" lon="14.856942470428189"><ele>371.6666666666667</ele><time>2026-04-14T11:05:01Z</time></trkpt><trkpt lat="41.069362068288434" lon="14.856944750842835"><ele>371.0</ele><time>2026-04-14T11:05:03Z</time></trkpt><trkpt lat="41.06927774263724" lon="14.856956317892507"><ele>371.0</ele><time>2026-04-14T11:05:05Z</time></trkpt><trkpt lat="41.06919884691319" lon="14.856968832619854"><ele>371.0</ele><time>2026-04-14T11:05:07Z</time></trkpt><trkpt lat="41.069122738930375" lon="14.85697560253127"><ele>371.0</ele><time>2026-04-14T11:05:09Z</time></trkpt><trkpt lat="41.069043218094244" lon="14.856986180166258"><ele>371.0</ele><time>2026-04-14T11:05:11Z</time></trkpt><trkpt lat="41.068973479259164" lon="14.856993068783948"><ele>371.0</ele><time>2026-04-14T11:05:13Z</time></trkpt><trkpt lat="41.068881523688965" lon="14.857006771026816"><ele>371.0</ele><time>2026-04-14T11:05:15Z</time></trkpt><trkpt lat="41.06880930435" lon="14.85701749845597"><ele>371.83333333333337</ele><time>2026-04-14T11:05:17Z</time></trkpt><trkpt lat="41.06872715785523" lon="14.857027821077596"><ele>372.6666666666667</ele><time>2026-04-14T11:05:19Z</time></trkpt><trkpt lat="41.06864537324418" lon="14.85704299542644"><ele>373.5</ele><time>2026-04-14T11:05:21Z</time></trkpt><trkpt lat="41.06856172696667" lon="14.857052350317025"><ele>374.3333333333333</ele><time>2026-04-14T11:05:23Z</time></trkpt><trkpt lat="41.06848360207549" lon="14.857066057966502"><ele>375.16666666666663</ele><time>2026-04-14T11:05:25Z</time></trkpt><trkpt lat="41.0684054948189" lon="14.857072650383282"><ele>376.0</ele><time>2026-04-14T11:05:27Z</time></trkpt><trkpt lat="41.06832830051585" lon="14.857084385880086"><ele>376.16666666666663</ele><time>2026-04-14T11:05:29Z</time></trkpt><trkpt lat="41.06824592170844" lon="14.857091277361976"><ele>376.3333333333333</ele><time>2026-04-14T11:05:31Z</time></trkpt><trkpt lat="41.068163525632436" lon="14.857109392492532"><ele>376.5</ele><time>2026-04-14T11:05:33Z</time></trkpt><trkpt lat="41.068084824486625" lon="14.857117958369429"><ele>376.6666666666667</ele><time>2026-04-14T11:05:35Z</time></trkpt><trkpt lat="41.06800644040175" lon="14.857118916751649"><ele>376.83333333333337</ele><time>2026-04-14T11:05:37Z</time></trkpt><trkpt lat="41.067934852428756" lon="14.857138208706994"><ele>377.0</ele><time>2026-04-14T11:05:39Z</time></trkpt><trkpt lat="41.067858204952145" lon="14.857141454054533"><ele>377.0</ele><time>2026-04-14T11:05:41Z</time></trkpt><trkpt lat="41.06777185358135" lon="14.857146032305398"><ele>377.0</ele><time>2026-04-14T11:05:43Z</time></trkpt><trkpt lat="41.06769053836561" lon="14.857147813944131"><ele>377.0</ele><time>2026-04-14T11:05:45Z</time></trkpt><trkpt lat="41.06761723575631" lon="14.857138561487554"><ele>377.0</ele><time>2026-04-14T11:05:47Z</time></trkpt><trkpt lat="41.067550326540385" lon="14.857115023118904"><ele>377.0</ele><time>2026-04-14T11:05:49Z</time></trkpt><trkpt lat="41.06748510111335" lon="14.85708076744625"><ele>377.0</ele><time>2026-04-14T11:05:51Z</time></trkpt><trkpt lat="41.06741272025595" lon="14.857029425330492"><ele>377.0</ele><time>2026-04-14T11:05:53Z</time></trkpt><trkpt lat="41.06733973540166" lon="14.857000795041033"><ele>377.0</ele><time>2026-04-14T11:05:55Z</time></trkpt><trkpt lat="41.06727153594595" lon="14.856938366164538"><ele>377.0</ele><time>2026-04-14T11:05:57Z</time></trkpt><trkpt lat="41.06720725962786" lon="14.856884959643306"><ele>377.0</ele><time>2026-04-14T11:05:59Z</time></trkpt><trkpt lat="41.067143311353604" lon="14.856840749461547"><ele>377.0</ele><time>2026-04-14T11:06:01Z</time></trkpt><trkpt lat="41.067065632440624" lon="14.85679058312069"><ele>377.0</ele><time>2026-04-14T11:06:03Z</time></trkpt><trkpt lat="41.066997355635905" lon="14.856738450658035"><ele>377.33333333333337</ele><time>2026-04-14T11:06:05Z</time></trkpt><trkpt lat="41.066921946282584" lon="14.856702413515565"><ele>377.6666666666667</ele><time>2026-04-14T11:06:07Z</time></trkpt><trkpt lat="41.06685719708476" lon="14.856632479554529"><ele>378.0</ele><time>2026-04-14T11:06:09Z</time></trkpt><trkpt lat="41.06678180362531" lon="14.856592949490018"><ele>378.3333333333333</ele><time>2026-04-14T11:06:11Z</time></trkpt><trkpt lat="41.066721545758476" lon="14.856562707588163"><ele>378.66666666666663</ele><time>2026-04-14T11:06:13Z</time></trkpt><trkpt lat="41.06664935217568" lon="14.856558136948989"><ele>379.0</ele><time>2026-04-14T11:06:15Z</time></trkpt><trkpt lat="41.066566503920114" lon="14.856575549032518"><ele>379.0</ele><time>2026-04-14T11:06:17Z</time></trkpt><trkpt lat="41.06649627133503" lon="14.856609754318544"><ele>379.0</ele><time>2026-04-14T11:06:19Z</time></trkpt><trkpt lat="41.066412084981835" lon="14.856664854545398"><ele>379.0</ele><time>2026-04-14T11:06:21Z</time></trkpt><trkpt lat="41.06631925405397" lon="14.856739118952603"><ele>379.0</ele><time>2026-04-14T11:06:23Z</time></trkpt><trkpt lat="41.06624954434224" lon="14.85681310771591"><ele>379.0</ele><time>2026-04-14T11:06:25Z</time></trkpt><trkpt lat="41.06615612854938" lon="14.856897839816188"><ele>378.4</ele><time>2026-04-14T11:06:27Z</time></trkpt><trkpt lat="41.06608627226138" lon="14.856979450854986"><ele>377.79999999999995</ele><time>2026-04-14T11:06:29Z</time></trkpt><trkpt lat="41.06601635024936" lon="14.857057750854032"><ele>377.20000000000005</ele><time>2026-04-14T11:06:31Z</time></trkpt><trkpt lat="41.06596059826343" lon="14.857106286453215"><ele>376.6</ele><time>2026-04-14T11:06:32Z</time></trkpt><trkpt lat="41.06586977617233" lon="14.857191173380741"><ele>376.0</ele><time>2026-04-14T11:06:34Z</time></trkpt><trkpt lat="41.06578773690528" lon="14.857279637292908"><ele>376.0</ele><time>2026-04-14T11:06:36Z</time></trkpt><trkpt lat="41.06573402350647" lon="14.857328367324435"><ele>376.0</ele><time>2026-04-14T11:06:37Z</time></trkpt><trkpt lat="41.06564769590566" lon="14.857417050747106"><ele>376.0</ele><time>2026-04-14T11:06:39Z</time></trkpt><trkpt lat="41.06555631692617" lon="14.857515845656781"><ele>376.0</ele><time>2026-04-14T11:06:41Z</time></trkpt><trkpt lat="41.06545163434535" lon="14.857623779262251"><ele>376.0</ele><time>2026-04-14T11:06:43Z</time></trkpt><trkpt lat="41.065396439422834" lon="14.857681556063195"><ele>375.16666666666663</ele><time>2026-04-14T11:06:44Z</time></trkpt><trkpt lat="41.06533592985172" lon="14.857742809855976"><ele>374.3333333333333</ele><time>2026-04-14T11:06:45Z</time></trkpt><trkpt lat="41.06527978599994" lon="14.85780793990363"><ele>373.5</ele><time>2026-04-14T11:06:46Z</time></trkpt><trkpt lat="41.06521805723564" lon="14.857868336074134"><ele>372.6666666666667</ele><time>2026-04-14T11:06:47Z</time></trkpt><trkpt lat="41.065153857529225" lon="14.857936329852434"><ele>371.83333333333337</ele><time>2026-04-14T11:06:48Z</time></trkpt><trkpt lat="41.06509609362466" lon="14.857993604478754"><ele>371.0</ele><time>2026-04-14T11:06:49Z</time></trkpt><trkpt lat="41.065037761062825" lon="14.858077461587074"><ele>371.0</ele><time>2026-04-14T11:06:50Z</time></trkpt><trkpt lat="41.06498207353244" lon="14.858156332454428"><ele>371.0</ele><time>2026-04-14T11:06:51Z</time></trkpt><trkpt lat="41.06492798434784" lon="14.858232993132523"><ele>371.0</ele><time>2026-04-14T11:06:52Z</time></trkpt><trkpt lat="41.064876319434575" lon="14.858315782662253"><ele>371.0</ele><time>2026-04-14T11:06:53Z</time></trkpt><trkpt lat="41.06482678897212" lon="14.858389344754375"><ele>371.0</ele><time>2026-04-14T11:06:54Z</time></trkpt><trkpt lat="41.06478863580161" lon="14.858472009741432"><ele>371.0</ele><time>2026-04-14T11:06:55Z</time></trkpt><trkpt lat="41.064747845107625" lon="14.858551120343755"><ele>372.20000000000005</ele><time>2026-04-14T11:06:56Z</time></trkpt><trkpt lat="41.06471632591279" lon="14.858635065907361"><ele>373.40000000000003</ele><time>2026-04-14T11:06:57Z</time></trkpt><trkpt lat="41.06465557518681" lon="14.858772559772756"><ele>374.6</ele><time>2026-04-14T11:06:59Z</time></trkpt><trkpt lat="41.06460155373398" lon="14.858897801428276"><ele>375.8</ele><time>2026-04-14T11:07:01Z</time></trkpt><trkpt lat="41.06456304971745" lon="14.85901154472014"><ele>377.0</ele><time>2026-04-14T11:07:03Z</time></trkpt><trkpt lat="41.064512756923534" lon="14.859127361450291"><ele>377.0</ele><time>2026-04-14T11:07:05Z</time></trkpt><trkpt lat="41.06447197980435" lon="14.859215024681061"><ele>377.0</ele><time>2026-04-14T11:07:07Z</time></trkpt><trkpt lat="41.064449160369556" lon="14.859295950875497"><ele>377.0</ele><time>2026-04-14T11:07:09Z</time></trkpt><trkpt lat="41.064405053048915" lon="14.85940111435362"><ele>377.0</ele><time>2026-04-14T11:07:11Z</time></trkpt><trkpt lat="41.06436906047263" lon="14.859500521410041"><ele>377.0</ele><time>2026-04-14T11:07:13Z</time></trkpt><trkpt lat="41.06432426673921" lon="14.859606993653037"><ele>377.0</ele><time>2026-04-14T11:07:15Z</time></trkpt><trkpt lat="41.06428844059084" lon="14.859713318504765"><ele>377.6666666666667</ele><time>2026-04-14T11:07:17Z</time></trkpt><trkpt lat="41.064253097927235" lon="14.85980917627642"><ele>378.33333333333337</ele><time>2026-04-14T11:07:19Z</time></trkpt><trkpt lat="41.064228582321185" lon="14.859910431830611"><ele>379.0</ele><time>2026-04-14T11:07:21Z</time></trkpt><trkpt lat="41.06417747376397" lon="14.859996436764275"><ele>379.6666666666667</ele><time>2026-04-14T11:07:23Z</time></trkpt><trkpt lat="41.06414570895357" lon="14.860097403169346"><ele>380.3333333333333</ele><time>2026-04-14T11:07:25Z</time></trkpt><trkpt lat="41.06409419076625" lon="14.860168163956548"><ele>381.0</ele><time>2026-04-14T11:07:27Z</time></trkpt><trkpt lat="41.06403677696726" lon="14.860205932457173"><ele>381.3333333333333</ele><time>2026-04-14T11:07:30Z</time></trkpt><trkpt lat="41.063993042597296" lon="14.860143644027499"><ele>381.6666666666667</ele><time>2026-04-14T11:07:32Z</time></trkpt><trkpt lat="41.06392526462906" lon="14.860077059019327"><ele>382.0</ele><time>2026-04-14T11:07:35Z</time></trkpt><trkpt lat="41.06384314042102" lon="14.859998625648561"><ele>382.33333333333337</ele><time>2026-04-14T11:07:38Z</time></trkpt><trkpt lat="41.06377667810102" lon="14.85996605372455"><ele>382.6666666666667</ele><time>2026-04-14T11:07:40Z</time></trkpt><trkpt lat="41.0637061263707" lon="14.859896032562466"><ele>383.0</ele><time>2026-04-14T11:07:43Z</time></trkpt><trkpt lat="41.06364219852827" lon="14.85985518536864"><ele>383.0</ele><time>2026-04-14T11:07:45Z</time></trkpt><trkpt lat="41.063584893744824" lon="14.859809601606196"><ele>383.0</ele><time>2026-04-14T11:07:47Z</time></trkpt><trkpt lat="41.063525946573826" lon="14.859766417749915"><ele>383.0</ele><time>2026-04-14T11:07:49Z</time></trkpt><trkpt lat="41.0634472664231" lon="14.859710829242736"><ele>383.0</ele><time>2026-04-14T11:07:52Z</time></trkpt><trkpt lat="41.06338755293426" lon="14.85967578594282"><ele>383.0</ele><time>2026-04-14T11:07:54Z</time></trkpt><trkpt lat="41.063302214615405" lon="14.859627086093775"><ele>383.0</ele><time>2026-04-14T11:07:57Z</time></trkpt><trkpt lat="41.06324053858612" lon="14.85959299252912"><ele>383.0</ele><time>2026-04-14T11:07:59Z</time></trkpt><trkpt lat="41.063183354759204" lon="14.859552186353321"><ele>383.0</ele><time>2026-04-14T11:08:01Z</time></trkpt><trkpt lat="41.063107276817" lon="14.859484883338983"><ele>383.0</ele><time>2026-04-14T11:08:04Z</time></trkpt><trkpt lat="41.063048089259695" lon="14.859434274183723"><ele>383.0</ele><time>2026-04-14T11:08:06Z</time></trkpt><trkpt lat="41.06296957339438" lon="14.859352745309367"><ele>383.0</ele><time>2026-04-14T11:08:09Z</time></trkpt><trkpt lat="41.06291493648189" lon="14.859301021274028"><ele>383.0</ele><time>2026-04-14T11:08:11Z</time></trkpt><trkpt lat="41.06287009214918" lon="14.859234438316156"><ele>383.0</ele><time>2026-04-14T11:08:13Z</time></trkpt><trkpt lat="41.06282530565222" lon="14.85912844383294"><ele>383.2857142857143</ele><time>2026-04-14T11:08:16Z</time></trkpt><trkpt lat="41.062806259350545" lon="14.859048616495748"><ele>383.57142857142856</ele><time>2026-04-14T11:08:18Z</time></trkpt><trkpt lat="41.06279199731532" lon="14.858963314866562"><ele>383.8571428571429</ele><time>2026-04-14T11:08:20Z</time></trkpt><trkpt lat="41.06275705482018" lon="14.858881574789457"><ele>384.1428571428571</ele><time>2026-04-14T11:08:22Z</time></trkpt><trkpt lat="41.0627376291866" lon="14.858798350711957"><ele>384.42857142857144</ele><time>2026-04-14T11:08:24Z</time></trkpt><trkpt lat="41.06272495390427" lon="14.858713931018672"><ele>384.7142857142857</ele><time>2026-04-14T11:08:26Z</time></trkpt><trkpt lat="41.0626996603424" lon="14.858593062649438"><ele>385.0</ele><time>2026-04-14T11:08:29Z</time></trkpt><trkpt lat="41.0626807240957" lon="14.858500374626272"><ele>385.2857142857143</ele><time>2026-04-14T11:08:31Z</time></trkpt><trkpt lat="41.062677340994426" lon="14.858414594156855"><ele>385.57142857142856</ele><time>2026-04-14T11:08:33Z</time></trkpt><trkpt lat="41.06266055865091" lon="14.858321679334306"><ele>385.8571428571429</ele><time>2026-04-14T11:08:35Z</time></trkpt><trkpt lat="41.062656343548106" lon="14.858229189318347"><ele>386.1428571428571</ele><time>2026-04-14T11:08:37Z</time></trkpt><trkpt lat="41.06264694790574" lon="14.858143952241628"><ele>386.42857142857144</ele><time>2026-04-14T11:08:39Z</time></trkpt><trkpt lat="41.06264332542703" lon="14.858047927051036"><ele>386.7142857142857</ele><time>2026-04-14T11:08:41Z</time></trkpt><trkpt lat="41.06264074436745" lon="14.857958752703926"><ele>387.0</ele><time>2026-04-14T11:08:43Z</time></trkpt><trkpt lat="41.06263499194506" lon="14.857844106167507"><ele>387.0</ele><time>2026-04-14T11:08:46Z</time></trkpt><trkpt lat="41.062634837271695" lon="14.857755386407282"><ele>387.0</ele><time>2026-04-14T11:08:48Z</time></trkpt><trkpt lat="41.0626380510204" lon="14.857637226418678"><ele>387.0</ele><time>2026-04-14T11:08:51Z</time></trkpt><trkpt lat="41.062614561301814" lon="14.857518295304622"><ele>387.0</ele><time>2026-04-14T11:08:54Z</time></trkpt><trkpt lat="41.06259033745921" lon="14.857416900427442"><ele>387.0</ele><time>2026-04-14T11:08:57Z</time></trkpt><trkpt lat="41.06257819081645" lon="14.857334263100649"><ele>387.0</ele><time>2026-04-14T11:08:59Z</time></trkpt><trkpt lat="41.06255497129491" lon="14.857212064738109"><ele>387.3333333333333</ele><time>2026-04-14T11:09:02Z</time></trkpt><trkpt lat="41.06252391797052" lon="14.857098439469695"><ele>387.66666666666663</ele><time>2026-04-14T11:09:05Z</time></trkpt><trkpt lat="41.06250408103572" lon="14.856987018932228"><ele>388.0</ele><time>2026-04-14T11:09:08Z</time></trkpt><trkpt lat="41.06247636030638" lon="14.856911606831616"><ele>388.3333333333333</ele><time>2026-04-14T11:09:12Z</time></trkpt><trkpt lat="41.062450601425034" lon="14.856807250808405"><ele>388.66666666666663</ele><time>2026-04-14T11:09:15Z</time></trkpt><trkpt lat="41.06241395201688" lon="14.856729051921304"><ele>389.0</ele><time>2026-04-14T11:09:17Z</time></trkpt><trkpt lat="41.062383106889314" lon="14.85662486827262"><ele>391.0</ele><time>2026-04-14T11:09:20Z</time></trkpt><trkpt lat="41.0623511780055" lon="14.856518423781818"><ele>391.0</ele><time>2026-04-14T11:09:23Z</time></trkpt><trkpt lat="41.06232823062176" lon="14.856413622400908"><ele>391.0</ele><time>2026-04-14T11:09:26Z</time></trkpt><trkpt lat="41.062302118288564" lon="14.856309831659237"><ele>391.0</ele><time>2026-04-14T11:09:29Z</time></trkpt></trkseg></trk></gpx>